<?xml version="1.0" encoding="UTF-8" standalone="no" ?>
<gpx xmlns="http://www.topografix.com/GPX/1/1" xmlns:xsi="http://www.w3.org/2001/XMLSchema-instance" xsi:schemaLocation="http://www.topografix.com/GPX/1/1 http://www.topografix.com/GPX/1/1/gpx.xsd" version="1.1" creator="VisuGPX - https://www.visugpx.com">
  <metadata>
    <name>Seguret -Prébayon-ND Aubusson</name>
    <desc><![CDATA[Jolie randonnée malgré  quelques longueurs sur pistes ]]></desc>
  </metadata>
  <wpt lat="44.20742" lon="5.023">
    <ele>206</ele>
    <name><![CDATA[parking 2]]></name>
    <desc><![CDATA[19-FEV-16 10:05:02]]></desc>
    <cmt><![CDATA[19-FEV-16 10:05:02]]></cmt>
  </wpt>
  <wpt lat="44.20652" lon="5.05373">
    <ele>375</ele>
    <name><![CDATA[pique nique]]></name>
    <desc><![CDATA[Ruisseau Du Grand Alizier]]></desc>
    <cmt><![CDATA[Ruisseau Du Grand Alizier]]></cmt>
  </wpt>
  <trk>
    <name><![CDATA[Seguret -Prébayon-ND Aubusson]]></name>
    <trkseg>
      <trkpt lat="44.20742" lon="5.02295">
        <ele>196.2463379</ele>
        <time>2016-02-19T09:04:24Z</time>
      </trkpt>
      <trkpt lat="44.20742" lon="5.02299">
        <ele>200.0916748</ele>
        <time>2016-02-19T09:04:43Z</time>
      </trkpt>
      <trkpt lat="44.20744" lon="5.023">
        <ele>208.2628174</ele>
        <time>2016-02-19T09:05:11Z</time>
      </trkpt>
      <trkpt lat="44.20748" lon="5.02304">
        <ele>210.6660156</ele>
        <time>2016-02-19T09:05:24Z</time>
      </trkpt>
      <trkpt lat="44.20745" lon="5.02309">
        <ele>212.1080322</ele>
        <time>2016-02-19T09:05:57Z</time>
      </trkpt>
      <trkpt lat="44.20746" lon="5.0233">
        <ele>214.0306396</ele>
        <time>2016-02-19T09:06:39Z</time>
      </trkpt>
      <trkpt lat="44.20742" lon="5.02332">
        <ele>214.5112305</ele>
        <time>2016-02-19T09:06:41Z</time>
      </trkpt>
      <trkpt lat="44.20718" lon="5.02325">
        <ele>219.798584</ele>
        <time>2016-02-19T09:07:01Z</time>
      </trkpt>
      <trkpt lat="44.20706" lon="5.02312">
        <ele>224.6052246</ele>
        <time>2016-02-19T09:07:20Z</time>
      </trkpt>
      <trkpt lat="44.20691" lon="5.02301">
        <ele>223.6437988</ele>
        <time>2016-02-19T09:07:34Z</time>
      </trkpt>
      <trkpt lat="44.20679" lon="5.02295">
        <ele>224.1245117</ele>
        <time>2016-02-19T09:07:47Z</time>
      </trkpt>
      <trkpt lat="44.20668" lon="5.02288">
        <ele>224.6052246</ele>
        <time>2016-02-19T09:07:59Z</time>
      </trkpt>
      <trkpt lat="44.2066" lon="5.02292">
        <ele>225.5665283</ele>
        <time>2016-02-19T09:08:22Z</time>
      </trkpt>
      <trkpt lat="44.20661" lon="5.02298">
        <ele>226.527832</ele>
        <time>2016-02-19T09:08:41Z</time>
      </trkpt>
      <trkpt lat="44.2066" lon="5.02286">
        <ele>227.0085449</ele>
        <time>2016-02-19T09:09:00Z</time>
      </trkpt>
      <trkpt lat="44.20655" lon="5.02281">
        <ele>227.9697266</ele>
        <time>2016-02-19T09:09:18Z</time>
      </trkpt>
      <trkpt lat="44.20637" lon="5.02286">
        <ele>230.3730469</ele>
        <time>2016-02-19T09:09:37Z</time>
      </trkpt>
      <trkpt lat="44.20621" lon="5.0229">
        <ele>228.4504395</ele>
        <time>2016-02-19T09:09:51Z</time>
      </trkpt>
      <trkpt lat="44.20606" lon="5.02293">
        <ele>228.9311523</ele>
        <time>2016-02-19T09:10:07Z</time>
      </trkpt>
      <trkpt lat="44.20591" lon="5.02309">
        <ele>230.3730469</ele>
        <time>2016-02-19T09:10:28Z</time>
      </trkpt>
      <trkpt lat="44.2057" lon="5.02318">
        <ele>230.3730469</ele>
        <time>2016-02-19T09:11:06Z</time>
      </trkpt>
      <trkpt lat="44.20556" lon="5.02327">
        <ele>232.2957764</ele>
        <time>2016-02-19T09:11:41Z</time>
      </trkpt>
      <trkpt lat="44.20552" lon="5.02326">
        <ele>232.2957764</ele>
        <time>2016-02-19T09:11:46Z</time>
      </trkpt>
      <trkpt lat="44.2054" lon="5.0232">
        <ele>233.2570801</ele>
        <time>2016-02-19T09:12:01Z</time>
      </trkpt>
      <trkpt lat="44.20538" lon="5.02322">
        <ele>233.2570801</ele>
        <time>2016-02-19T09:12:05Z</time>
      </trkpt>
      <trkpt lat="44.20533" lon="5.02324">
        <ele>233.7376709</ele>
        <time>2016-02-19T09:12:09Z</time>
      </trkpt>
      <trkpt lat="44.20531" lon="5.02328">
        <ele>233.7376709</ele>
        <time>2016-02-19T09:12:12Z</time>
      </trkpt>
      <trkpt lat="44.20524" lon="5.02332">
        <ele>234.6990967</ele>
        <time>2016-02-19T09:12:19Z</time>
      </trkpt>
      <trkpt lat="44.20517" lon="5.02332">
        <ele>234.6990967</ele>
        <time>2016-02-19T09:12:23Z</time>
      </trkpt>
      <trkpt lat="44.20509" lon="5.02333">
        <ele>235.6602783</ele>
        <time>2016-02-19T09:12:30Z</time>
      </trkpt>
      <trkpt lat="44.20496" lon="5.02335">
        <ele>237.1022949</ele>
        <time>2016-02-19T09:12:42Z</time>
      </trkpt>
      <trkpt lat="44.20481" lon="5.02321">
        <ele>238.5443115</ele>
        <time>2016-02-19T09:12:59Z</time>
      </trkpt>
      <trkpt lat="44.20473" lon="5.02326">
        <ele>239.0249023</ele>
        <time>2016-02-19T09:13:11Z</time>
      </trkpt>
      <trkpt lat="44.2046" lon="5.02343">
        <ele>238.5443115</ele>
        <time>2016-02-19T09:13:25Z</time>
      </trkpt>
      <trkpt lat="44.2045" lon="5.02354">
        <ele>237.5828857</ele>
        <time>2016-02-19T09:13:33Z</time>
      </trkpt>
      <trkpt lat="44.20435" lon="5.02349">
        <ele>236.6217041</ele>
        <time>2016-02-19T09:13:55Z</time>
      </trkpt>
      <trkpt lat="44.20426" lon="5.02345">
        <ele>238.5443115</ele>
        <time>2016-02-19T09:14:10Z</time>
      </trkpt>
      <trkpt lat="44.20425" lon="5.02348">
        <ele>236.1409912</ele>
        <time>2016-02-19T09:14:32Z</time>
      </trkpt>
      <trkpt lat="44.20427" lon="5.02353">
        <ele>232.2957764</ele>
        <time>2016-02-19T09:14:49Z</time>
      </trkpt>
      <trkpt lat="44.2043" lon="5.02352">
        <ele>232.2957764</ele>
        <time>2016-02-19T09:15:02Z</time>
      </trkpt>
      <trkpt lat="44.20435" lon="5.0235">
        <ele>232.7764893</ele>
        <time>2016-02-19T09:15:36Z</time>
      </trkpt>
      <trkpt lat="44.20431" lon="5.02352">
        <ele>233.2570801</ele>
        <time>2016-02-19T09:15:51Z</time>
      </trkpt>
      <trkpt lat="44.20429" lon="5.02357">
        <ele>233.7376709</ele>
        <time>2016-02-19T09:16:02Z</time>
      </trkpt>
      <trkpt lat="44.20417" lon="5.02367">
        <ele>235.6602783</ele>
        <time>2016-02-19T09:16:11Z</time>
      </trkpt>
      <trkpt lat="44.20406" lon="5.02387">
        <ele>236.6217041</ele>
        <time>2016-02-19T09:16:26Z</time>
      </trkpt>
      <trkpt lat="44.204" lon="5.02402">
        <ele>236.6217041</ele>
        <time>2016-02-19T09:16:36Z</time>
      </trkpt>
      <trkpt lat="44.2039" lon="5.02431">
        <ele>235.6602783</ele>
        <time>2016-02-19T09:16:54Z</time>
      </trkpt>
      <trkpt lat="44.20391" lon="5.02426">
        <ele>231.3343506</ele>
        <time>2016-02-19T09:17:02Z</time>
      </trkpt>
      <trkpt lat="44.20393" lon="5.02423">
        <ele>229.4117432</ele>
        <time>2016-02-19T09:17:21Z</time>
      </trkpt>
      <trkpt lat="44.20394" lon="5.02434">
        <ele>231.3343506</ele>
        <time>2016-02-19T09:17:30Z</time>
      </trkpt>
      <trkpt lat="44.20389" lon="5.02454">
        <ele>229.892334</ele>
        <time>2016-02-19T09:17:44Z</time>
      </trkpt>
      <trkpt lat="44.20386" lon="5.0247">
        <ele>231.3343506</ele>
        <time>2016-02-19T09:17:57Z</time>
      </trkpt>
      <trkpt lat="44.2038" lon="5.02484">
        <ele>230.8537598</ele>
        <time>2016-02-19T09:18:09Z</time>
      </trkpt>
      <trkpt lat="44.2038" lon="5.02496">
        <ele>230.3730469</ele>
        <time>2016-02-19T09:18:20Z</time>
      </trkpt>
      <trkpt lat="44.20385" lon="5.02521">
        <ele>228.4504395</ele>
        <time>2016-02-19T09:18:37Z</time>
      </trkpt>
      <trkpt lat="44.20391" lon="5.02542">
        <ele>227.0085449</ele>
        <time>2016-02-19T09:18:51Z</time>
      </trkpt>
      <trkpt lat="44.20392" lon="5.02558">
        <ele>226.0471191</ele>
        <time>2016-02-19T09:19:06Z</time>
      </trkpt>
      <trkpt lat="44.20391" lon="5.02566">
        <ele>227.9697266</ele>
        <time>2016-02-19T09:19:18Z</time>
      </trkpt>
      <trkpt lat="44.20394" lon="5.02603">
        <ele>229.4117432</ele>
        <time>2016-02-19T09:19:39Z</time>
      </trkpt>
      <trkpt lat="44.20393" lon="5.02618">
        <ele>229.4117432</ele>
        <time>2016-02-19T09:19:50Z</time>
      </trkpt>
      <trkpt lat="44.20392" lon="5.02627">
        <ele>229.892334</ele>
        <time>2016-02-19T09:19:59Z</time>
      </trkpt>
      <trkpt lat="44.20387" lon="5.02648">
        <ele>227.9697266</ele>
        <time>2016-02-19T09:20:12Z</time>
      </trkpt>
      <trkpt lat="44.20379" lon="5.02666">
        <ele>223.163208</ele>
        <time>2016-02-19T09:20:25Z</time>
      </trkpt>
      <trkpt lat="44.20368" lon="5.02691">
        <ele>221.2406006</ele>
        <time>2016-02-19T09:20:48Z</time>
      </trkpt>
      <trkpt lat="44.20363" lon="5.02696">
        <ele>226.527832</ele>
        <time>2016-02-19T09:21:05Z</time>
      </trkpt>
      <trkpt lat="44.20356" lon="5.0271">
        <ele>226.527832</ele>
        <time>2016-02-19T09:21:15Z</time>
      </trkpt>
      <trkpt lat="44.20352" lon="5.02725">
        <ele>226.527832</ele>
        <time>2016-02-19T09:21:29Z</time>
      </trkpt>
      <trkpt lat="44.20349" lon="5.02734">
        <ele>226.0471191</ele>
        <time>2016-02-19T09:21:34Z</time>
      </trkpt>
      <trkpt lat="44.2034" lon="5.02761">
        <ele>225.0859375</ele>
        <time>2016-02-19T09:21:52Z</time>
      </trkpt>
      <trkpt lat="44.20325" lon="5.02781">
        <ele>224.6052246</ele>
        <time>2016-02-19T09:22:09Z</time>
      </trkpt>
      <trkpt lat="44.20311" lon="5.028">
        <ele>222.6824951</ele>
        <time>2016-02-19T09:22:26Z</time>
      </trkpt>
      <trkpt lat="44.20294" lon="5.02826">
        <ele>222.2017822</ele>
        <time>2016-02-19T09:22:47Z</time>
      </trkpt>
      <trkpt lat="44.20277" lon="5.02854">
        <ele>226.0471191</ele>
        <time>2016-02-19T09:23:05Z</time>
      </trkpt>
      <trkpt lat="44.20266" lon="5.02871">
        <ele>232.2957764</ele>
        <time>2016-02-19T09:23:20Z</time>
      </trkpt>
      <trkpt lat="44.20261" lon="5.0288">
        <ele>236.1409912</ele>
        <time>2016-02-19T09:23:25Z</time>
      </trkpt>
      <trkpt lat="44.20259" lon="5.02884">
        <ele>236.6217041</ele>
        <time>2016-02-19T09:23:28Z</time>
      </trkpt>
      <trkpt lat="44.20244" lon="5.02902">
        <ele>243.831543</ele>
        <time>2016-02-19T09:23:45Z</time>
      </trkpt>
      <trkpt lat="44.20222" lon="5.02917">
        <ele>245.2734375</ele>
        <time>2016-02-19T09:24:05Z</time>
      </trkpt>
      <trkpt lat="44.20201" lon="5.02935">
        <ele>246.2348633</ele>
        <time>2016-02-19T09:24:27Z</time>
      </trkpt>
      <trkpt lat="44.20193" lon="5.02952">
        <ele>245.7541504</ele>
        <time>2016-02-19T09:24:41Z</time>
      </trkpt>
      <trkpt lat="44.20189" lon="5.0296">
        <ele>245.7541504</ele>
        <time>2016-02-19T09:24:47Z</time>
      </trkpt>
      <trkpt lat="44.20181" lon="5.02977">
        <ele>244.3122559</ele>
        <time>2016-02-19T09:25:06Z</time>
      </trkpt>
      <trkpt lat="44.20161" lon="5.03019">
        <ele>240.9476318</ele>
        <time>2016-02-19T09:25:35Z</time>
      </trkpt>
      <trkpt lat="44.20141" lon="5.03043">
        <ele>241.4282227</ele>
        <time>2016-02-19T09:25:58Z</time>
      </trkpt>
      <trkpt lat="44.20129" lon="5.03056">
        <ele>243.831543</ele>
        <time>2016-02-19T09:26:12Z</time>
      </trkpt>
      <trkpt lat="44.20127" lon="5.03062">
        <ele>245.2734375</ele>
        <time>2016-02-19T09:26:16Z</time>
      </trkpt>
      <trkpt lat="44.20111" lon="5.03069">
        <ele>249.5994873</ele>
        <time>2016-02-19T09:26:31Z</time>
      </trkpt>
      <trkpt lat="44.20095" lon="5.03073">
        <ele>253.4447021</ele>
        <time>2016-02-19T09:26:46Z</time>
      </trkpt>
      <trkpt lat="44.20081" lon="5.03083">
        <ele>257.2900391</ele>
        <time>2016-02-19T09:27:01Z</time>
      </trkpt>
      <trkpt lat="44.20063" lon="5.03098">
        <ele>260.1739502</ele>
        <time>2016-02-19T09:27:22Z</time>
      </trkpt>
      <trkpt lat="44.20052" lon="5.03117">
        <ele>263.5385742</ele>
        <time>2016-02-19T09:27:36Z</time>
      </trkpt>
      <trkpt lat="44.20043" lon="5.03125">
        <ele>266.4224854</ele>
        <time>2016-02-19T09:27:49Z</time>
      </trkpt>
      <trkpt lat="44.20029" lon="5.03135">
        <ele>271.7097168</ele>
        <time>2016-02-19T09:28:08Z</time>
      </trkpt>
      <trkpt lat="44.2001" lon="5.03141">
        <ele>276.0356445</ele>
        <time>2016-02-19T09:28:28Z</time>
      </trkpt>
      <trkpt lat="44.19997" lon="5.03153">
        <ele>279.8808594</ele>
        <time>2016-02-19T09:28:47Z</time>
      </trkpt>
      <trkpt lat="44.19981" lon="5.03154">
        <ele>284.2069092</ele>
        <time>2016-02-19T09:29:10Z</time>
      </trkpt>
      <trkpt lat="44.19972" lon="5.0317">
        <ele>283.2456055</ele>
        <time>2016-02-19T09:29:36Z</time>
      </trkpt>
      <trkpt lat="44.19964" lon="5.0318">
        <ele>284.2069092</ele>
        <time>2016-02-19T09:29:51Z</time>
      </trkpt>
      <trkpt lat="44.19956" lon="5.0319">
        <ele>285.6488037</ele>
        <time>2016-02-19T09:30:12Z</time>
      </trkpt>
      <trkpt lat="44.19946" lon="5.03191">
        <ele>286.6102295</ele>
        <time>2016-02-19T09:30:31Z</time>
      </trkpt>
      <trkpt lat="44.19939" lon="5.03204">
        <ele>288.0522461</ele>
        <time>2016-02-19T09:30:49Z</time>
      </trkpt>
      <trkpt lat="44.19925" lon="5.03211">
        <ele>290.9361572</ele>
        <time>2016-02-19T09:31:15Z</time>
      </trkpt>
      <trkpt lat="44.19911" lon="5.03223">
        <ele>293.8200684</ele>
        <time>2016-02-19T09:31:43Z</time>
      </trkpt>
      <trkpt lat="44.199" lon="5.03231">
        <ele>292.8587646</ele>
        <time>2016-02-19T09:32:03Z</time>
      </trkpt>
      <trkpt lat="44.19893" lon="5.03242">
        <ele>294.3007813</ele>
        <time>2016-02-19T09:32:17Z</time>
      </trkpt>
      <trkpt lat="44.19884" lon="5.03251">
        <ele>295.7426758</ele>
        <time>2016-02-19T09:32:47Z</time>
      </trkpt>
      <trkpt lat="44.19879" lon="5.03266">
        <ele>297.6654053</ele>
        <time>2016-02-19T09:33:06Z</time>
      </trkpt>
      <trkpt lat="44.19869" lon="5.03272">
        <ele>298.626709</ele>
        <time>2016-02-19T09:33:25Z</time>
      </trkpt>
      <trkpt lat="44.19862" lon="5.03287">
        <ele>300.5493164</ele>
        <time>2016-02-19T09:33:40Z</time>
      </trkpt>
      <trkpt lat="44.1986" lon="5.033">
        <ele>301.5106201</ele>
        <time>2016-02-19T09:33:57Z</time>
      </trkpt>
      <trkpt lat="44.19847" lon="5.0332">
        <ele>304.3946533</ele>
        <time>2016-02-19T09:34:23Z</time>
      </trkpt>
      <trkpt lat="44.19838" lon="5.03349">
        <ele>308.2398682</ele>
        <time>2016-02-19T09:34:51Z</time>
      </trkpt>
      <trkpt lat="44.19831" lon="5.03367">
        <ele>309.2011719</ele>
        <time>2016-02-19T09:35:12Z</time>
      </trkpt>
      <trkpt lat="44.19836" lon="5.03373">
        <ele>311.1237793</ele>
        <time>2016-02-19T09:35:34Z</time>
      </trkpt>
      <trkpt lat="44.1984" lon="5.0339">
        <ele>314.0078125</ele>
        <time>2016-02-19T09:35:58Z</time>
      </trkpt>
      <trkpt lat="44.1981" lon="5.03402">
        <ele>316.4110107</ele>
        <time>2016-02-19T09:36:30Z</time>
      </trkpt>
      <trkpt lat="44.19796" lon="5.03383">
        <ele>320.7370605</ele>
        <time>2016-02-19T09:36:56Z</time>
      </trkpt>
      <trkpt lat="44.19781" lon="5.03358">
        <ele>325.5435791</ele>
        <time>2016-02-19T09:37:23Z</time>
      </trkpt>
      <trkpt lat="44.19777" lon="5.03368">
        <ele>328.4276123</ele>
        <time>2016-02-19T09:37:41Z</time>
      </trkpt>
      <trkpt lat="44.19792" lon="5.03405">
        <ele>329.8695068</ele>
        <time>2016-02-19T09:38:13Z</time>
      </trkpt>
      <trkpt lat="44.19801" lon="5.03436">
        <ele>331.7921143</ele>
        <time>2016-02-19T09:38:38Z</time>
      </trkpt>
      <trkpt lat="44.1981" lon="5.03455">
        <ele>332.75354</ele>
        <time>2016-02-19T09:38:58Z</time>
      </trkpt>
      <trkpt lat="44.19834" lon="5.03472">
        <ele>336.598877</ele>
        <time>2016-02-19T09:39:19Z</time>
      </trkpt>
      <trkpt lat="44.19839" lon="5.03482">
        <ele>337.5600586</ele>
        <time>2016-02-19T09:39:37Z</time>
      </trkpt>
      <trkpt lat="44.19829" lon="5.03497">
        <ele>340.4440918</ele>
        <time>2016-02-19T09:40:54Z</time>
      </trkpt>
      <trkpt lat="44.19816" lon="5.03514">
        <ele>344.7700195</ele>
        <time>2016-02-19T09:41:18Z</time>
      </trkpt>
      <trkpt lat="44.19819" lon="5.03539">
        <ele>347.6539307</ele>
        <time>2016-02-19T09:41:38Z</time>
      </trkpt>
      <trkpt lat="44.19818" lon="5.0355">
        <ele>346.692627</ele>
        <time>2016-02-19T09:41:51Z</time>
      </trkpt>
      <trkpt lat="44.19819" lon="5.0355">
        <ele>347.6539307</ele>
        <time>2016-02-19T09:42:28Z</time>
      </trkpt>
      <trkpt lat="44.19814" lon="5.03557">
        <ele>350.057251</ele>
        <time>2016-02-19T09:43:32Z</time>
      </trkpt>
      <trkpt lat="44.1981" lon="5.03563">
        <ele>351.4991455</ele>
        <time>2016-02-19T09:43:36Z</time>
      </trkpt>
      <trkpt lat="44.1981" lon="5.03569">
        <ele>353.9025879</ele>
        <time>2016-02-19T09:43:42Z</time>
      </trkpt>
      <trkpt lat="44.19811" lon="5.03578">
        <ele>354.3831787</ele>
        <time>2016-02-19T09:43:46Z</time>
      </trkpt>
      <trkpt lat="44.19812" lon="5.03589">
        <ele>357.7478027</ele>
        <time>2016-02-19T09:43:54Z</time>
      </trkpt>
      <trkpt lat="44.1981" lon="5.03599">
        <ele>358.7089844</ele>
        <time>2016-02-19T09:44:03Z</time>
      </trkpt>
      <trkpt lat="44.19806" lon="5.03615">
        <ele>358.7089844</ele>
        <time>2016-02-19T09:44:16Z</time>
      </trkpt>
      <trkpt lat="44.198" lon="5.03623">
        <ele>359.1896973</ele>
        <time>2016-02-19T09:44:23Z</time>
      </trkpt>
      <trkpt lat="44.19791" lon="5.0364">
        <ele>355.8251953</ele>
        <time>2016-02-19T09:44:36Z</time>
      </trkpt>
      <trkpt lat="44.1978" lon="5.03655">
        <ele>354.8637695</ele>
        <time>2016-02-19T09:44:50Z</time>
      </trkpt>
      <trkpt lat="44.1977" lon="5.03673">
        <ele>351.4991455</ele>
        <time>2016-02-19T09:45:05Z</time>
      </trkpt>
      <trkpt lat="44.19759" lon="5.03691">
        <ele>346.2120361</ele>
        <time>2016-02-19T09:45:22Z</time>
      </trkpt>
      <trkpt lat="44.19753" lon="5.03706">
        <ele>342.3666992</ele>
        <time>2016-02-19T09:45:34Z</time>
      </trkpt>
      <trkpt lat="44.19747" lon="5.03723">
        <ele>339.9633789</ele>
        <time>2016-02-19T09:45:47Z</time>
      </trkpt>
      <trkpt lat="44.19736" lon="5.03747">
        <ele>339.0020752</ele>
        <time>2016-02-19T09:46:02Z</time>
      </trkpt>
      <trkpt lat="44.19729" lon="5.0376">
        <ele>337.5600586</ele>
        <time>2016-02-19T09:46:14Z</time>
      </trkpt>
      <trkpt lat="44.19718" lon="5.03779">
        <ele>335.1567383</ele>
        <time>2016-02-19T09:46:30Z</time>
      </trkpt>
      <trkpt lat="44.19707" lon="5.03793">
        <ele>333.2341309</ele>
        <time>2016-02-19T09:46:42Z</time>
      </trkpt>
      <trkpt lat="44.19703" lon="5.03802">
        <ele>331.3115234</ele>
        <time>2016-02-19T09:46:48Z</time>
      </trkpt>
      <trkpt lat="44.19675" lon="5.03819">
        <ele>332.2728271</ele>
        <time>2016-02-19T09:47:11Z</time>
      </trkpt>
      <trkpt lat="44.19659" lon="5.03814">
        <ele>338.0407715</ele>
        <time>2016-02-19T09:47:24Z</time>
      </trkpt>
      <trkpt lat="44.19634" lon="5.03825">
        <ele>339.0020752</ele>
        <time>2016-02-19T09:47:41Z</time>
      </trkpt>
      <trkpt lat="44.19614" lon="5.03845">
        <ele>339.0020752</ele>
        <time>2016-02-19T09:48:00Z</time>
      </trkpt>
      <trkpt lat="44.19605" lon="5.03866">
        <ele>338.0407715</ele>
        <time>2016-02-19T09:48:15Z</time>
      </trkpt>
      <trkpt lat="44.19591" lon="5.03885">
        <ele>336.1181641</ele>
        <time>2016-02-19T09:48:31Z</time>
      </trkpt>
      <trkpt lat="44.1958" lon="5.03902">
        <ele>335.6373291</ele>
        <time>2016-02-19T09:48:47Z</time>
      </trkpt>
      <trkpt lat="44.19578" lon="5.03904">
        <ele>336.1181641</ele>
        <time>2016-02-19T09:49:12Z</time>
      </trkpt>
      <trkpt lat="44.19587" lon="5.03901">
        <ele>336.1181641</ele>
        <time>2016-02-19T09:49:37Z</time>
      </trkpt>
      <trkpt lat="44.19573" lon="5.03902">
        <ele>333.2341309</ele>
        <time>2016-02-19T09:50:05Z</time>
      </trkpt>
      <trkpt lat="44.19567" lon="5.03911">
        <ele>333.2341309</ele>
        <time>2016-02-19T09:50:19Z</time>
      </trkpt>
      <trkpt lat="44.19551" lon="5.03924">
        <ele>329.388916</ele>
        <time>2016-02-19T09:50:37Z</time>
      </trkpt>
      <trkpt lat="44.19539" lon="5.03932">
        <ele>327.9467773</ele>
        <time>2016-02-19T09:50:47Z</time>
      </trkpt>
      <trkpt lat="44.19524" lon="5.03933">
        <ele>324.5822754</ele>
        <time>2016-02-19T09:51:04Z</time>
      </trkpt>
      <trkpt lat="44.19513" lon="5.03933">
        <ele>322.659668</ele>
        <time>2016-02-19T09:51:18Z</time>
      </trkpt>
      <trkpt lat="44.19511" lon="5.03933">
        <ele>321.6983643</ele>
        <time>2016-02-19T09:51:20Z</time>
      </trkpt>
      <trkpt lat="44.19494" lon="5.03929">
        <ele>318.3336182</ele>
        <time>2016-02-19T09:51:37Z</time>
      </trkpt>
      <trkpt lat="44.19481" lon="5.03931">
        <ele>315.9304199</ele>
        <time>2016-02-19T09:51:48Z</time>
      </trkpt>
      <trkpt lat="44.19479" lon="5.03931">
        <ele>315.9304199</ele>
        <time>2016-02-19T09:51:50Z</time>
      </trkpt>
      <trkpt lat="44.19472" lon="5.03929">
        <ele>316.8917236</ele>
        <time>2016-02-19T09:51:55Z</time>
      </trkpt>
      <trkpt lat="44.1947" lon="5.03931">
        <ele>316.4110107</ele>
        <time>2016-02-19T09:51:57Z</time>
      </trkpt>
      <trkpt lat="44.19452" lon="5.03927">
        <ele>315.9304199</ele>
        <time>2016-02-19T09:52:14Z</time>
      </trkpt>
      <trkpt lat="44.19435" lon="5.03922">
        <ele>314.4884033</ele>
        <time>2016-02-19T09:52:28Z</time>
      </trkpt>
      <trkpt lat="44.19422" lon="5.03919">
        <ele>313.0465088</ele>
        <time>2016-02-19T09:52:40Z</time>
      </trkpt>
      <trkpt lat="44.19404" lon="5.03916">
        <ele>308.720459</ele>
        <time>2016-02-19T09:52:57Z</time>
      </trkpt>
      <trkpt lat="44.19383" lon="5.03918">
        <ele>306.3172607</ele>
        <time>2016-02-19T09:53:16Z</time>
      </trkpt>
      <trkpt lat="44.19378" lon="5.03921">
        <ele>306.3172607</ele>
        <time>2016-02-19T09:53:20Z</time>
      </trkpt>
      <trkpt lat="44.19363" lon="5.03918">
        <ele>305.8366699</ele>
        <time>2016-02-19T09:53:33Z</time>
      </trkpt>
      <trkpt lat="44.1936" lon="5.03915">
        <ele>305.355957</ele>
        <time>2016-02-19T09:53:36Z</time>
      </trkpt>
      <trkpt lat="44.19347" lon="5.03911">
        <ele>299.5880127</ele>
        <time>2016-02-19T09:53:48Z</time>
      </trkpt>
      <trkpt lat="44.19331" lon="5.03911">
        <ele>301.0299072</ele>
        <time>2016-02-19T09:54:01Z</time>
      </trkpt>
      <trkpt lat="44.19323" lon="5.03915">
        <ele>301.5106201</ele>
        <time>2016-02-19T09:54:08Z</time>
      </trkpt>
      <trkpt lat="44.19312" lon="5.03931">
        <ele>303.4332275</ele>
        <time>2016-02-19T09:54:20Z</time>
      </trkpt>
      <trkpt lat="44.19301" lon="5.03946">
        <ele>302.9525146</ele>
        <time>2016-02-19T09:54:34Z</time>
      </trkpt>
      <trkpt lat="44.19292" lon="5.03973">
        <ele>300.0687256</ele>
        <time>2016-02-19T09:54:51Z</time>
      </trkpt>
      <trkpt lat="44.19285" lon="5.03996">
        <ele>301.0299072</ele>
        <time>2016-02-19T09:55:02Z</time>
      </trkpt>
      <trkpt lat="44.19278" lon="5.04004">
        <ele>302.4719238</ele>
        <time>2016-02-19T09:55:08Z</time>
      </trkpt>
      <trkpt lat="44.19273" lon="5.04008">
        <ele>303.9139404</ele>
        <time>2016-02-19T09:55:14Z</time>
      </trkpt>
      <trkpt lat="44.19258" lon="5.04017">
        <ele>306.3172607</ele>
        <time>2016-02-19T09:55:26Z</time>
      </trkpt>
      <trkpt lat="44.19256" lon="5.04018">
        <ele>306.7978516</ele>
        <time>2016-02-19T09:55:28Z</time>
      </trkpt>
      <trkpt lat="44.19245" lon="5.04024">
        <ele>306.7978516</ele>
        <time>2016-02-19T09:55:36Z</time>
      </trkpt>
      <trkpt lat="44.19229" lon="5.04009">
        <ele>303.9139404</ele>
        <time>2016-02-19T09:55:52Z</time>
      </trkpt>
      <trkpt lat="44.19221" lon="5.04005">
        <ele>301.991333</ele>
        <time>2016-02-19T09:56:00Z</time>
      </trkpt>
      <trkpt lat="44.19211" lon="5.03999">
        <ele>301.991333</ele>
        <time>2016-02-19T09:56:08Z</time>
      </trkpt>
      <trkpt lat="44.19202" lon="5.03996">
        <ele>304.3946533</ele>
        <time>2016-02-19T09:56:15Z</time>
      </trkpt>
      <trkpt lat="44.19197" lon="5.03994">
        <ele>304.8752441</ele>
        <time>2016-02-19T09:56:19Z</time>
      </trkpt>
      <trkpt lat="44.19195" lon="5.03994">
        <ele>304.3946533</ele>
        <time>2016-02-19T09:56:21Z</time>
      </trkpt>
      <trkpt lat="44.19169" lon="5.03996">
        <ele>304.8752441</ele>
        <time>2016-02-19T09:56:40Z</time>
      </trkpt>
      <trkpt lat="44.19166" lon="5.03995">
        <ele>304.3946533</ele>
        <time>2016-02-19T09:56:42Z</time>
      </trkpt>
      <trkpt lat="44.19163" lon="5.03994">
        <ele>304.3946533</ele>
        <time>2016-02-19T09:56:44Z</time>
      </trkpt>
      <trkpt lat="44.19145" lon="5.03992">
        <ele>303.9139404</ele>
        <time>2016-02-19T09:56:58Z</time>
      </trkpt>
      <trkpt lat="44.19129" lon="5.03981">
        <ele>303.9139404</ele>
        <time>2016-02-19T09:57:12Z</time>
      </trkpt>
      <trkpt lat="44.19108" lon="5.03966">
        <ele>302.9525146</ele>
        <time>2016-02-19T09:57:27Z</time>
      </trkpt>
      <trkpt lat="44.19091" lon="5.03961">
        <ele>303.9139404</ele>
        <time>2016-02-19T09:57:41Z</time>
      </trkpt>
      <trkpt lat="44.19076" lon="5.03958">
        <ele>305.355957</ele>
        <time>2016-02-19T09:57:51Z</time>
      </trkpt>
      <trkpt lat="44.19071" lon="5.03957">
        <ele>305.8366699</ele>
        <time>2016-02-19T09:57:55Z</time>
      </trkpt>
      <trkpt lat="44.19064" lon="5.03956">
        <ele>306.3172607</ele>
        <time>2016-02-19T09:58:00Z</time>
      </trkpt>
      <trkpt lat="44.1906" lon="5.03954">
        <ele>306.3172607</ele>
        <time>2016-02-19T09:58:04Z</time>
      </trkpt>
      <trkpt lat="44.19049" lon="5.03949">
        <ele>306.3172607</ele>
        <time>2016-02-19T09:58:16Z</time>
      </trkpt>
      <trkpt lat="44.19028" lon="5.03944">
        <ele>307.7592773</ele>
        <time>2016-02-19T09:58:33Z</time>
      </trkpt>
      <trkpt lat="44.19016" lon="5.03933">
        <ele>306.7978516</ele>
        <time>2016-02-19T09:58:47Z</time>
      </trkpt>
      <trkpt lat="44.19006" lon="5.03926">
        <ele>305.355957</ele>
        <time>2016-02-19T09:59:01Z</time>
      </trkpt>
      <trkpt lat="44.18999" lon="5.03921">
        <ele>305.355957</ele>
        <time>2016-02-19T09:59:21Z</time>
      </trkpt>
      <trkpt lat="44.19001" lon="5.03923">
        <ele>306.3172607</ele>
        <time>2016-02-19T09:59:59Z</time>
      </trkpt>
      <trkpt lat="44.19001" lon="5.03923">
        <ele>306.3172607</ele>
        <time>2016-02-19T10:00:31Z</time>
      </trkpt>
      <trkpt lat="44.19" lon="5.03925">
        <ele>305.8366699</ele>
        <time>2016-02-19T10:01:04Z</time>
      </trkpt>
      <trkpt lat="44.19001" lon="5.03924">
        <ele>306.3172607</ele>
        <time>2016-02-19T10:01:33Z</time>
      </trkpt>
      <trkpt lat="44.19" lon="5.03914">
        <ele>304.8752441</ele>
        <time>2016-02-19T10:01:49Z</time>
      </trkpt>
      <trkpt lat="44.18999" lon="5.03915">
        <ele>303.9139404</ele>
        <time>2016-02-19T10:02:45Z</time>
      </trkpt>
      <trkpt lat="44.18995" lon="5.03931">
        <ele>303.4332275</ele>
        <time>2016-02-19T10:04:42Z</time>
      </trkpt>
      <trkpt lat="44.18985" lon="5.03956">
        <ele>303.9139404</ele>
        <time>2016-02-19T10:05:01Z</time>
      </trkpt>
      <trkpt lat="44.18982" lon="5.03981">
        <ele>304.8752441</ele>
        <time>2016-02-19T10:05:20Z</time>
      </trkpt>
      <trkpt lat="44.18989" lon="5.03998">
        <ele>306.7978516</ele>
        <time>2016-02-19T10:05:36Z</time>
      </trkpt>
      <trkpt lat="44.18999" lon="5.04006">
        <ele>308.720459</ele>
        <time>2016-02-19T10:05:50Z</time>
      </trkpt>
      <trkpt lat="44.19014" lon="5.04013">
        <ele>312.0852051</ele>
        <time>2016-02-19T10:06:05Z</time>
      </trkpt>
      <trkpt lat="44.19028" lon="5.04014">
        <ele>314.9691162</ele>
        <time>2016-02-19T10:06:20Z</time>
      </trkpt>
      <trkpt lat="44.19041" lon="5.04022">
        <ele>315.4498291</ele>
        <time>2016-02-19T10:06:36Z</time>
      </trkpt>
      <trkpt lat="44.19053" lon="5.04033">
        <ele>318.8143311</ele>
        <time>2016-02-19T10:06:49Z</time>
      </trkpt>
      <trkpt lat="44.19055" lon="5.04039">
        <ele>318.8143311</ele>
        <time>2016-02-19T10:06:53Z</time>
      </trkpt>
      <trkpt lat="44.1906" lon="5.04043">
        <ele>319.7756348</ele>
        <time>2016-02-19T10:06:58Z</time>
      </trkpt>
      <trkpt lat="44.1907" lon="5.04054">
        <ele>320.2563477</ele>
        <time>2016-02-19T10:07:11Z</time>
      </trkpt>
      <trkpt lat="44.19083" lon="5.04064">
        <ele>321.2177734</ele>
        <time>2016-02-19T10:07:25Z</time>
      </trkpt>
      <trkpt lat="44.19091" lon="5.04072">
        <ele>321.6983643</ele>
        <time>2016-02-19T10:07:35Z</time>
      </trkpt>
      <trkpt lat="44.19099" lon="5.04078">
        <ele>323.6209717</ele>
        <time>2016-02-19T10:07:41Z</time>
      </trkpt>
      <trkpt lat="44.19106" lon="5.04088">
        <ele>324.5822754</ele>
        <time>2016-02-19T10:07:51Z</time>
      </trkpt>
      <trkpt lat="44.1911" lon="5.04101">
        <ele>323.6209717</ele>
        <time>2016-02-19T10:08:06Z</time>
      </trkpt>
      <trkpt lat="44.19113" lon="5.04109">
        <ele>324.1015625</ele>
        <time>2016-02-19T10:08:21Z</time>
      </trkpt>
      <trkpt lat="44.19118" lon="5.04122">
        <ele>324.1015625</ele>
        <time>2016-02-19T10:08:31Z</time>
      </trkpt>
      <trkpt lat="44.19124" lon="5.04127">
        <ele>324.1015625</ele>
        <time>2016-02-19T10:08:36Z</time>
      </trkpt>
      <trkpt lat="44.19135" lon="5.04154">
        <ele>323.1403809</ele>
        <time>2016-02-19T10:08:54Z</time>
      </trkpt>
      <trkpt lat="44.1914" lon="5.04168">
        <ele>322.659668</ele>
        <time>2016-02-19T10:09:03Z</time>
      </trkpt>
      <trkpt lat="44.19147" lon="5.04193">
        <ele>320.2563477</ele>
        <time>2016-02-19T10:09:18Z</time>
      </trkpt>
      <trkpt lat="44.19148" lon="5.04217">
        <ele>315.9304199</ele>
        <time>2016-02-19T10:09:32Z</time>
      </trkpt>
      <trkpt lat="44.19145" lon="5.04232">
        <ele>314.9691162</ele>
        <time>2016-02-19T10:09:46Z</time>
      </trkpt>
      <trkpt lat="44.19137" lon="5.04289">
        <ele>313.0465088</ele>
        <time>2016-02-19T10:10:14Z</time>
      </trkpt>
      <trkpt lat="44.19124" lon="5.04323">
        <ele>312.5657959</ele>
        <time>2016-02-19T10:10:36Z</time>
      </trkpt>
      <trkpt lat="44.19122" lon="5.04326">
        <ele>312.5657959</ele>
        <time>2016-02-19T10:10:38Z</time>
      </trkpt>
      <trkpt lat="44.19115" lon="5.04348">
        <ele>314.4884033</ele>
        <time>2016-02-19T10:10:49Z</time>
      </trkpt>
      <trkpt lat="44.19108" lon="5.04366">
        <ele>317.3724365</ele>
        <time>2016-02-19T10:11:03Z</time>
      </trkpt>
      <trkpt lat="44.191" lon="5.04391">
        <ele>320.7370605</ele>
        <time>2016-02-19T10:11:21Z</time>
      </trkpt>
      <trkpt lat="44.19095" lon="5.04423">
        <ele>321.2177734</ele>
        <time>2016-02-19T10:11:41Z</time>
      </trkpt>
      <trkpt lat="44.19094" lon="5.04455">
        <ele>323.6209717</ele>
        <time>2016-02-19T10:12:00Z</time>
      </trkpt>
      <trkpt lat="44.19094" lon="5.04473">
        <ele>324.5822754</ele>
        <time>2016-02-19T10:12:11Z</time>
      </trkpt>
      <trkpt lat="44.19094" lon="5.04495">
        <ele>324.1015625</ele>
        <time>2016-02-19T10:12:23Z</time>
      </trkpt>
      <trkpt lat="44.19094" lon="5.04496">
        <ele>324.1015625</ele>
        <time>2016-02-19T10:12:24Z</time>
      </trkpt>
      <trkpt lat="44.19099" lon="5.04527">
        <ele>320.2563477</ele>
        <time>2016-02-19T10:12:40Z</time>
      </trkpt>
      <trkpt lat="44.19102" lon="5.04531">
        <ele>319.7756348</ele>
        <time>2016-02-19T10:12:44Z</time>
      </trkpt>
      <trkpt lat="44.19105" lon="5.04541">
        <ele>317.3724365</ele>
        <time>2016-02-19T10:12:53Z</time>
      </trkpt>
      <trkpt lat="44.19109" lon="5.04566">
        <ele>313.0465088</ele>
        <time>2016-02-19T10:13:12Z</time>
      </trkpt>
      <trkpt lat="44.19109" lon="5.04618">
        <ele>306.7978516</ele>
        <time>2016-02-19T10:13:41Z</time>
      </trkpt>
      <trkpt lat="44.19107" lon="5.04643">
        <ele>307.7592773</ele>
        <time>2016-02-19T10:13:50Z</time>
      </trkpt>
      <trkpt lat="44.19104" lon="5.0465">
        <ele>307.7592773</ele>
        <time>2016-02-19T10:13:55Z</time>
      </trkpt>
      <trkpt lat="44.1909" lon="5.04681">
        <ele>315.4498291</ele>
        <time>2016-02-19T10:14:11Z</time>
      </trkpt>
      <trkpt lat="44.19084" lon="5.04696">
        <ele>313.0465088</ele>
        <time>2016-02-19T10:14:24Z</time>
      </trkpt>
      <trkpt lat="44.19083" lon="5.04698">
        <ele>313.0465088</ele>
        <time>2016-02-19T10:14:26Z</time>
      </trkpt>
      <trkpt lat="44.19073" lon="5.04718">
        <ele>314.0078125</ele>
        <time>2016-02-19T10:14:37Z</time>
      </trkpt>
      <trkpt lat="44.19059" lon="5.04738">
        <ele>314.9691162</ele>
        <time>2016-02-19T10:14:52Z</time>
      </trkpt>
      <trkpt lat="44.19044" lon="5.04765">
        <ele>314.9691162</ele>
        <time>2016-02-19T10:15:10Z</time>
      </trkpt>
      <trkpt lat="44.19042" lon="5.04783">
        <ele>315.4498291</ele>
        <time>2016-02-19T10:15:29Z</time>
      </trkpt>
      <trkpt lat="44.19043" lon="5.04793">
        <ele>315.9304199</ele>
        <time>2016-02-19T10:15:37Z</time>
      </trkpt>
      <trkpt lat="44.19045" lon="5.04813">
        <ele>316.4110107</ele>
        <time>2016-02-19T10:15:53Z</time>
      </trkpt>
      <trkpt lat="44.19055" lon="5.04828">
        <ele>316.4110107</ele>
        <time>2016-02-19T10:16:08Z</time>
      </trkpt>
      <trkpt lat="44.19063" lon="5.04837">
        <ele>314.4884033</ele>
        <time>2016-02-19T10:16:22Z</time>
      </trkpt>
      <trkpt lat="44.1908" lon="5.04841">
        <ele>314.9691162</ele>
        <time>2016-02-19T10:16:35Z</time>
      </trkpt>
      <trkpt lat="44.19096" lon="5.04846">
        <ele>316.8917236</ele>
        <time>2016-02-19T10:16:52Z</time>
      </trkpt>
      <trkpt lat="44.19104" lon="5.04868">
        <ele>319.7756348</ele>
        <time>2016-02-19T10:17:13Z</time>
      </trkpt>
      <trkpt lat="44.19116" lon="5.04881">
        <ele>321.2177734</ele>
        <time>2016-02-19T10:17:29Z</time>
      </trkpt>
      <trkpt lat="44.19127" lon="5.04888">
        <ele>324.1015625</ele>
        <time>2016-02-19T10:17:43Z</time>
      </trkpt>
      <trkpt lat="44.19146" lon="5.04883">
        <ele>325.5435791</ele>
        <time>2016-02-19T10:19:49Z</time>
      </trkpt>
      <trkpt lat="44.19149" lon="5.0489">
        <ele>327.9467773</ele>
        <time>2016-02-19T10:21:42Z</time>
      </trkpt>
      <trkpt lat="44.19162" lon="5.0489">
        <ele>330.8309326</ele>
        <time>2016-02-19T10:22:18Z</time>
      </trkpt>
      <trkpt lat="44.19164" lon="5.04896">
        <ele>333.7147217</ele>
        <time>2016-02-19T10:22:41Z</time>
      </trkpt>
      <trkpt lat="44.1917" lon="5.04908">
        <ele>335.6373291</ele>
        <time>2016-02-19T10:22:59Z</time>
      </trkpt>
      <trkpt lat="44.19176" lon="5.04912">
        <ele>336.1181641</ele>
        <time>2016-02-19T10:23:04Z</time>
      </trkpt>
      <trkpt lat="44.19189" lon="5.04921">
        <ele>338.0407715</ele>
        <time>2016-02-19T10:23:22Z</time>
      </trkpt>
      <trkpt lat="44.19197" lon="5.04927">
        <ele>339.0020752</ele>
        <time>2016-02-19T10:23:37Z</time>
      </trkpt>
      <trkpt lat="44.19217" lon="5.04949">
        <ele>340.4440918</ele>
        <time>2016-02-19T10:24:01Z</time>
      </trkpt>
      <trkpt lat="44.19236" lon="5.04961">
        <ele>340.9246826</ele>
        <time>2016-02-19T10:24:22Z</time>
      </trkpt>
      <trkpt lat="44.19262" lon="5.04974">
        <ele>342.84729</ele>
        <time>2016-02-19T10:24:45Z</time>
      </trkpt>
      <trkpt lat="44.19277" lon="5.04985">
        <ele>344.2894287</ele>
        <time>2016-02-19T10:25:04Z</time>
      </trkpt>
      <trkpt lat="44.1928" lon="5.0499">
        <ele>344.2894287</ele>
        <time>2016-02-19T10:25:10Z</time>
      </trkpt>
      <trkpt lat="44.19296" lon="5.05009">
        <ele>345.7313232</ele>
        <time>2016-02-19T10:25:30Z</time>
      </trkpt>
      <trkpt lat="44.19308" lon="5.05022">
        <ele>346.2120361</ele>
        <time>2016-02-19T10:25:48Z</time>
      </trkpt>
      <trkpt lat="44.19317" lon="5.05043">
        <ele>346.692627</ele>
        <time>2016-02-19T10:26:10Z</time>
      </trkpt>
      <trkpt lat="44.19322" lon="5.0505">
        <ele>349.0958252</ele>
        <time>2016-02-19T10:26:28Z</time>
      </trkpt>
      <trkpt lat="44.19321" lon="5.05085">
        <ele>354.8637695</ele>
        <time>2016-02-19T10:26:49Z</time>
      </trkpt>
      <trkpt lat="44.19321" lon="5.05111">
        <ele>358.2283936</ele>
        <time>2016-02-19T10:27:05Z</time>
      </trkpt>
      <trkpt lat="44.19321" lon="5.05139">
        <ele>362.5543213</ele>
        <time>2016-02-19T10:27:19Z</time>
      </trkpt>
      <trkpt lat="44.1932" lon="5.05163">
        <ele>367.3609619</ele>
        <time>2016-02-19T10:27:32Z</time>
      </trkpt>
      <trkpt lat="44.1932" lon="5.05185">
        <ele>367.8415527</ele>
        <time>2016-02-19T10:27:45Z</time>
      </trkpt>
      <trkpt lat="44.19323" lon="5.05208">
        <ele>368.3222656</ele>
        <time>2016-02-19T10:28:02Z</time>
      </trkpt>
      <trkpt lat="44.19336" lon="5.05228">
        <ele>372.6481934</ele>
        <time>2016-02-19T10:28:21Z</time>
      </trkpt>
      <trkpt lat="44.19339" lon="5.05256">
        <ele>376.0128174</ele>
        <time>2016-02-19T10:28:42Z</time>
      </trkpt>
      <trkpt lat="44.1934" lon="5.05283">
        <ele>374.5708008</ele>
        <time>2016-02-19T10:29:01Z</time>
      </trkpt>
      <trkpt lat="44.19339" lon="5.05312">
        <ele>378.4161377</ele>
        <time>2016-02-19T10:29:19Z</time>
      </trkpt>
      <trkpt lat="44.19338" lon="5.05338">
        <ele>379.3774414</ele>
        <time>2016-02-19T10:29:36Z</time>
      </trkpt>
      <trkpt lat="44.19337" lon="5.05367">
        <ele>377.9354248</ele>
        <time>2016-02-19T10:29:54Z</time>
      </trkpt>
      <trkpt lat="44.1934" lon="5.05378">
        <ele>377.9354248</ele>
        <time>2016-02-19T10:30:24Z</time>
      </trkpt>
      <trkpt lat="44.19326" lon="5.05385">
        <ele>380.819458</ele>
        <time>2016-02-19T10:30:42Z</time>
      </trkpt>
      <trkpt lat="44.1932" lon="5.05393">
        <ele>383.7032471</ele>
        <time>2016-02-19T10:30:53Z</time>
      </trkpt>
      <trkpt lat="44.19309" lon="5.05409">
        <ele>387.0679932</ele>
        <time>2016-02-19T10:31:12Z</time>
      </trkpt>
      <trkpt lat="44.193" lon="5.05433">
        <ele>391.8745117</ele>
        <time>2016-02-19T10:31:33Z</time>
      </trkpt>
      <trkpt lat="44.19283" lon="5.05459">
        <ele>394.2779541</ele>
        <time>2016-02-19T10:32:00Z</time>
      </trkpt>
      <trkpt lat="44.19272" lon="5.0547">
        <ele>395.2391357</ele>
        <time>2016-02-19T10:32:16Z</time>
      </trkpt>
      <trkpt lat="44.19257" lon="5.05487">
        <ele>396.6811523</ele>
        <time>2016-02-19T10:32:36Z</time>
      </trkpt>
      <trkpt lat="44.19248" lon="5.05518">
        <ele>398.1231689</ele>
        <time>2016-02-19T10:32:57Z</time>
      </trkpt>
      <trkpt lat="44.19236" lon="5.0554">
        <ele>396.2005615</ele>
        <time>2016-02-19T10:33:11Z</time>
      </trkpt>
      <trkpt lat="44.1923" lon="5.05544">
        <ele>396.2005615</ele>
        <time>2016-02-19T10:33:24Z</time>
      </trkpt>
      <trkpt lat="44.19223" lon="5.05542">
        <ele>396.2005615</ele>
        <time>2016-02-19T10:33:46Z</time>
      </trkpt>
      <trkpt lat="44.19219" lon="5.05545">
        <ele>393.7972412</ele>
        <time>2016-02-19T10:34:07Z</time>
      </trkpt>
      <trkpt lat="44.19217" lon="5.05558">
        <ele>390.913208</ele>
        <time>2016-02-19T10:34:25Z</time>
      </trkpt>
      <trkpt lat="44.19211" lon="5.05564">
        <ele>391.3937988</ele>
        <time>2016-02-19T10:34:46Z</time>
      </trkpt>
      <trkpt lat="44.19217" lon="5.05543">
        <ele>393.7972412</ele>
        <time>2016-02-19T10:35:23Z</time>
      </trkpt>
      <trkpt lat="44.19227" lon="5.05551">
        <ele>389.9519043</ele>
        <time>2016-02-19T10:35:49Z</time>
      </trkpt>
      <trkpt lat="44.19228" lon="5.05565">
        <ele>387.0679932</ele>
        <time>2016-02-19T10:36:06Z</time>
      </trkpt>
      <trkpt lat="44.19228" lon="5.0557">
        <ele>386.1066895</ele>
        <time>2016-02-19T10:36:11Z</time>
      </trkpt>
      <trkpt lat="44.19222" lon="5.0559">
        <ele>383.2226563</ele>
        <time>2016-02-19T10:36:24Z</time>
      </trkpt>
      <trkpt lat="44.19221" lon="5.05603">
        <ele>383.7032471</ele>
        <time>2016-02-19T10:36:35Z</time>
      </trkpt>
      <trkpt lat="44.19219" lon="5.05614">
        <ele>382.7420654</ele>
        <time>2016-02-19T10:36:52Z</time>
      </trkpt>
      <trkpt lat="44.19218" lon="5.05618">
        <ele>381.7806396</ele>
        <time>2016-02-19T10:37:12Z</time>
      </trkpt>
      <trkpt lat="44.19221" lon="5.05624">
        <ele>384.184082</ele>
        <time>2016-02-19T10:38:11Z</time>
      </trkpt>
      <trkpt lat="44.19232" lon="5.05618">
        <ele>385.6259766</ele>
        <time>2016-02-19T10:38:35Z</time>
      </trkpt>
      <trkpt lat="44.19232" lon="5.05633">
        <ele>386.5874023</ele>
        <time>2016-02-19T10:39:15Z</time>
      </trkpt>
      <trkpt lat="44.19232" lon="5.05644">
        <ele>384.184082</ele>
        <time>2016-02-19T10:39:31Z</time>
      </trkpt>
      <trkpt lat="44.19241" lon="5.05654">
        <ele>382.7420654</ele>
        <time>2016-02-19T10:39:52Z</time>
      </trkpt>
      <trkpt lat="44.19244" lon="5.05666">
        <ele>380.3387451</ele>
        <time>2016-02-19T10:40:10Z</time>
      </trkpt>
      <trkpt lat="44.19253" lon="5.0566">
        <ele>379.8580322</ele>
        <time>2016-02-19T10:40:26Z</time>
      </trkpt>
      <trkpt lat="44.19255" lon="5.0564">
        <ele>380.819458</ele>
        <time>2016-02-19T10:40:46Z</time>
      </trkpt>
      <trkpt lat="44.19257" lon="5.05629">
        <ele>381.3000488</ele>
        <time>2016-02-19T10:41:00Z</time>
      </trkpt>
      <trkpt lat="44.19254" lon="5.05607">
        <ele>383.7032471</ele>
        <time>2016-02-19T10:41:22Z</time>
      </trkpt>
      <trkpt lat="44.19251" lon="5.05597">
        <ele>388.0292969</ele>
        <time>2016-02-19T10:41:40Z</time>
      </trkpt>
      <trkpt lat="44.19256" lon="5.05615">
        <ele>389.4711914</ele>
        <time>2016-02-19T10:42:44Z</time>
      </trkpt>
      <trkpt lat="44.19268" lon="5.05619">
        <ele>390.4326172</ele>
        <time>2016-02-19T10:43:15Z</time>
      </trkpt>
      <trkpt lat="44.19282" lon="5.05642">
        <ele>393.3165283</ele>
        <time>2016-02-19T10:44:24Z</time>
      </trkpt>
      <trkpt lat="44.19287" lon="5.05664">
        <ele>394.2779541</ele>
        <time>2016-02-19T10:44:47Z</time>
      </trkpt>
      <trkpt lat="44.19294" lon="5.05678">
        <ele>396.6811523</ele>
        <time>2016-02-19T10:45:11Z</time>
      </trkpt>
      <trkpt lat="44.19303" lon="5.0566">
        <ele>400.0458984</ele>
        <time>2016-02-19T10:45:43Z</time>
      </trkpt>
      <trkpt lat="44.19308" lon="5.05655">
        <ele>402.4490967</ele>
        <time>2016-02-19T10:46:03Z</time>
      </trkpt>
      <trkpt lat="44.19321" lon="5.05663">
        <ele>406.2943115</ele>
        <time>2016-02-19T10:46:20Z</time>
      </trkpt>
      <trkpt lat="44.19329" lon="5.05657">
        <ele>413.0235596</ele>
        <time>2016-02-19T10:46:46Z</time>
      </trkpt>
      <trkpt lat="44.19339" lon="5.05656">
        <ele>416.3881836</ele>
        <time>2016-02-19T10:47:17Z</time>
      </trkpt>
      <trkpt lat="44.19347" lon="5.05651">
        <ele>423.5980225</ele>
        <time>2016-02-19T10:47:39Z</time>
      </trkpt>
      <trkpt lat="44.19359" lon="5.05645">
        <ele>427.4433594</ele>
        <time>2016-02-19T10:47:56Z</time>
      </trkpt>
      <trkpt lat="44.19367" lon="5.0564">
        <ele>430.3272705</ele>
        <time>2016-02-19T10:48:15Z</time>
      </trkpt>
      <trkpt lat="44.19374" lon="5.05633">
        <ele>435.614502</ele>
        <time>2016-02-19T10:48:33Z</time>
      </trkpt>
      <trkpt lat="44.19385" lon="5.05631">
        <ele>441.3824463</ele>
        <time>2016-02-19T10:48:50Z</time>
      </trkpt>
      <trkpt lat="44.19393" lon="5.05632">
        <ele>444.2664795</ele>
        <time>2016-02-19T10:49:18Z</time>
      </trkpt>
      <trkpt lat="44.19404" lon="5.0564">
        <ele>446.6696777</ele>
        <time>2016-02-19T10:49:37Z</time>
      </trkpt>
      <trkpt lat="44.19415" lon="5.05646">
        <ele>449.5537109</ele>
        <time>2016-02-19T10:49:56Z</time>
      </trkpt>
      <trkpt lat="44.19428" lon="5.05649">
        <ele>450.9956055</ele>
        <time>2016-02-19T10:50:21Z</time>
      </trkpt>
      <trkpt lat="44.19436" lon="5.0566">
        <ele>451.9570313</ele>
        <time>2016-02-19T10:50:39Z</time>
      </trkpt>
      <trkpt lat="44.19456" lon="5.05677">
        <ele>452.9182129</ele>
        <time>2016-02-19T10:51:09Z</time>
      </trkpt>
      <trkpt lat="44.19467" lon="5.05691">
        <ele>453.3989258</ele>
        <time>2016-02-19T10:51:35Z</time>
      </trkpt>
      <trkpt lat="44.19479" lon="5.05698">
        <ele>451.4763184</ele>
        <time>2016-02-19T10:51:52Z</time>
      </trkpt>
      <trkpt lat="44.19487" lon="5.05715">
        <ele>450.9956055</ele>
        <time>2016-02-19T10:52:08Z</time>
      </trkpt>
      <trkpt lat="44.19499" lon="5.05737">
        <ele>448.5924072</ele>
        <time>2016-02-19T10:52:29Z</time>
      </trkpt>
      <trkpt lat="44.19517" lon="5.05755">
        <ele>447.1502686</ele>
        <time>2016-02-19T10:52:48Z</time>
      </trkpt>
      <trkpt lat="44.1952" lon="5.05756">
        <ele>447.1502686</ele>
        <time>2016-02-19T10:52:51Z</time>
      </trkpt>
      <trkpt lat="44.19535" lon="5.0577">
        <ele>444.2664795</ele>
        <time>2016-02-19T10:53:10Z</time>
      </trkpt>
      <trkpt lat="44.19558" lon="5.0577">
        <ele>444.2664795</ele>
        <time>2016-02-19T10:53:25Z</time>
      </trkpt>
      <trkpt lat="44.19572" lon="5.05775">
        <ele>445.708374</ele>
        <time>2016-02-19T10:53:41Z</time>
      </trkpt>
      <trkpt lat="44.19585" lon="5.05794">
        <ele>447.6309814</ele>
        <time>2016-02-19T10:54:08Z</time>
      </trkpt>
      <trkpt lat="44.196" lon="5.05811">
        <ele>452.9182129</ele>
        <time>2016-02-19T10:54:27Z</time>
      </trkpt>
      <trkpt lat="44.19604" lon="5.05827">
        <ele>459.1668701</ele>
        <time>2016-02-19T10:54:49Z</time>
      </trkpt>
      <trkpt lat="44.19615" lon="5.05823">
        <ele>462.0507813</ele>
        <time>2016-02-19T10:55:03Z</time>
      </trkpt>
      <trkpt lat="44.19631" lon="5.05823">
        <ele>466.376709</ele>
        <time>2016-02-19T10:55:21Z</time>
      </trkpt>
      <trkpt lat="44.1964" lon="5.05821">
        <ele>470.2219238</ele>
        <time>2016-02-19T10:55:39Z</time>
      </trkpt>
      <trkpt lat="44.19656" lon="5.05829">
        <ele>472.1446533</ele>
        <time>2016-02-19T10:56:07Z</time>
      </trkpt>
      <trkpt lat="44.19665" lon="5.0583">
        <ele>475.0286865</ele>
        <time>2016-02-19T10:56:25Z</time>
      </trkpt>
      <trkpt lat="44.19676" lon="5.05829">
        <ele>477.4318848</ele>
        <time>2016-02-19T10:56:41Z</time>
      </trkpt>
      <trkpt lat="44.19684" lon="5.05839">
        <ele>481.2772217</ele>
        <time>2016-02-19T10:56:58Z</time>
      </trkpt>
      <trkpt lat="44.19686" lon="5.05834">
        <ele>485.1224365</ele>
        <time>2016-02-19T10:57:32Z</time>
      </trkpt>
      <trkpt lat="44.19688" lon="5.05825">
        <ele>488.0064697</ele>
        <time>2016-02-19T10:57:50Z</time>
      </trkpt>
      <trkpt lat="44.19688" lon="5.05818">
        <ele>492.8129883</ele>
        <time>2016-02-19T10:58:14Z</time>
      </trkpt>
      <trkpt lat="44.19685" lon="5.05798">
        <ele>500.0229492</ele>
        <time>2016-02-19T10:58:40Z</time>
      </trkpt>
      <trkpt lat="44.19682" lon="5.05788">
        <ele>498.5809326</ele>
        <time>2016-02-19T10:58:59Z</time>
      </trkpt>
      <trkpt lat="44.19693" lon="5.05769">
        <ele>496.1777344</ele>
        <time>2016-02-19T10:59:21Z</time>
      </trkpt>
      <trkpt lat="44.19705" lon="5.05751">
        <ele>498.1003418</ele>
        <time>2016-02-19T10:59:42Z</time>
      </trkpt>
      <trkpt lat="44.19712" lon="5.05744">
        <ele>498.5809326</ele>
        <time>2016-02-19T10:59:49Z</time>
      </trkpt>
      <trkpt lat="44.19712" lon="5.0574">
        <ele>498.5809326</ele>
        <time>2016-02-19T10:59:52Z</time>
      </trkpt>
      <trkpt lat="44.19718" lon="5.05726">
        <ele>498.1003418</ele>
        <time>2016-02-19T11:00:07Z</time>
      </trkpt>
      <trkpt lat="44.19729" lon="5.05708">
        <ele>500.0229492</ele>
        <time>2016-02-19T11:00:22Z</time>
      </trkpt>
      <trkpt lat="44.19745" lon="5.05699">
        <ele>498.5809326</ele>
        <time>2016-02-19T11:00:39Z</time>
      </trkpt>
      <trkpt lat="44.19747" lon="5.05701">
        <ele>498.1003418</ele>
        <time>2016-02-19T11:00:42Z</time>
      </trkpt>
      <trkpt lat="44.19767" lon="5.05703">
        <ele>497.6196289</ele>
        <time>2016-02-19T11:01:02Z</time>
      </trkpt>
      <trkpt lat="44.19769" lon="5.05703">
        <ele>498.1003418</ele>
        <time>2016-02-19T11:01:05Z</time>
      </trkpt>
      <trkpt lat="44.19784" lon="5.05696">
        <ele>496.6583252</ele>
        <time>2016-02-19T11:01:20Z</time>
      </trkpt>
      <trkpt lat="44.19798" lon="5.05685">
        <ele>496.1777344</ele>
        <time>2016-02-19T11:01:36Z</time>
      </trkpt>
      <trkpt lat="44.198" lon="5.05684">
        <ele>495.6968994</ele>
        <time>2016-02-19T11:01:38Z</time>
      </trkpt>
      <trkpt lat="44.19812" lon="5.05664">
        <ele>495.6968994</ele>
        <time>2016-02-19T11:01:57Z</time>
      </trkpt>
      <trkpt lat="44.1982" lon="5.05651">
        <ele>493.2935791</ele>
        <time>2016-02-19T11:02:07Z</time>
      </trkpt>
      <trkpt lat="44.19829" lon="5.05635">
        <ele>491.8516846</ele>
        <time>2016-02-19T11:02:20Z</time>
      </trkpt>
      <trkpt lat="44.19841" lon="5.0562">
        <ele>488.4871826</ele>
        <time>2016-02-19T11:02:36Z</time>
      </trkpt>
      <trkpt lat="44.19853" lon="5.05601">
        <ele>485.6030273</ele>
        <time>2016-02-19T11:02:52Z</time>
      </trkpt>
      <trkpt lat="44.19864" lon="5.05576">
        <ele>486.0837402</ele>
        <time>2016-02-19T11:03:11Z</time>
      </trkpt>
      <trkpt lat="44.19874" lon="5.05555">
        <ele>485.1224365</ele>
        <time>2016-02-19T11:03:26Z</time>
      </trkpt>
      <trkpt lat="44.19878" lon="5.05551">
        <ele>487.0450439</ele>
        <time>2016-02-19T11:03:39Z</time>
      </trkpt>
      <trkpt lat="44.1988" lon="5.05549">
        <ele>487.0450439</ele>
        <time>2016-02-19T11:03:41Z</time>
      </trkpt>
      <trkpt lat="44.19883" lon="5.05547">
        <ele>487.5256348</ele>
        <time>2016-02-19T11:03:44Z</time>
      </trkpt>
      <trkpt lat="44.19895" lon="5.05536">
        <ele>486.5644531</ele>
        <time>2016-02-19T11:03:56Z</time>
      </trkpt>
      <trkpt lat="44.19905" lon="5.0551">
        <ele>486.5644531</ele>
        <time>2016-02-19T11:04:14Z</time>
      </trkpt>
      <trkpt lat="44.19916" lon="5.05476">
        <ele>487.0450439</ele>
        <time>2016-02-19T11:04:35Z</time>
      </trkpt>
      <trkpt lat="44.19935" lon="5.05458">
        <ele>488.4871826</ele>
        <time>2016-02-19T11:04:54Z</time>
      </trkpt>
      <trkpt lat="44.19943" lon="5.0545">
        <ele>489.9290771</ele>
        <time>2016-02-19T11:05:10Z</time>
      </trkpt>
      <trkpt lat="44.19946" lon="5.05444">
        <ele>489.4483643</ele>
        <time>2016-02-19T11:05:42Z</time>
      </trkpt>
      <trkpt lat="44.19952" lon="5.05441">
        <ele>487.5256348</ele>
        <time>2016-02-19T11:06:02Z</time>
      </trkpt>
      <trkpt lat="44.19974" lon="5.05432">
        <ele>488.9677734</ele>
        <time>2016-02-19T11:06:18Z</time>
      </trkpt>
      <trkpt lat="44.19989" lon="5.05429">
        <ele>490.8903809</ele>
        <time>2016-02-19T11:06:32Z</time>
      </trkpt>
      <trkpt lat="44.2001" lon="5.05431">
        <ele>481.2772217</ele>
        <time>2016-02-19T11:06:48Z</time>
      </trkpt>
      <trkpt lat="44.20027" lon="5.05431">
        <ele>484.1611328</ele>
        <time>2016-02-19T11:07:02Z</time>
      </trkpt>
      <trkpt lat="44.2003" lon="5.05431">
        <ele>483.6804199</ele>
        <time>2016-02-19T11:07:05Z</time>
      </trkpt>
      <trkpt lat="44.20048" lon="5.05441">
        <ele>485.1224365</ele>
        <time>2016-02-19T11:07:20Z</time>
      </trkpt>
      <trkpt lat="44.20052" lon="5.05458">
        <ele>482.2385254</ele>
        <time>2016-02-19T11:07:37Z</time>
      </trkpt>
      <trkpt lat="44.20053" lon="5.05471">
        <ele>480.315918</ele>
        <time>2016-02-19T11:07:47Z</time>
      </trkpt>
      <trkpt lat="44.20058" lon="5.05474">
        <ele>479.3544922</ele>
        <time>2016-02-19T11:07:52Z</time>
      </trkpt>
      <trkpt lat="44.20061" lon="5.05473">
        <ele>479.835083</ele>
        <time>2016-02-19T11:08:10Z</time>
      </trkpt>
      <trkpt lat="44.2006" lon="5.05473">
        <ele>479.835083</ele>
        <time>2016-02-19T11:08:11Z</time>
      </trkpt>
      <trkpt lat="44.20054" lon="5.05494">
        <ele>480.7966309</ele>
        <time>2016-02-19T11:08:29Z</time>
      </trkpt>
      <trkpt lat="44.20055" lon="5.05527">
        <ele>477.9124756</ele>
        <time>2016-02-19T11:08:49Z</time>
      </trkpt>
      <trkpt lat="44.20061" lon="5.05557">
        <ele>475.9898682</ele>
        <time>2016-02-19T11:09:06Z</time>
      </trkpt>
      <trkpt lat="44.2007" lon="5.05596">
        <ele>476.4705811</ele>
        <time>2016-02-19T11:09:28Z</time>
      </trkpt>
      <trkpt lat="44.20075" lon="5.05603">
        <ele>475.0286865</ele>
        <time>2016-02-19T11:09:35Z</time>
      </trkpt>
      <trkpt lat="44.20079" lon="5.05606">
        <ele>475.0286865</ele>
        <time>2016-02-19T11:09:38Z</time>
      </trkpt>
      <trkpt lat="44.20087" lon="5.05607">
        <ele>475.5092773</ele>
        <time>2016-02-19T11:09:45Z</time>
      </trkpt>
      <trkpt lat="44.20123" lon="5.05604">
        <ele>481.2772217</ele>
        <time>2016-02-19T11:10:08Z</time>
      </trkpt>
      <trkpt lat="44.20143" lon="5.05614">
        <ele>482.2385254</ele>
        <time>2016-02-19T11:10:25Z</time>
      </trkpt>
      <trkpt lat="44.20159" lon="5.05635">
        <ele>480.315918</ele>
        <time>2016-02-19T11:10:42Z</time>
      </trkpt>
      <trkpt lat="44.20167" lon="5.0565">
        <ele>479.835083</ele>
        <time>2016-02-19T11:10:56Z</time>
      </trkpt>
      <trkpt lat="44.20168" lon="5.05654">
        <ele>478.3931885</ele>
        <time>2016-02-19T11:10:59Z</time>
      </trkpt>
      <trkpt lat="44.20168" lon="5.05658">
        <ele>477.9124756</ele>
        <time>2016-02-19T11:11:02Z</time>
      </trkpt>
      <trkpt lat="44.20169" lon="5.05662">
        <ele>477.4318848</ele>
        <time>2016-02-19T11:11:04Z</time>
      </trkpt>
      <trkpt lat="44.2017" lon="5.05689">
        <ele>473.5866699</ele>
        <time>2016-02-19T11:11:24Z</time>
      </trkpt>
      <trkpt lat="44.2017" lon="5.05693">
        <ele>472.6253662</ele>
        <time>2016-02-19T11:11:44Z</time>
      </trkpt>
      <trkpt lat="44.20169" lon="5.05695">
        <ele>472.6253662</ele>
        <time>2016-02-19T11:11:45Z</time>
      </trkpt>
      <trkpt lat="44.20169" lon="5.05702">
        <ele>473.1060791</ele>
        <time>2016-02-19T11:11:58Z</time>
      </trkpt>
      <trkpt lat="44.20166" lon="5.05717">
        <ele>472.6253662</ele>
        <time>2016-02-19T11:12:18Z</time>
      </trkpt>
      <trkpt lat="44.20161" lon="5.05739">
        <ele>469.741333</ele>
        <time>2016-02-19T11:12:30Z</time>
      </trkpt>
      <trkpt lat="44.20151" lon="5.05767">
        <ele>466.8574219</ele>
        <time>2016-02-19T11:12:47Z</time>
      </trkpt>
      <trkpt lat="44.20142" lon="5.05788">
        <ele>465.4155273</ele>
        <time>2016-02-19T11:13:01Z</time>
      </trkpt>
      <trkpt lat="44.2014" lon="5.05795">
        <ele>464.4541016</ele>
        <time>2016-02-19T11:13:05Z</time>
      </trkpt>
      <trkpt lat="44.20129" lon="5.05816">
        <ele>463.012085</ele>
        <time>2016-02-19T11:13:19Z</time>
      </trkpt>
      <trkpt lat="44.20123" lon="5.05826">
        <ele>461.5701904</ele>
        <time>2016-02-19T11:13:26Z</time>
      </trkpt>
      <trkpt lat="44.20114" lon="5.05841">
        <ele>461.0894775</ele>
        <time>2016-02-19T11:13:37Z</time>
      </trkpt>
      <trkpt lat="44.20105" lon="5.05857">
        <ele>457.2442627</ele>
        <time>2016-02-19T11:13:49Z</time>
      </trkpt>
      <trkpt lat="44.20091" lon="5.05882">
        <ele>452.4376221</ele>
        <time>2016-02-19T11:14:08Z</time>
      </trkpt>
      <trkpt lat="44.20082" lon="5.05898">
        <ele>450.5150146</ele>
        <time>2016-02-19T11:14:19Z</time>
      </trkpt>
      <trkpt lat="44.20072" lon="5.05916">
        <ele>448.5924072</ele>
        <time>2016-02-19T11:14:31Z</time>
      </trkpt>
      <trkpt lat="44.20061" lon="5.05931">
        <ele>447.6309814</ele>
        <time>2016-02-19T11:14:43Z</time>
      </trkpt>
      <trkpt lat="44.20054" lon="5.05949">
        <ele>447.1502686</ele>
        <time>2016-02-19T11:14:57Z</time>
      </trkpt>
      <trkpt lat="44.20048" lon="5.05955">
        <ele>447.6309814</ele>
        <time>2016-02-19T11:15:01Z</time>
      </trkpt>
      <trkpt lat="44.20031" lon="5.05966">
        <ele>448.1118164</ele>
        <time>2016-02-19T11:15:14Z</time>
      </trkpt>
      <trkpt lat="44.20023" lon="5.05969">
        <ele>446.6696777</ele>
        <time>2016-02-19T11:15:22Z</time>
      </trkpt>
      <trkpt lat="44.20006" lon="5.05967">
        <ele>444.7470703</ele>
        <time>2016-02-19T11:15:37Z</time>
      </trkpt>
      <trkpt lat="44.19992" lon="5.05972">
        <ele>442.3438721</ele>
        <time>2016-02-19T11:15:49Z</time>
      </trkpt>
      <trkpt lat="44.19975" lon="5.05982">
        <ele>443.3050537</ele>
        <time>2016-02-19T11:16:01Z</time>
      </trkpt>
      <trkpt lat="44.19976" lon="5.05981">
        <ele>444.2664795</ele>
        <time>2016-02-19T11:16:20Z</time>
      </trkpt>
      <trkpt lat="44.19976" lon="5.05983">
        <ele>445.2276611</ele>
        <time>2016-02-19T11:16:40Z</time>
      </trkpt>
      <trkpt lat="44.19981" lon="5.05989">
        <ele>446.1890869</ele>
        <time>2016-02-19T11:16:56Z</time>
      </trkpt>
      <trkpt lat="44.19983" lon="5.0599">
        <ele>446.1890869</ele>
        <time>2016-02-19T11:16:58Z</time>
      </trkpt>
      <trkpt lat="44.19989" lon="5.05992">
        <ele>445.2276611</ele>
        <time>2016-02-19T11:17:04Z</time>
      </trkpt>
      <trkpt lat="44.20007" lon="5.05994">
        <ele>447.1502686</ele>
        <time>2016-02-19T11:17:21Z</time>
      </trkpt>
      <trkpt lat="44.20019" lon="5.06">
        <ele>443.7857666</ele>
        <time>2016-02-19T11:17:33Z</time>
      </trkpt>
      <trkpt lat="44.20039" lon="5.06001">
        <ele>444.7470703</ele>
        <time>2016-02-19T11:17:46Z</time>
      </trkpt>
      <trkpt lat="44.20066" lon="5.05999">
        <ele>443.3050537</ele>
        <time>2016-02-19T11:18:08Z</time>
      </trkpt>
      <trkpt lat="44.20071" lon="5.05998">
        <ele>442.8244629</ele>
        <time>2016-02-19T11:18:12Z</time>
      </trkpt>
      <trkpt lat="44.20088" lon="5.05991">
        <ele>440.9018555</ele>
        <time>2016-02-19T11:18:26Z</time>
      </trkpt>
      <trkpt lat="44.20093" lon="5.05986">
        <ele>440.4212646</ele>
        <time>2016-02-19T11:18:29Z</time>
      </trkpt>
      <trkpt lat="44.20098" lon="5.05982">
        <ele>439.9404297</ele>
        <time>2016-02-19T11:18:33Z</time>
      </trkpt>
      <trkpt lat="44.201" lon="5.0598">
        <ele>439.9404297</ele>
        <time>2016-02-19T11:18:35Z</time>
      </trkpt>
      <trkpt lat="44.20105" lon="5.05977">
        <ele>439.9404297</ele>
        <time>2016-02-19T11:18:38Z</time>
      </trkpt>
      <trkpt lat="44.20109" lon="5.05974">
        <ele>439.9404297</ele>
        <time>2016-02-19T11:18:42Z</time>
      </trkpt>
      <trkpt lat="44.20128" lon="5.05959">
        <ele>439.9404297</ele>
        <time>2016-02-19T11:18:57Z</time>
      </trkpt>
      <trkpt lat="44.20129" lon="5.05957">
        <ele>439.9404297</ele>
        <time>2016-02-19T11:18:58Z</time>
      </trkpt>
      <trkpt lat="44.20134" lon="5.05955">
        <ele>439.9404297</ele>
        <time>2016-02-19T11:19:02Z</time>
      </trkpt>
      <trkpt lat="44.20147" lon="5.05943">
        <ele>439.9404297</ele>
        <time>2016-02-19T11:19:15Z</time>
      </trkpt>
      <trkpt lat="44.20165" lon="5.05924">
        <ele>442.3438721</ele>
        <time>2016-02-19T11:19:31Z</time>
      </trkpt>
      <trkpt lat="44.20166" lon="5.05923">
        <ele>442.3438721</ele>
        <time>2016-02-19T11:19:32Z</time>
      </trkpt>
      <trkpt lat="44.20169" lon="5.05921">
        <ele>442.8244629</ele>
        <time>2016-02-19T11:19:34Z</time>
      </trkpt>
      <trkpt lat="44.20179" lon="5.05908">
        <ele>444.7470703</ele>
        <time>2016-02-19T11:19:43Z</time>
      </trkpt>
      <trkpt lat="44.20187" lon="5.05901">
        <ele>446.6696777</ele>
        <time>2016-02-19T11:19:50Z</time>
      </trkpt>
      <trkpt lat="44.20189" lon="5.05898">
        <ele>447.1502686</ele>
        <time>2016-02-19T11:19:52Z</time>
      </trkpt>
      <trkpt lat="44.20199" lon="5.05884">
        <ele>450.0344238</ele>
        <time>2016-02-19T11:20:02Z</time>
      </trkpt>
      <trkpt lat="44.20215" lon="5.05861">
        <ele>455.8022461</ele>
        <time>2016-02-19T11:20:19Z</time>
      </trkpt>
      <trkpt lat="44.2022" lon="5.05857">
        <ele>457.2442627</ele>
        <time>2016-02-19T11:20:23Z</time>
      </trkpt>
      <trkpt lat="44.2024" lon="5.05837">
        <ele>461.5701904</ele>
        <time>2016-02-19T11:20:41Z</time>
      </trkpt>
      <trkpt lat="44.20258" lon="5.05809">
        <ele>465.4155273</ele>
        <time>2016-02-19T11:21:00Z</time>
      </trkpt>
      <trkpt lat="44.20272" lon="5.05791">
        <ele>466.8574219</ele>
        <time>2016-02-19T11:21:14Z</time>
      </trkpt>
      <trkpt lat="44.20288" lon="5.05767">
        <ele>462.5313721</ele>
        <time>2016-02-19T11:21:29Z</time>
      </trkpt>
      <trkpt lat="44.20291" lon="5.05763">
        <ele>462.5313721</ele>
        <time>2016-02-19T11:21:32Z</time>
      </trkpt>
      <trkpt lat="44.20306" lon="5.05745">
        <ele>462.0507813</ele>
        <time>2016-02-19T11:21:47Z</time>
      </trkpt>
      <trkpt lat="44.2031" lon="5.05742">
        <ele>462.0507813</ele>
        <time>2016-02-19T11:22:07Z</time>
      </trkpt>
      <trkpt lat="44.20311" lon="5.05742">
        <ele>460.6087646</ele>
        <time>2016-02-19T11:22:19Z</time>
      </trkpt>
      <trkpt lat="44.20324" lon="5.05718">
        <ele>458.2055664</ele>
        <time>2016-02-19T11:22:38Z</time>
      </trkpt>
      <trkpt lat="44.20336" lon="5.05694">
        <ele>455.3215332</ele>
        <time>2016-02-19T11:22:50Z</time>
      </trkpt>
      <trkpt lat="44.20349" lon="5.05672">
        <ele>456.282959</ele>
        <time>2016-02-19T11:23:05Z</time>
      </trkpt>
      <trkpt lat="44.20354" lon="5.05668">
        <ele>456.7635498</ele>
        <time>2016-02-19T11:23:09Z</time>
      </trkpt>
      <trkpt lat="44.20355" lon="5.05663">
        <ele>457.2442627</ele>
        <time>2016-02-19T11:23:11Z</time>
      </trkpt>
      <trkpt lat="44.20359" lon="5.05658">
        <ele>458.2055664</ele>
        <time>2016-02-19T11:23:15Z</time>
      </trkpt>
      <trkpt lat="44.20375" lon="5.05635">
        <ele>463.4927979</ele>
        <time>2016-02-19T11:23:34Z</time>
      </trkpt>
      <trkpt lat="44.20385" lon="5.05622">
        <ele>465.8961182</ele>
        <time>2016-02-19T11:23:44Z</time>
      </trkpt>
      <trkpt lat="44.20386" lon="5.05619">
        <ele>466.376709</ele>
        <time>2016-02-19T11:23:46Z</time>
      </trkpt>
      <trkpt lat="44.20398" lon="5.05607">
        <ele>468.2993164</ele>
        <time>2016-02-19T11:23:59Z</time>
      </trkpt>
      <trkpt lat="44.20422" lon="5.05583">
        <ele>473.5866699</ele>
        <time>2016-02-19T11:24:22Z</time>
      </trkpt>
      <trkpt lat="44.20455" lon="5.05561">
        <ele>479.3544922</ele>
        <time>2016-02-19T11:24:46Z</time>
      </trkpt>
      <trkpt lat="44.20475" lon="5.05543">
        <ele>483.1998291</ele>
        <time>2016-02-19T11:25:07Z</time>
      </trkpt>
      <trkpt lat="44.20483" lon="5.05525">
        <ele>482.7192383</ele>
        <time>2016-02-19T11:25:22Z</time>
      </trkpt>
      <trkpt lat="44.20502" lon="5.0551">
        <ele>484.6418457</ele>
        <time>2016-02-19T11:25:38Z</time>
      </trkpt>
      <trkpt lat="44.2051" lon="5.05503">
        <ele>485.1224365</ele>
        <time>2016-02-19T11:25:44Z</time>
      </trkpt>
      <trkpt lat="44.20522" lon="5.05477">
        <ele>469.2607422</ele>
        <time>2016-02-19T11:26:00Z</time>
      </trkpt>
      <trkpt lat="44.2054" lon="5.05459">
        <ele>452.9182129</ele>
        <time>2016-02-19T11:26:14Z</time>
      </trkpt>
      <trkpt lat="44.20555" lon="5.0544">
        <ele>438.979126</ele>
        <time>2016-02-19T11:26:26Z</time>
      </trkpt>
      <trkpt lat="44.20572" lon="5.05419">
        <ele>418.310791</ele>
        <time>2016-02-19T11:26:41Z</time>
      </trkpt>
      <trkpt lat="44.20574" lon="5.05418">
        <ele>416.8688965</ele>
        <time>2016-02-19T11:26:42Z</time>
      </trkpt>
      <trkpt lat="44.20586" lon="5.05396">
        <ele>408.217041</ele>
        <time>2016-02-19T11:26:56Z</time>
      </trkpt>
      <trkpt lat="44.20604" lon="5.05381">
        <ele>400.5264893</ele>
        <time>2016-02-19T11:27:09Z</time>
      </trkpt>
      <trkpt lat="44.20605" lon="5.05379">
        <ele>400.0458984</ele>
        <time>2016-02-19T11:27:10Z</time>
      </trkpt>
      <trkpt lat="44.20607" lon="5.05377">
        <ele>399.5650635</ele>
        <time>2016-02-19T11:27:12Z</time>
      </trkpt>
      <trkpt lat="44.20617" lon="5.05374">
        <ele>387.0679932</ele>
        <time>2016-02-19T11:27:25Z</time>
      </trkpt>
      <trkpt lat="44.20623" lon="5.05374">
        <ele>382.7420654</ele>
        <time>2016-02-19T11:27:39Z</time>
      </trkpt>
      <trkpt lat="44.20634" lon="5.05363">
        <ele>379.3774414</ele>
        <time>2016-02-19T11:27:55Z</time>
      </trkpt>
      <trkpt lat="44.20643" lon="5.05361">
        <ele>377.9354248</ele>
        <time>2016-02-19T11:28:15Z</time>
      </trkpt>
      <trkpt lat="44.20649" lon="5.05363">
        <ele>376.9742432</ele>
        <time>2016-02-19T11:28:28Z</time>
      </trkpt>
      <trkpt lat="44.20643" lon="5.05354">
        <ele>375.5321045</ele>
        <time>2016-02-19T11:28:59Z</time>
      </trkpt>
      <trkpt lat="44.20644" lon="5.05351">
        <ele>373.6094971</ele>
        <time>2016-02-19T11:29:16Z</time>
      </trkpt>
      <trkpt lat="44.20646" lon="5.05351">
        <ele>372.6481934</ele>
        <time>2016-02-19T11:29:59Z</time>
      </trkpt>
      <trkpt lat="44.20648" lon="5.05356">
        <ele>371.6868896</ele>
        <time>2016-02-19T11:44:59Z</time>
      </trkpt>
      <trkpt lat="44.20665" lon="5.05427">
        <ele>400.5264893</ele>
        <time>2016-02-19T12:02:33Z</time>
      </trkpt>
      <trkpt lat="44.20639" lon="5.05369">
        <ele>367.3609619</ele>
        <time>2016-02-19T12:02:52Z</time>
      </trkpt>
      <trkpt lat="44.20641" lon="5.05385">
        <ele>383.2226563</ele>
        <time>2016-02-19T12:03:08Z</time>
      </trkpt>
      <trkpt lat="44.2066" lon="5.05383">
        <ele>377.454834</ele>
        <time>2016-02-19T12:03:27Z</time>
      </trkpt>
      <trkpt lat="44.20666" lon="5.0539">
        <ele>376.0128174</ele>
        <time>2016-02-19T12:03:33Z</time>
      </trkpt>
      <trkpt lat="44.20671" lon="5.05405">
        <ele>376.0128174</ele>
        <time>2016-02-19T12:03:41Z</time>
      </trkpt>
      <trkpt lat="44.20681" lon="5.05415">
        <ele>370.7255859</ele>
        <time>2016-02-19T12:03:52Z</time>
      </trkpt>
      <trkpt lat="44.20693" lon="5.05426">
        <ele>365.9189453</ele>
        <time>2016-02-19T12:04:03Z</time>
      </trkpt>
      <trkpt lat="44.20706" lon="5.05445">
        <ele>361.1124268</ele>
        <time>2016-02-19T12:04:21Z</time>
      </trkpt>
      <trkpt lat="44.20728" lon="5.05442">
        <ele>355.3444824</ele>
        <time>2016-02-19T12:04:37Z</time>
      </trkpt>
      <trkpt lat="44.20751" lon="5.05446">
        <ele>355.3444824</ele>
        <time>2016-02-19T12:04:54Z</time>
      </trkpt>
      <trkpt lat="44.20774" lon="5.0545">
        <ele>356.3057861</ele>
        <time>2016-02-19T12:05:11Z</time>
      </trkpt>
      <trkpt lat="44.20798" lon="5.05462">
        <ele>361.1124268</ele>
        <time>2016-02-19T12:05:29Z</time>
      </trkpt>
      <trkpt lat="44.20807" lon="5.05468">
        <ele>363.0350342</ele>
        <time>2016-02-19T12:05:38Z</time>
      </trkpt>
      <trkpt lat="44.20811" lon="5.05476">
        <ele>365.9189453</ele>
        <time>2016-02-19T12:05:47Z</time>
      </trkpt>
      <trkpt lat="44.20829" lon="5.05498">
        <ele>376.0128174</ele>
        <time>2016-02-19T12:06:11Z</time>
      </trkpt>
      <trkpt lat="44.20858" lon="5.05505">
        <ele>378.8968506</ele>
        <time>2016-02-19T12:06:27Z</time>
      </trkpt>
      <trkpt lat="44.20884" lon="5.05509">
        <ele>381.7806396</ele>
        <time>2016-02-19T12:06:43Z</time>
      </trkpt>
      <trkpt lat="44.20898" lon="5.05518">
        <ele>381.3000488</ele>
        <time>2016-02-19T12:06:56Z</time>
      </trkpt>
      <trkpt lat="44.2092" lon="5.05525">
        <ele>382.7420654</ele>
        <time>2016-02-19T12:07:10Z</time>
      </trkpt>
      <trkpt lat="44.20939" lon="5.05536">
        <ele>383.2226563</ele>
        <time>2016-02-19T12:07:28Z</time>
      </trkpt>
      <trkpt lat="44.20962" lon="5.0555">
        <ele>387.0679932</ele>
        <time>2016-02-19T12:07:51Z</time>
      </trkpt>
      <trkpt lat="44.20981" lon="5.05557">
        <ele>390.913208</ele>
        <time>2016-02-19T12:08:10Z</time>
      </trkpt>
      <trkpt lat="44.21003" lon="5.05565">
        <ele>391.3937988</ele>
        <time>2016-02-19T12:08:29Z</time>
      </trkpt>
      <trkpt lat="44.2101" lon="5.05568">
        <ele>391.3937988</ele>
        <time>2016-02-19T12:08:34Z</time>
      </trkpt>
      <trkpt lat="44.2102" lon="5.05573">
        <ele>391.8745117</ele>
        <time>2016-02-19T12:08:42Z</time>
      </trkpt>
      <trkpt lat="44.2104" lon="5.05582">
        <ele>388.5100098</ele>
        <time>2016-02-19T12:08:57Z</time>
      </trkpt>
      <trkpt lat="44.21057" lon="5.05603">
        <ele>382.7420654</ele>
        <time>2016-02-19T12:09:13Z</time>
      </trkpt>
      <trkpt lat="44.21076" lon="5.05632">
        <ele>379.8580322</ele>
        <time>2016-02-19T12:09:36Z</time>
      </trkpt>
      <trkpt lat="44.21085" lon="5.05645">
        <ele>377.454834</ele>
        <time>2016-02-19T12:09:45Z</time>
      </trkpt>
      <trkpt lat="44.21097" lon="5.05672">
        <ele>377.454834</ele>
        <time>2016-02-19T12:10:02Z</time>
      </trkpt>
      <trkpt lat="44.21101" lon="5.05678">
        <ele>378.8968506</ele>
        <time>2016-02-19T12:10:07Z</time>
      </trkpt>
      <trkpt lat="44.21114" lon="5.05697">
        <ele>380.819458</ele>
        <time>2016-02-19T12:10:21Z</time>
      </trkpt>
      <trkpt lat="44.21117" lon="5.05701">
        <ele>380.3387451</ele>
        <time>2016-02-19T12:10:24Z</time>
      </trkpt>
      <trkpt lat="44.21127" lon="5.05718">
        <ele>377.9354248</ele>
        <time>2016-02-19T12:10:36Z</time>
      </trkpt>
      <trkpt lat="44.21138" lon="5.05743">
        <ele>377.9354248</ele>
        <time>2016-02-19T12:10:52Z</time>
      </trkpt>
      <trkpt lat="44.21141" lon="5.05782">
        <ele>381.7806396</ele>
        <time>2016-02-19T12:11:13Z</time>
      </trkpt>
      <trkpt lat="44.21128" lon="5.05815">
        <ele>383.7032471</ele>
        <time>2016-02-19T12:11:35Z</time>
      </trkpt>
      <trkpt lat="44.21114" lon="5.05847">
        <ele>384.6647949</ele>
        <time>2016-02-19T12:11:56Z</time>
      </trkpt>
      <trkpt lat="44.21113" lon="5.05848">
        <ele>384.6647949</ele>
        <time>2016-02-19T12:11:57Z</time>
      </trkpt>
      <trkpt lat="44.21085" lon="5.05872">
        <ele>386.5874023</ele>
        <time>2016-02-19T12:12:23Z</time>
      </trkpt>
      <trkpt lat="44.21068" lon="5.05874">
        <ele>385.1453857</ele>
        <time>2016-02-19T12:12:38Z</time>
      </trkpt>
      <trkpt lat="44.21053" lon="5.05879">
        <ele>383.2226563</ele>
        <time>2016-02-19T12:12:50Z</time>
      </trkpt>
      <trkpt lat="44.21031" lon="5.05889">
        <ele>375.0515137</ele>
        <time>2016-02-19T12:13:09Z</time>
      </trkpt>
      <trkpt lat="44.21025" lon="5.05892">
        <ele>372.6481934</ele>
        <time>2016-02-19T12:13:15Z</time>
      </trkpt>
      <trkpt lat="44.21022" lon="5.05894">
        <ele>370.7255859</ele>
        <time>2016-02-19T12:13:19Z</time>
      </trkpt>
      <trkpt lat="44.21015" lon="5.05908">
        <ele>373.6094971</ele>
        <time>2016-02-19T12:13:30Z</time>
      </trkpt>
      <trkpt lat="44.21013" lon="5.05913">
        <ele>377.9354248</ele>
        <time>2016-02-19T12:13:47Z</time>
      </trkpt>
      <trkpt lat="44.21026" lon="5.05924">
        <ele>382.7420654</ele>
        <time>2016-02-19T12:14:00Z</time>
      </trkpt>
      <trkpt lat="44.21045" lon="5.05934">
        <ele>383.7032471</ele>
        <time>2016-02-19T12:14:20Z</time>
      </trkpt>
      <trkpt lat="44.21046" lon="5.05936">
        <ele>383.7032471</ele>
        <time>2016-02-19T12:14:35Z</time>
      </trkpt>
      <trkpt lat="44.21047" lon="5.05936">
        <ele>383.7032471</ele>
        <time>2016-02-19T12:14:50Z</time>
      </trkpt>
      <trkpt lat="44.21048" lon="5.0594">
        <ele>384.6647949</ele>
        <time>2016-02-19T12:14:53Z</time>
      </trkpt>
      <trkpt lat="44.21063" lon="5.05945">
        <ele>384.6647949</ele>
        <time>2016-02-19T12:15:07Z</time>
      </trkpt>
      <trkpt lat="44.21066" lon="5.05949">
        <ele>384.184082</ele>
        <time>2016-02-19T12:15:11Z</time>
      </trkpt>
      <trkpt lat="44.21067" lon="5.05947">
        <ele>385.1453857</ele>
        <time>2016-02-19T12:15:24Z</time>
      </trkpt>
      <trkpt lat="44.21083" lon="5.05955">
        <ele>384.6647949</ele>
        <time>2016-02-19T12:15:34Z</time>
      </trkpt>
      <trkpt lat="44.21102" lon="5.05973">
        <ele>381.7806396</ele>
        <time>2016-02-19T12:15:48Z</time>
      </trkpt>
      <trkpt lat="44.21113" lon="5.06009">
        <ele>382.7420654</ele>
        <time>2016-02-19T12:16:09Z</time>
      </trkpt>
      <trkpt lat="44.21129" lon="5.06043">
        <ele>382.7420654</ele>
        <time>2016-02-19T12:16:30Z</time>
      </trkpt>
      <trkpt lat="44.21137" lon="5.06056">
        <ele>384.6647949</ele>
        <time>2016-02-19T12:16:38Z</time>
      </trkpt>
      <trkpt lat="44.21138" lon="5.06059">
        <ele>384.184082</ele>
        <time>2016-02-19T12:16:40Z</time>
      </trkpt>
      <trkpt lat="44.21152" lon="5.06077">
        <ele>380.819458</ele>
        <time>2016-02-19T12:16:54Z</time>
      </trkpt>
      <trkpt lat="44.21153" lon="5.06081">
        <ele>380.819458</ele>
        <time>2016-02-19T12:16:57Z</time>
      </trkpt>
      <trkpt lat="44.21165" lon="5.06098">
        <ele>379.3774414</ele>
        <time>2016-02-19T12:17:12Z</time>
      </trkpt>
      <trkpt lat="44.21174" lon="5.06108">
        <ele>374.5708008</ele>
        <time>2016-02-19T12:17:33Z</time>
      </trkpt>
      <trkpt lat="44.21185" lon="5.06119">
        <ele>374.5708008</ele>
        <time>2016-02-19T12:17:43Z</time>
      </trkpt>
      <trkpt lat="44.21189" lon="5.06134">
        <ele>373.1289063</ele>
        <time>2016-02-19T12:17:53Z</time>
      </trkpt>
      <trkpt lat="44.21186" lon="5.06142">
        <ele>375.5321045</ele>
        <time>2016-02-19T12:18:01Z</time>
      </trkpt>
      <trkpt lat="44.21177" lon="5.06146">
        <ele>379.8580322</ele>
        <time>2016-02-19T12:18:09Z</time>
      </trkpt>
      <trkpt lat="44.21177" lon="5.06149">
        <ele>381.7806396</ele>
        <time>2016-02-19T12:18:21Z</time>
      </trkpt>
      <trkpt lat="44.21185" lon="5.06154">
        <ele>384.6647949</ele>
        <time>2016-02-19T12:18:56Z</time>
      </trkpt>
      <trkpt lat="44.21186" lon="5.06149">
        <ele>382.7420654</ele>
        <time>2016-02-19T12:19:16Z</time>
      </trkpt>
      <trkpt lat="44.21192" lon="5.06144">
        <ele>379.8580322</ele>
        <time>2016-02-19T12:19:29Z</time>
      </trkpt>
      <trkpt lat="44.21194" lon="5.06146">
        <ele>379.3774414</ele>
        <time>2016-02-19T12:19:41Z</time>
      </trkpt>
      <trkpt lat="44.21197" lon="5.06154">
        <ele>380.819458</ele>
        <time>2016-02-19T12:19:50Z</time>
      </trkpt>
      <trkpt lat="44.21216" lon="5.0618">
        <ele>372.6481934</ele>
        <time>2016-02-19T12:20:14Z</time>
      </trkpt>
      <trkpt lat="44.21225" lon="5.0619">
        <ele>373.1289063</ele>
        <time>2016-02-19T12:20:24Z</time>
      </trkpt>
      <trkpt lat="44.21233" lon="5.06221">
        <ele>368.3222656</ele>
        <time>2016-02-19T12:20:43Z</time>
      </trkpt>
      <trkpt lat="44.21223" lon="5.06249">
        <ele>366.3995361</ele>
        <time>2016-02-19T12:21:02Z</time>
      </trkpt>
      <trkpt lat="44.21228" lon="5.06265">
        <ele>360.6317139</ele>
        <time>2016-02-19T12:21:16Z</time>
      </trkpt>
      <trkpt lat="44.21229" lon="5.06266">
        <ele>360.151123</ele>
        <time>2016-02-19T12:21:17Z</time>
      </trkpt>
      <trkpt lat="44.21235" lon="5.06266">
        <ele>359.6704102</ele>
        <time>2016-02-19T12:21:22Z</time>
      </trkpt>
      <trkpt lat="44.21253" lon="5.06257">
        <ele>356.786377</ele>
        <time>2016-02-19T12:21:37Z</time>
      </trkpt>
      <trkpt lat="44.21256" lon="5.06256">
        <ele>357.2670898</ele>
        <time>2016-02-19T12:21:39Z</time>
      </trkpt>
      <trkpt lat="44.21269" lon="5.0624">
        <ele>357.2670898</ele>
        <time>2016-02-19T12:21:52Z</time>
      </trkpt>
      <trkpt lat="44.21271" lon="5.06234">
        <ele>356.786377</ele>
        <time>2016-02-19T12:21:56Z</time>
      </trkpt>
      <trkpt lat="44.21279" lon="5.06236">
        <ele>355.8251953</ele>
        <time>2016-02-19T12:22:05Z</time>
      </trkpt>
      <trkpt lat="44.21279" lon="5.06247">
        <ele>354.3831787</ele>
        <time>2016-02-19T12:22:12Z</time>
      </trkpt>
      <trkpt lat="44.2128" lon="5.06252">
        <ele>353.9025879</ele>
        <time>2016-02-19T12:22:15Z</time>
      </trkpt>
      <trkpt lat="44.21269" lon="5.06294">
        <ele>351.0184326</ele>
        <time>2016-02-19T12:22:39Z</time>
      </trkpt>
      <trkpt lat="44.21257" lon="5.06329">
        <ele>352.9411621</ele>
        <time>2016-02-19T12:22:59Z</time>
      </trkpt>
      <trkpt lat="44.21243" lon="5.06355">
        <ele>357.2670898</ele>
        <time>2016-02-19T12:23:17Z</time>
      </trkpt>
      <trkpt lat="44.21219" lon="5.0638">
        <ele>364.4769287</ele>
        <time>2016-02-19T12:23:37Z</time>
      </trkpt>
      <trkpt lat="44.21205" lon="5.06381">
        <ele>360.151123</ele>
        <time>2016-02-19T12:23:57Z</time>
      </trkpt>
      <trkpt lat="44.21202" lon="5.06367">
        <ele>353.421875</ele>
        <time>2016-02-19T12:24:18Z</time>
      </trkpt>
      <trkpt lat="44.21207" lon="5.06368">
        <ele>347.1732178</ele>
        <time>2016-02-19T12:24:40Z</time>
      </trkpt>
      <trkpt lat="44.2122" lon="5.0637">
        <ele>340.9246826</ele>
        <time>2016-02-19T12:25:04Z</time>
      </trkpt>
      <trkpt lat="44.21221" lon="5.0637">
        <ele>341.4052734</ele>
        <time>2016-02-19T12:25:51Z</time>
      </trkpt>
      <trkpt lat="44.21225" lon="5.06369">
        <ele>342.84729</ele>
        <time>2016-02-19T12:27:13Z</time>
      </trkpt>
      <trkpt lat="44.21226" lon="5.06369">
        <ele>342.3666992</ele>
        <time>2016-02-19T12:27:14Z</time>
      </trkpt>
      <trkpt lat="44.21235" lon="5.06366">
        <ele>344.2894287</ele>
        <time>2016-02-19T12:27:23Z</time>
      </trkpt>
      <trkpt lat="44.21254" lon="5.06361">
        <ele>345.7313232</ele>
        <time>2016-02-19T12:27:40Z</time>
      </trkpt>
      <trkpt lat="44.21257" lon="5.0636">
        <ele>345.2506104</ele>
        <time>2016-02-19T12:27:43Z</time>
      </trkpt>
      <trkpt lat="44.21274" lon="5.06351">
        <ele>340.9246826</ele>
        <time>2016-02-19T12:27:56Z</time>
      </trkpt>
      <trkpt lat="44.21281" lon="5.06345">
        <ele>338.5214844</ele>
        <time>2016-02-19T12:28:02Z</time>
      </trkpt>
      <trkpt lat="44.21298" lon="5.06332">
        <ele>336.1181641</ele>
        <time>2016-02-19T12:28:18Z</time>
      </trkpt>
      <trkpt lat="44.21303" lon="5.06325">
        <ele>332.2728271</ele>
        <time>2016-02-19T12:28:24Z</time>
      </trkpt>
      <trkpt lat="44.21316" lon="5.0631">
        <ele>326.9855957</ele>
        <time>2016-02-19T12:28:37Z</time>
      </trkpt>
      <trkpt lat="44.21331" lon="5.063">
        <ele>325.0629883</ele>
        <time>2016-02-19T12:28:51Z</time>
      </trkpt>
      <trkpt lat="44.21333" lon="5.063">
        <ele>325.0629883</ele>
        <time>2016-02-19T12:28:52Z</time>
      </trkpt>
      <trkpt lat="44.21344" lon="5.06299">
        <ele>327.4661865</ele>
        <time>2016-02-19T12:29:01Z</time>
      </trkpt>
      <trkpt lat="44.21363" lon="5.06299">
        <ele>328.4276123</ele>
        <time>2016-02-19T12:29:17Z</time>
      </trkpt>
      <trkpt lat="44.21382" lon="5.06302">
        <ele>325.5435791</ele>
        <time>2016-02-19T12:29:29Z</time>
      </trkpt>
      <trkpt lat="44.214" lon="5.06303">
        <ele>324.1015625</ele>
        <time>2016-02-19T12:29:42Z</time>
      </trkpt>
      <trkpt lat="44.2142" lon="5.06303">
        <ele>320.2563477</ele>
        <time>2016-02-19T12:29:56Z</time>
      </trkpt>
      <trkpt lat="44.2142" lon="5.06305">
        <ele>323.1403809</ele>
        <time>2016-02-19T12:29:57Z</time>
      </trkpt>
      <trkpt lat="44.21423" lon="5.06305">
        <ele>323.6209717</ele>
        <time>2016-02-19T12:29:59Z</time>
      </trkpt>
      <trkpt lat="44.21447" lon="5.06307">
        <ele>323.6209717</ele>
        <time>2016-02-19T12:30:17Z</time>
      </trkpt>
      <trkpt lat="44.21452" lon="5.06306">
        <ele>322.659668</ele>
        <time>2016-02-19T12:30:21Z</time>
      </trkpt>
      <trkpt lat="44.21469" lon="5.06304">
        <ele>322.1789551</ele>
        <time>2016-02-19T12:30:34Z</time>
      </trkpt>
      <trkpt lat="44.21484" lon="5.063">
        <ele>323.6209717</ele>
        <time>2016-02-19T12:30:45Z</time>
      </trkpt>
      <trkpt lat="44.21501" lon="5.06295">
        <ele>323.1403809</ele>
        <time>2016-02-19T12:30:59Z</time>
      </trkpt>
      <trkpt lat="44.21515" lon="5.06291">
        <ele>323.1403809</ele>
        <time>2016-02-19T12:31:10Z</time>
      </trkpt>
      <trkpt lat="44.21517" lon="5.0629">
        <ele>322.659668</ele>
        <time>2016-02-19T12:31:12Z</time>
      </trkpt>
      <trkpt lat="44.21535" lon="5.06284">
        <ele>319.2950439</ele>
        <time>2016-02-19T12:31:25Z</time>
      </trkpt>
      <trkpt lat="44.21554" lon="5.0628">
        <ele>319.7756348</ele>
        <time>2016-02-19T12:31:37Z</time>
      </trkpt>
      <trkpt lat="44.21577" lon="5.06277">
        <ele>318.3336182</ele>
        <time>2016-02-19T12:31:53Z</time>
      </trkpt>
      <trkpt lat="44.21593" lon="5.06274">
        <ele>316.8917236</ele>
        <time>2016-02-19T12:32:07Z</time>
      </trkpt>
      <trkpt lat="44.2161" lon="5.06273">
        <ele>314.9691162</ele>
        <time>2016-02-19T12:32:17Z</time>
      </trkpt>
      <trkpt lat="44.21614" lon="5.06273">
        <ele>314.4884033</ele>
        <time>2016-02-19T12:32:20Z</time>
      </trkpt>
      <trkpt lat="44.21636" lon="5.06268">
        <ele>313.0465088</ele>
        <time>2016-02-19T12:32:35Z</time>
      </trkpt>
      <trkpt lat="44.21638" lon="5.06268">
        <ele>312.0852051</ele>
        <time>2016-02-19T12:32:36Z</time>
      </trkpt>
      <trkpt lat="44.21649" lon="5.06262">
        <ele>310.1624756</ele>
        <time>2016-02-19T12:32:48Z</time>
      </trkpt>
      <trkpt lat="44.21664" lon="5.06258">
        <ele>308.720459</ele>
        <time>2016-02-19T12:33:03Z</time>
      </trkpt>
      <trkpt lat="44.21681" lon="5.06247">
        <ele>305.355957</ele>
        <time>2016-02-19T12:33:16Z</time>
      </trkpt>
      <trkpt lat="44.21701" lon="5.06236">
        <ele>306.7978516</ele>
        <time>2016-02-19T12:33:30Z</time>
      </trkpt>
      <trkpt lat="44.21714" lon="5.06223">
        <ele>302.4719238</ele>
        <time>2016-02-19T12:33:42Z</time>
      </trkpt>
      <trkpt lat="44.21717" lon="5.06218">
        <ele>302.4719238</ele>
        <time>2016-02-19T12:33:46Z</time>
      </trkpt>
      <trkpt lat="44.21723" lon="5.06214">
        <ele>303.4332275</ele>
        <time>2016-02-19T12:33:50Z</time>
      </trkpt>
      <trkpt lat="44.21732" lon="5.06208">
        <ele>303.4332275</ele>
        <time>2016-02-19T12:33:57Z</time>
      </trkpt>
      <trkpt lat="44.21734" lon="5.06204">
        <ele>303.4332275</ele>
        <time>2016-02-19T12:34:00Z</time>
      </trkpt>
      <trkpt lat="44.2175" lon="5.06192">
        <ele>304.8752441</ele>
        <time>2016-02-19T12:34:13Z</time>
      </trkpt>
      <trkpt lat="44.21758" lon="5.06184">
        <ele>304.3946533</ele>
        <time>2016-02-19T12:34:20Z</time>
      </trkpt>
      <trkpt lat="44.21771" lon="5.06175">
        <ele>307.2785645</ele>
        <time>2016-02-19T12:34:29Z</time>
      </trkpt>
      <trkpt lat="44.2178" lon="5.06167">
        <ele>308.2398682</ele>
        <time>2016-02-19T12:34:37Z</time>
      </trkpt>
      <trkpt lat="44.21786" lon="5.06163">
        <ele>308.720459</ele>
        <time>2016-02-19T12:34:41Z</time>
      </trkpt>
      <trkpt lat="44.21789" lon="5.06158">
        <ele>307.2785645</ele>
        <time>2016-02-19T12:34:45Z</time>
      </trkpt>
      <trkpt lat="44.21793" lon="5.06151">
        <ele>304.3946533</ele>
        <time>2016-02-19T12:34:50Z</time>
      </trkpt>
      <trkpt lat="44.21797" lon="5.06145">
        <ele>302.4719238</ele>
        <time>2016-02-19T12:34:54Z</time>
      </trkpt>
      <trkpt lat="44.21803" lon="5.06133">
        <ele>300.0687256</ele>
        <time>2016-02-19T12:35:01Z</time>
      </trkpt>
      <trkpt lat="44.21805" lon="5.06129">
        <ele>300.5493164</ele>
        <time>2016-02-19T12:35:04Z</time>
      </trkpt>
      <trkpt lat="44.21815" lon="5.06105">
        <ele>299.1072998</ele>
        <time>2016-02-19T12:35:20Z</time>
      </trkpt>
      <trkpt lat="44.21813" lon="5.0608">
        <ele>299.1072998</ele>
        <time>2016-02-19T12:35:35Z</time>
      </trkpt>
      <trkpt lat="44.218" lon="5.06058">
        <ele>293.8200684</ele>
        <time>2016-02-19T12:35:50Z</time>
      </trkpt>
      <trkpt lat="44.21792" lon="5.06045">
        <ele>292.8587646</ele>
        <time>2016-02-19T12:35:58Z</time>
      </trkpt>
      <trkpt lat="44.21787" lon="5.06039">
        <ele>290.4555664</ele>
        <time>2016-02-19T12:36:04Z</time>
      </trkpt>
      <trkpt lat="44.2178" lon="5.0603">
        <ele>291.416748</ele>
        <time>2016-02-19T12:36:09Z</time>
      </trkpt>
      <trkpt lat="44.21776" lon="5.06024">
        <ele>290.4555664</ele>
        <time>2016-02-19T12:36:14Z</time>
      </trkpt>
      <trkpt lat="44.21771" lon="5.06019">
        <ele>290.9361572</ele>
        <time>2016-02-19T12:36:19Z</time>
      </trkpt>
      <trkpt lat="44.21769" lon="5.06015">
        <ele>290.9361572</ele>
        <time>2016-02-19T12:36:21Z</time>
      </trkpt>
      <trkpt lat="44.2176" lon="5.06005">
        <ele>288.532959</ele>
        <time>2016-02-19T12:36:30Z</time>
      </trkpt>
      <trkpt lat="44.21757" lon="5.06002">
        <ele>287.5714111</ele>
        <time>2016-02-19T12:36:33Z</time>
      </trkpt>
      <trkpt lat="44.21754" lon="5.05998">
        <ele>287.5714111</ele>
        <time>2016-02-19T12:36:36Z</time>
      </trkpt>
      <trkpt lat="44.21753" lon="5.05993">
        <ele>287.0908203</ele>
        <time>2016-02-19T12:36:38Z</time>
      </trkpt>
      <trkpt lat="44.2175" lon="5.05989">
        <ele>286.6102295</ele>
        <time>2016-02-19T12:36:41Z</time>
      </trkpt>
      <trkpt lat="44.21744" lon="5.05978">
        <ele>285.6488037</ele>
        <time>2016-02-19T12:36:49Z</time>
      </trkpt>
      <trkpt lat="44.21738" lon="5.05972">
        <ele>285.6488037</ele>
        <time>2016-02-19T12:36:54Z</time>
      </trkpt>
      <trkpt lat="44.21726" lon="5.05957">
        <ele>284.2069092</ele>
        <time>2016-02-19T12:37:07Z</time>
      </trkpt>
      <trkpt lat="44.21716" lon="5.05943">
        <ele>285.6488037</ele>
        <time>2016-02-19T12:37:16Z</time>
      </trkpt>
      <trkpt lat="44.21707" lon="5.05929">
        <ele>287.0908203</ele>
        <time>2016-02-19T12:37:27Z</time>
      </trkpt>
      <trkpt lat="44.21695" lon="5.05907">
        <ele>289.4941406</ele>
        <time>2016-02-19T12:37:40Z</time>
      </trkpt>
      <trkpt lat="44.21685" lon="5.05888">
        <ele>291.8974609</ele>
        <time>2016-02-19T12:37:54Z</time>
      </trkpt>
      <trkpt lat="44.21675" lon="5.05863">
        <ele>292.3781738</ele>
        <time>2016-02-19T12:38:08Z</time>
      </trkpt>
      <trkpt lat="44.21669" lon="5.05847">
        <ele>291.8974609</ele>
        <time>2016-02-19T12:38:19Z</time>
      </trkpt>
      <trkpt lat="44.21663" lon="5.0584">
        <ele>290.4555664</ele>
        <time>2016-02-19T12:38:24Z</time>
      </trkpt>
      <trkpt lat="44.2166" lon="5.05826">
        <ele>291.416748</ele>
        <time>2016-02-19T12:38:33Z</time>
      </trkpt>
      <trkpt lat="44.21667" lon="5.05805">
        <ele>290.4555664</ele>
        <time>2016-02-19T12:38:46Z</time>
      </trkpt>
      <trkpt lat="44.21673" lon="5.05804">
        <ele>289.9748535</ele>
        <time>2016-02-19T12:38:53Z</time>
      </trkpt>
      <trkpt lat="44.21682" lon="5.05811">
        <ele>288.532959</ele>
        <time>2016-02-19T12:39:04Z</time>
      </trkpt>
      <trkpt lat="44.21693" lon="5.05822">
        <ele>287.5714111</ele>
        <time>2016-02-19T12:39:22Z</time>
      </trkpt>
      <trkpt lat="44.21698" lon="5.05829">
        <ele>287.5714111</ele>
        <time>2016-02-19T12:40:01Z</time>
      </trkpt>
      <trkpt lat="44.21703" lon="5.05839">
        <ele>287.0908203</ele>
        <time>2016-02-19T12:40:10Z</time>
      </trkpt>
      <trkpt lat="44.2171" lon="5.05846">
        <ele>286.6102295</ele>
        <time>2016-02-19T12:40:18Z</time>
      </trkpt>
      <trkpt lat="44.21726" lon="5.0586">
        <ele>287.0908203</ele>
        <time>2016-02-19T12:40:35Z</time>
      </trkpt>
      <trkpt lat="44.2174" lon="5.05868">
        <ele>288.532959</ele>
        <time>2016-02-19T12:40:49Z</time>
      </trkpt>
      <trkpt lat="44.21755" lon="5.05878">
        <ele>295.7426758</ele>
        <time>2016-02-19T12:41:07Z</time>
      </trkpt>
      <trkpt lat="44.21773" lon="5.05883">
        <ele>297.6654053</ele>
        <time>2016-02-19T12:41:23Z</time>
      </trkpt>
      <trkpt lat="44.21785" lon="5.05889">
        <ele>296.7041016</ele>
        <time>2016-02-19T12:41:33Z</time>
      </trkpt>
      <trkpt lat="44.21801" lon="5.05894">
        <ele>298.626709</ele>
        <time>2016-02-19T12:41:48Z</time>
      </trkpt>
      <trkpt lat="44.21808" lon="5.05895">
        <ele>298.626709</ele>
        <time>2016-02-19T12:41:55Z</time>
      </trkpt>
      <trkpt lat="44.21817" lon="5.05902">
        <ele>303.9139404</ele>
        <time>2016-02-19T12:42:06Z</time>
      </trkpt>
      <trkpt lat="44.21818" lon="5.05903">
        <ele>305.355957</ele>
        <time>2016-02-19T12:42:07Z</time>
      </trkpt>
      <trkpt lat="44.21833" lon="5.05914">
        <ele>309.6818848</ele>
        <time>2016-02-19T12:42:24Z</time>
      </trkpt>
      <trkpt lat="44.21837" lon="5.05918">
        <ele>310.6430664</ele>
        <time>2016-02-19T12:42:28Z</time>
      </trkpt>
      <trkpt lat="44.21846" lon="5.05923">
        <ele>314.4884033</ele>
        <time>2016-02-19T12:42:37Z</time>
      </trkpt>
      <trkpt lat="44.21861" lon="5.05929">
        <ele>316.8917236</ele>
        <time>2016-02-19T12:42:53Z</time>
      </trkpt>
      <trkpt lat="44.21863" lon="5.05929">
        <ele>317.3724365</ele>
        <time>2016-02-19T12:42:55Z</time>
      </trkpt>
      <trkpt lat="44.21866" lon="5.05928">
        <ele>315.9304199</ele>
        <time>2016-02-19T12:42:58Z</time>
      </trkpt>
      <trkpt lat="44.21874" lon="5.0593">
        <ele>313.5272217</ele>
        <time>2016-02-19T12:43:06Z</time>
      </trkpt>
      <trkpt lat="44.21876" lon="5.05929">
        <ele>313.0465088</ele>
        <time>2016-02-19T12:43:08Z</time>
      </trkpt>
      <trkpt lat="44.21878" lon="5.05931">
        <ele>313.0465088</ele>
        <time>2016-02-19T12:43:11Z</time>
      </trkpt>
      <trkpt lat="44.2188" lon="5.0593">
        <ele>314.0078125</ele>
        <time>2016-02-19T12:43:13Z</time>
      </trkpt>
      <trkpt lat="44.21899" lon="5.05936">
        <ele>318.8143311</ele>
        <time>2016-02-19T12:43:30Z</time>
      </trkpt>
      <trkpt lat="44.21909" lon="5.05936">
        <ele>319.2950439</ele>
        <time>2016-02-19T12:43:39Z</time>
      </trkpt>
      <trkpt lat="44.21923" lon="5.05929">
        <ele>321.6983643</ele>
        <time>2016-02-19T12:43:54Z</time>
      </trkpt>
      <trkpt lat="44.21938" lon="5.05922">
        <ele>324.1015625</ele>
        <time>2016-02-19T12:44:13Z</time>
      </trkpt>
      <trkpt lat="44.21947" lon="5.05916">
        <ele>323.1403809</ele>
        <time>2016-02-19T12:44:22Z</time>
      </trkpt>
      <trkpt lat="44.21951" lon="5.05915">
        <ele>323.1403809</ele>
        <time>2016-02-19T12:44:25Z</time>
      </trkpt>
      <trkpt lat="44.21965" lon="5.05915">
        <ele>322.659668</ele>
        <time>2016-02-19T12:44:35Z</time>
      </trkpt>
      <trkpt lat="44.21969" lon="5.05913">
        <ele>323.6209717</ele>
        <time>2016-02-19T12:44:39Z</time>
      </trkpt>
      <trkpt lat="44.2198" lon="5.05912">
        <ele>324.5822754</ele>
        <time>2016-02-19T12:44:48Z</time>
      </trkpt>
      <trkpt lat="44.21984" lon="5.05909">
        <ele>324.5822754</ele>
        <time>2016-02-19T12:44:52Z</time>
      </trkpt>
      <trkpt lat="44.22001" lon="5.05904">
        <ele>322.1789551</ele>
        <time>2016-02-19T12:45:08Z</time>
      </trkpt>
      <trkpt lat="44.22014" lon="5.059">
        <ele>322.659668</ele>
        <time>2016-02-19T12:45:21Z</time>
      </trkpt>
      <trkpt lat="44.22027" lon="5.05899">
        <ele>326.5048828</ele>
        <time>2016-02-19T12:45:34Z</time>
      </trkpt>
      <trkpt lat="44.22028" lon="5.05898">
        <ele>326.5048828</ele>
        <time>2016-02-19T12:45:35Z</time>
      </trkpt>
      <trkpt lat="44.22033" lon="5.05897">
        <ele>327.9467773</ele>
        <time>2016-02-19T12:45:41Z</time>
      </trkpt>
      <trkpt lat="44.22049" lon="5.05894">
        <ele>328.4276123</ele>
        <time>2016-02-19T12:45:57Z</time>
      </trkpt>
      <trkpt lat="44.22067" lon="5.05892">
        <ele>335.1567383</ele>
        <time>2016-02-19T12:46:16Z</time>
      </trkpt>
      <trkpt lat="44.22085" lon="5.05894">
        <ele>336.1181641</ele>
        <time>2016-02-19T12:46:31Z</time>
      </trkpt>
      <trkpt lat="44.22092" lon="5.05895">
        <ele>336.598877</ele>
        <time>2016-02-19T12:46:37Z</time>
      </trkpt>
      <trkpt lat="44.22112" lon="5.05896">
        <ele>338.0407715</ele>
        <time>2016-02-19T12:46:55Z</time>
      </trkpt>
      <trkpt lat="44.2213" lon="5.05896">
        <ele>339.9633789</ele>
        <time>2016-02-19T12:47:12Z</time>
      </trkpt>
      <trkpt lat="44.22145" lon="5.05899">
        <ele>344.2894287</ele>
        <time>2016-02-19T12:47:25Z</time>
      </trkpt>
      <trkpt lat="44.22155" lon="5.05896">
        <ele>343.8085938</ele>
        <time>2016-02-19T12:47:35Z</time>
      </trkpt>
      <trkpt lat="44.22163" lon="5.05894">
        <ele>342.3666992</ele>
        <time>2016-02-19T12:47:52Z</time>
      </trkpt>
      <trkpt lat="44.22165" lon="5.05892">
        <ele>342.3666992</ele>
        <time>2016-02-19T12:48:21Z</time>
      </trkpt>
      <trkpt lat="44.22165" lon="5.05892">
        <ele>342.3666992</ele>
        <time>2016-02-19T12:49:33Z</time>
      </trkpt>
      <trkpt lat="44.22165" lon="5.05891">
        <ele>342.3666992</ele>
        <time>2016-02-19T12:50:55Z</time>
      </trkpt>
      <trkpt lat="44.22166" lon="5.05889">
        <ele>343.3278809</ele>
        <time>2016-02-19T12:51:27Z</time>
      </trkpt>
      <trkpt lat="44.22168" lon="5.05886">
        <ele>343.8085938</ele>
        <time>2016-02-19T12:51:37Z</time>
      </trkpt>
      <trkpt lat="44.22169" lon="5.05881">
        <ele>343.8085938</ele>
        <time>2016-02-19T12:51:41Z</time>
      </trkpt>
      <trkpt lat="44.2217" lon="5.05863">
        <ele>341.4052734</ele>
        <time>2016-02-19T12:51:56Z</time>
      </trkpt>
      <trkpt lat="44.22169" lon="5.05858">
        <ele>339.9633789</ele>
        <time>2016-02-19T12:51:57Z</time>
      </trkpt>
      <trkpt lat="44.22172" lon="5.05853">
        <ele>339.9633789</ele>
        <time>2016-02-19T12:52:01Z</time>
      </trkpt>
      <trkpt lat="44.22173" lon="5.05841">
        <ele>338.5214844</ele>
        <time>2016-02-19T12:52:09Z</time>
      </trkpt>
      <trkpt lat="44.22161" lon="5.05824">
        <ele>335.6373291</ele>
        <time>2016-02-19T12:52:23Z</time>
      </trkpt>
      <trkpt lat="44.22157" lon="5.05819">
        <ele>335.6373291</ele>
        <time>2016-02-19T12:52:26Z</time>
      </trkpt>
      <trkpt lat="44.22145" lon="5.05808">
        <ele>334.6761475</ele>
        <time>2016-02-19T12:52:39Z</time>
      </trkpt>
      <trkpt lat="44.22131" lon="5.05792">
        <ele>332.75354</ele>
        <time>2016-02-19T12:52:55Z</time>
      </trkpt>
      <trkpt lat="44.2213" lon="5.05788">
        <ele>331.7921143</ele>
        <time>2016-02-19T12:52:58Z</time>
      </trkpt>
      <trkpt lat="44.22125" lon="5.05756">
        <ele>329.388916</ele>
        <time>2016-02-19T12:53:12Z</time>
      </trkpt>
      <trkpt lat="44.22126" lon="5.05747">
        <ele>327.9467773</ele>
        <time>2016-02-19T12:53:18Z</time>
      </trkpt>
      <trkpt lat="44.22125" lon="5.05742">
        <ele>327.9467773</ele>
        <time>2016-02-19T12:53:20Z</time>
      </trkpt>
      <trkpt lat="44.22125" lon="5.05737">
        <ele>327.9467773</ele>
        <time>2016-02-19T12:53:22Z</time>
      </trkpt>
      <trkpt lat="44.22127" lon="5.05727">
        <ele>327.9467773</ele>
        <time>2016-02-19T12:53:27Z</time>
      </trkpt>
      <trkpt lat="44.22127" lon="5.05713">
        <ele>326.9855957</ele>
        <time>2016-02-19T12:53:36Z</time>
      </trkpt>
      <trkpt lat="44.22131" lon="5.05693">
        <ele>329.388916</ele>
        <time>2016-02-19T12:53:46Z</time>
      </trkpt>
      <trkpt lat="44.22136" lon="5.05672">
        <ele>328.9083252</ele>
        <time>2016-02-19T12:54:00Z</time>
      </trkpt>
      <trkpt lat="44.22139" lon="5.05658">
        <ele>329.388916</ele>
        <time>2016-02-19T12:54:09Z</time>
      </trkpt>
      <trkpt lat="44.22136" lon="5.05644">
        <ele>328.4276123</ele>
        <time>2016-02-19T12:54:21Z</time>
      </trkpt>
      <trkpt lat="44.22114" lon="5.05632">
        <ele>330.8309326</ele>
        <time>2016-02-19T12:54:39Z</time>
      </trkpt>
      <trkpt lat="44.22095" lon="5.05622">
        <ele>332.75354</ele>
        <time>2016-02-19T12:54:54Z</time>
      </trkpt>
      <trkpt lat="44.22075" lon="5.05614">
        <ele>336.1181641</ele>
        <time>2016-02-19T12:55:10Z</time>
      </trkpt>
      <trkpt lat="44.22061" lon="5.05605">
        <ele>336.1181641</ele>
        <time>2016-02-19T12:55:23Z</time>
      </trkpt>
      <trkpt lat="44.22041" lon="5.05587">
        <ele>338.0407715</ele>
        <time>2016-02-19T12:55:41Z</time>
      </trkpt>
      <trkpt lat="44.22039" lon="5.05586">
        <ele>338.5214844</ele>
        <time>2016-02-19T12:55:42Z</time>
      </trkpt>
      <trkpt lat="44.2203" lon="5.05583">
        <ele>339.9633789</ele>
        <time>2016-02-19T12:55:49Z</time>
      </trkpt>
      <trkpt lat="44.22027" lon="5.05579">
        <ele>340.9246826</ele>
        <time>2016-02-19T12:55:52Z</time>
      </trkpt>
      <trkpt lat="44.22009" lon="5.05573">
        <ele>339.9633789</ele>
        <time>2016-02-19T12:56:06Z</time>
      </trkpt>
      <trkpt lat="44.21986" lon="5.05566">
        <ele>342.84729</ele>
        <time>2016-02-19T12:56:24Z</time>
      </trkpt>
      <trkpt lat="44.21981" lon="5.05564">
        <ele>342.3666992</ele>
        <time>2016-02-19T12:56:29Z</time>
      </trkpt>
      <trkpt lat="44.21969" lon="5.05563">
        <ele>343.8085938</ele>
        <time>2016-02-19T12:56:40Z</time>
      </trkpt>
      <trkpt lat="44.21966" lon="5.05562">
        <ele>344.2894287</ele>
        <time>2016-02-19T12:56:42Z</time>
      </trkpt>
      <trkpt lat="44.21949" lon="5.05557">
        <ele>345.7313232</ele>
        <time>2016-02-19T12:56:56Z</time>
      </trkpt>
      <trkpt lat="44.21934" lon="5.05554">
        <ele>347.6539307</ele>
        <time>2016-02-19T12:57:08Z</time>
      </trkpt>
      <trkpt lat="44.21931" lon="5.05553">
        <ele>347.6539307</ele>
        <time>2016-02-19T12:57:10Z</time>
      </trkpt>
      <trkpt lat="44.21928" lon="5.05551">
        <ele>347.1732178</ele>
        <time>2016-02-19T12:57:12Z</time>
      </trkpt>
      <trkpt lat="44.21922" lon="5.05551">
        <ele>347.1732178</ele>
        <time>2016-02-19T12:57:17Z</time>
      </trkpt>
      <trkpt lat="44.21903" lon="5.05543">
        <ele>347.6539307</ele>
        <time>2016-02-19T12:57:32Z</time>
      </trkpt>
      <trkpt lat="44.21897" lon="5.05541">
        <ele>347.1732178</ele>
        <time>2016-02-19T12:57:36Z</time>
      </trkpt>
      <trkpt lat="44.21892" lon="5.05539">
        <ele>348.1346436</ele>
        <time>2016-02-19T12:57:40Z</time>
      </trkpt>
      <trkpt lat="44.21876" lon="5.05535">
        <ele>349.0958252</ele>
        <time>2016-02-19T12:57:52Z</time>
      </trkpt>
      <trkpt lat="44.21859" lon="5.05532">
        <ele>348.6152344</ele>
        <time>2016-02-19T12:58:06Z</time>
      </trkpt>
      <trkpt lat="44.2184" lon="5.05528">
        <ele>349.0958252</ele>
        <time>2016-02-19T12:58:22Z</time>
      </trkpt>
      <trkpt lat="44.21829" lon="5.05527">
        <ele>351.4991455</ele>
        <time>2016-02-19T12:58:34Z</time>
      </trkpt>
      <trkpt lat="44.2182" lon="5.05525">
        <ele>351.0184326</ele>
        <time>2016-02-19T12:58:40Z</time>
      </trkpt>
      <trkpt lat="44.2181" lon="5.05524">
        <ele>354.3831787</ele>
        <time>2016-02-19T12:58:47Z</time>
      </trkpt>
      <trkpt lat="44.21786" lon="5.0552">
        <ele>353.421875</ele>
        <time>2016-02-19T12:59:00Z</time>
      </trkpt>
      <trkpt lat="44.21783" lon="5.0552">
        <ele>356.786377</ele>
        <time>2016-02-19T12:59:11Z</time>
      </trkpt>
      <trkpt lat="44.21783" lon="5.0552">
        <ele>359.1896973</ele>
        <time>2016-02-19T12:59:24Z</time>
      </trkpt>
      <trkpt lat="44.21755" lon="5.0552">
        <ele>357.2670898</ele>
        <time>2016-02-19T12:59:31Z</time>
      </trkpt>
      <trkpt lat="44.21739" lon="5.0552">
        <ele>358.2283936</ele>
        <time>2016-02-19T12:59:44Z</time>
      </trkpt>
      <trkpt lat="44.21718" lon="5.05521">
        <ele>358.2283936</ele>
        <time>2016-02-19T12:59:58Z</time>
      </trkpt>
      <trkpt lat="44.21715" lon="5.05521">
        <ele>358.2283936</ele>
        <time>2016-02-19T12:59:59Z</time>
      </trkpt>
      <trkpt lat="44.21715" lon="5.05521">
        <ele>357.7478027</ele>
        <time>2016-02-19T13:00:18Z</time>
      </trkpt>
      <trkpt lat="44.21692" lon="5.05523">
        <ele>357.7478027</ele>
        <time>2016-02-19T13:00:19Z</time>
      </trkpt>
      <trkpt lat="44.21686" lon="5.05523">
        <ele>357.7478027</ele>
        <time>2016-02-19T13:00:22Z</time>
      </trkpt>
      <trkpt lat="44.21681" lon="5.05523">
        <ele>357.2670898</ele>
        <time>2016-02-19T13:00:35Z</time>
      </trkpt>
      <trkpt lat="44.21664" lon="5.0552">
        <ele>356.786377</ele>
        <time>2016-02-19T13:00:46Z</time>
      </trkpt>
      <trkpt lat="44.21664" lon="5.0552">
        <ele>354.8637695</ele>
        <time>2016-02-19T13:00:59Z</time>
      </trkpt>
      <trkpt lat="44.21664" lon="5.0552">
        <ele>354.3831787</ele>
        <time>2016-02-19T13:01:08Z</time>
      </trkpt>
      <trkpt lat="44.21664" lon="5.0552">
        <ele>355.3444824</ele>
        <time>2016-02-19T13:01:21Z</time>
      </trkpt>
      <trkpt lat="44.21664" lon="5.0552">
        <ele>358.2283936</ele>
        <time>2016-02-19T13:01:34Z</time>
      </trkpt>
      <trkpt lat="44.21664" lon="5.0552">
        <ele>358.7089844</ele>
        <time>2016-02-19T13:01:41Z</time>
      </trkpt>
      <trkpt lat="44.21664" lon="5.0552">
        <ele>359.6704102</ele>
        <time>2016-02-19T13:01:46Z</time>
      </trkpt>
      <trkpt lat="44.21614" lon="5.05551">
        <ele>357.7478027</ele>
        <time>2016-02-19T13:02:05Z</time>
      </trkpt>
      <trkpt lat="44.21615" lon="5.05574">
        <ele>356.786377</ele>
        <time>2016-02-19T13:02:26Z</time>
      </trkpt>
      <trkpt lat="44.21614" lon="5.05563">
        <ele>354.3831787</ele>
        <time>2016-02-19T13:03:00Z</time>
      </trkpt>
      <trkpt lat="44.21614" lon="5.05562">
        <ele>353.9025879</ele>
        <time>2016-02-19T13:03:01Z</time>
      </trkpt>
      <trkpt lat="44.21609" lon="5.05554">
        <ele>351.0184326</ele>
        <time>2016-02-19T13:03:12Z</time>
      </trkpt>
      <trkpt lat="44.21604" lon="5.05537">
        <ele>346.2120361</ele>
        <time>2016-02-19T13:03:27Z</time>
      </trkpt>
      <trkpt lat="44.21601" lon="5.05534">
        <ele>344.2894287</ele>
        <time>2016-02-19T13:03:37Z</time>
      </trkpt>
      <trkpt lat="44.21592" lon="5.0552">
        <ele>345.2506104</ele>
        <time>2016-02-19T13:03:50Z</time>
      </trkpt>
      <trkpt lat="44.21582" lon="5.05511">
        <ele>346.692627</ele>
        <time>2016-02-19T13:04:04Z</time>
      </trkpt>
      <trkpt lat="44.2157" lon="5.055">
        <ele>346.692627</ele>
        <time>2016-02-19T13:04:18Z</time>
      </trkpt>
      <trkpt lat="44.21561" lon="5.05489">
        <ele>349.5765381</ele>
        <time>2016-02-19T13:04:29Z</time>
      </trkpt>
      <trkpt lat="44.21559" lon="5.05486">
        <ele>350.057251</ele>
        <time>2016-02-19T13:04:31Z</time>
      </trkpt>
      <trkpt lat="44.21551" lon="5.05475">
        <ele>351.4991455</ele>
        <time>2016-02-19T13:04:39Z</time>
      </trkpt>
      <trkpt lat="44.21542" lon="5.05455">
        <ele>352.4605713</ele>
        <time>2016-02-19T13:04:54Z</time>
      </trkpt>
      <trkpt lat="44.21534" lon="5.05429">
        <ele>352.4605713</ele>
        <time>2016-02-19T13:05:10Z</time>
      </trkpt>
      <trkpt lat="44.21525" lon="5.05394">
        <ele>357.2670898</ele>
        <time>2016-02-19T13:05:31Z</time>
      </trkpt>
      <trkpt lat="44.21518" lon="5.05367">
        <ele>356.786377</ele>
        <time>2016-02-19T13:05:48Z</time>
      </trkpt>
      <trkpt lat="44.21511" lon="5.05345">
        <ele>359.1896973</ele>
        <time>2016-02-19T13:06:02Z</time>
      </trkpt>
      <trkpt lat="44.21503" lon="5.0532">
        <ele>362.5543213</ele>
        <time>2016-02-19T13:06:19Z</time>
      </trkpt>
      <trkpt lat="44.21498" lon="5.05299">
        <ele>364.4769287</ele>
        <time>2016-02-19T13:06:31Z</time>
      </trkpt>
      <trkpt lat="44.21494" lon="5.05285">
        <ele>364.4769287</ele>
        <time>2016-02-19T13:06:43Z</time>
      </trkpt>
      <trkpt lat="44.21488" lon="5.0527">
        <ele>365.4383545</ele>
        <time>2016-02-19T13:06:56Z</time>
      </trkpt>
      <trkpt lat="44.21486" lon="5.05268">
        <ele>365.4383545</ele>
        <time>2016-02-19T13:07:02Z</time>
      </trkpt>
      <trkpt lat="44.21475" lon="5.05249">
        <ele>363.9963379</ele>
        <time>2016-02-19T13:07:15Z</time>
      </trkpt>
      <trkpt lat="44.21465" lon="5.05231">
        <ele>364.4769287</ele>
        <time>2016-02-19T13:07:28Z</time>
      </trkpt>
      <trkpt lat="44.21457" lon="5.05215">
        <ele>368.8029785</ele>
        <time>2016-02-19T13:07:42Z</time>
      </trkpt>
      <trkpt lat="44.21455" lon="5.0521">
        <ele>368.8029785</ele>
        <time>2016-02-19T13:07:45Z</time>
      </trkpt>
      <trkpt lat="44.21444" lon="5.05191">
        <ele>371.6868896</ele>
        <time>2016-02-19T13:07:59Z</time>
      </trkpt>
      <trkpt lat="44.21432" lon="5.05171">
        <ele>372.6481934</ele>
        <time>2016-02-19T13:08:15Z</time>
      </trkpt>
      <trkpt lat="44.21421" lon="5.05149">
        <ele>373.6094971</ele>
        <time>2016-02-19T13:08:30Z</time>
      </trkpt>
      <trkpt lat="44.21411" lon="5.05136">
        <ele>373.1289063</ele>
        <time>2016-02-19T13:08:42Z</time>
      </trkpt>
      <trkpt lat="44.21399" lon="5.05117">
        <ele>372.6481934</ele>
        <time>2016-02-19T13:08:59Z</time>
      </trkpt>
      <trkpt lat="44.21383" lon="5.0509">
        <ele>368.8029785</ele>
        <time>2016-02-19T13:09:16Z</time>
      </trkpt>
      <trkpt lat="44.21378" lon="5.05078">
        <ele>371.6868896</ele>
        <time>2016-02-19T13:09:24Z</time>
      </trkpt>
      <trkpt lat="44.21366" lon="5.05051">
        <ele>376.9742432</ele>
        <time>2016-02-19T13:09:42Z</time>
      </trkpt>
      <trkpt lat="44.21357" lon="5.05033">
        <ele>376.4935303</ele>
        <time>2016-02-19T13:09:52Z</time>
      </trkpt>
      <trkpt lat="44.21341" lon="5.05012">
        <ele>373.1289063</ele>
        <time>2016-02-19T13:10:06Z</time>
      </trkpt>
      <trkpt lat="44.21332" lon="5.04996">
        <ele>373.6094971</ele>
        <time>2016-02-19T13:10:18Z</time>
      </trkpt>
      <trkpt lat="44.21312" lon="5.04979">
        <ele>372.6481934</ele>
        <time>2016-02-19T13:10:35Z</time>
      </trkpt>
      <trkpt lat="44.21309" lon="5.04978">
        <ele>371.6868896</ele>
        <time>2016-02-19T13:10:39Z</time>
      </trkpt>
      <trkpt lat="44.21305" lon="5.04977">
        <ele>372.1674805</ele>
        <time>2016-02-19T13:10:42Z</time>
      </trkpt>
      <trkpt lat="44.21286" lon="5.0496">
        <ele>375.5321045</ele>
        <time>2016-02-19T13:10:59Z</time>
      </trkpt>
      <trkpt lat="44.21271" lon="5.04948">
        <ele>378.4161377</ele>
        <time>2016-02-19T13:11:15Z</time>
      </trkpt>
      <trkpt lat="44.21255" lon="5.04934">
        <ele>376.0128174</ele>
        <time>2016-02-19T13:11:31Z</time>
      </trkpt>
      <trkpt lat="44.21239" lon="5.0492">
        <ele>375.5321045</ele>
        <time>2016-02-19T13:11:45Z</time>
      </trkpt>
      <trkpt lat="44.21231" lon="5.04915">
        <ele>376.4935303</ele>
        <time>2016-02-19T13:11:53Z</time>
      </trkpt>
      <trkpt lat="44.2123" lon="5.04915">
        <ele>379.3774414</ele>
        <time>2016-02-19T13:12:15Z</time>
      </trkpt>
      <trkpt lat="44.2123" lon="5.04916">
        <ele>379.3774414</ele>
        <time>2016-02-19T13:12:48Z</time>
      </trkpt>
      <trkpt lat="44.21218" lon="5.04905">
        <ele>378.8968506</ele>
        <time>2016-02-19T13:14:11Z</time>
      </trkpt>
      <trkpt lat="44.21213" lon="5.04901">
        <ele>380.819458</ele>
        <time>2016-02-19T13:14:16Z</time>
      </trkpt>
      <trkpt lat="44.21192" lon="5.04882">
        <ele>383.2226563</ele>
        <time>2016-02-19T13:14:36Z</time>
      </trkpt>
      <trkpt lat="44.21177" lon="5.04875">
        <ele>385.6259766</ele>
        <time>2016-02-19T13:14:52Z</time>
      </trkpt>
      <trkpt lat="44.21161" lon="5.04873">
        <ele>385.6259766</ele>
        <time>2016-02-19T13:15:07Z</time>
      </trkpt>
      <trkpt lat="44.21148" lon="5.04868">
        <ele>388.0292969</ele>
        <time>2016-02-19T13:15:19Z</time>
      </trkpt>
      <trkpt lat="44.21133" lon="5.04866">
        <ele>390.913208</ele>
        <time>2016-02-19T13:15:36Z</time>
      </trkpt>
      <trkpt lat="44.21128" lon="5.04865">
        <ele>391.3937988</ele>
        <time>2016-02-19T13:15:40Z</time>
      </trkpt>
      <trkpt lat="44.21124" lon="5.04863">
        <ele>391.3937988</ele>
        <time>2016-02-19T13:15:44Z</time>
      </trkpt>
      <trkpt lat="44.21109" lon="5.04846">
        <ele>394.2779541</ele>
        <time>2016-02-19T13:16:04Z</time>
      </trkpt>
      <trkpt lat="44.211" lon="5.04832">
        <ele>394.7585449</ele>
        <time>2016-02-19T13:16:17Z</time>
      </trkpt>
      <trkpt lat="44.21092" lon="5.04818">
        <ele>396.6811523</ele>
        <time>2016-02-19T13:16:29Z</time>
      </trkpt>
      <trkpt lat="44.2108" lon="5.04806">
        <ele>398.1231689</ele>
        <time>2016-02-19T13:16:44Z</time>
      </trkpt>
      <trkpt lat="44.21061" lon="5.04786">
        <ele>399.0843506</ele>
        <time>2016-02-19T13:17:04Z</time>
      </trkpt>
      <trkpt lat="44.21048" lon="5.0477">
        <ele>400.0458984</ele>
        <time>2016-02-19T13:17:17Z</time>
      </trkpt>
      <trkpt lat="44.21032" lon="5.04749">
        <ele>399.0843506</ele>
        <time>2016-02-19T13:17:34Z</time>
      </trkpt>
      <trkpt lat="44.21028" lon="5.04742">
        <ele>399.0843506</ele>
        <time>2016-02-19T13:17:39Z</time>
      </trkpt>
      <trkpt lat="44.21023" lon="5.04737">
        <ele>397.6424561</ele>
        <time>2016-02-19T13:17:44Z</time>
      </trkpt>
      <trkpt lat="44.21014" lon="5.04728">
        <ele>396.6811523</ele>
        <time>2016-02-19T13:17:53Z</time>
      </trkpt>
      <trkpt lat="44.21009" lon="5.04721">
        <ele>395.7198486</ele>
        <time>2016-02-19T13:17:59Z</time>
      </trkpt>
      <trkpt lat="44.21003" lon="5.04714">
        <ele>393.7972412</ele>
        <time>2016-02-19T13:18:07Z</time>
      </trkpt>
      <trkpt lat="44.2099" lon="5.04693">
        <ele>391.3937988</ele>
        <time>2016-02-19T13:18:22Z</time>
      </trkpt>
      <trkpt lat="44.20977" lon="5.04678">
        <ele>391.8745117</ele>
        <time>2016-02-19T13:18:36Z</time>
      </trkpt>
      <trkpt lat="44.20961" lon="5.04673">
        <ele>391.3937988</ele>
        <time>2016-02-19T13:18:52Z</time>
      </trkpt>
      <trkpt lat="44.2096" lon="5.04674">
        <ele>390.913208</ele>
        <time>2016-02-19T13:19:06Z</time>
      </trkpt>
      <trkpt lat="44.20952" lon="5.04675">
        <ele>391.3937988</ele>
        <time>2016-02-19T13:19:36Z</time>
      </trkpt>
      <trkpt lat="44.20948" lon="5.04672">
        <ele>391.3937988</ele>
        <time>2016-02-19T13:19:38Z</time>
      </trkpt>
      <trkpt lat="44.20944" lon="5.0467">
        <ele>390.913208</ele>
        <time>2016-02-19T13:19:42Z</time>
      </trkpt>
      <trkpt lat="44.20939" lon="5.04676">
        <ele>388.5100098</ele>
        <time>2016-02-19T13:20:04Z</time>
      </trkpt>
      <trkpt lat="44.20933" lon="5.04669">
        <ele>385.6259766</ele>
        <time>2016-02-19T13:20:12Z</time>
      </trkpt>
      <trkpt lat="44.20916" lon="5.04659">
        <ele>384.6647949</ele>
        <time>2016-02-19T13:20:27Z</time>
      </trkpt>
      <trkpt lat="44.20907" lon="5.04643">
        <ele>384.184082</ele>
        <time>2016-02-19T13:20:37Z</time>
      </trkpt>
      <trkpt lat="44.20897" lon="5.04623">
        <ele>383.7032471</ele>
        <time>2016-02-19T13:20:50Z</time>
      </trkpt>
      <trkpt lat="44.20889" lon="5.04611">
        <ele>382.7420654</ele>
        <time>2016-02-19T13:21:02Z</time>
      </trkpt>
      <trkpt lat="44.20882" lon="5.04604">
        <ele>382.2613525</ele>
        <time>2016-02-19T13:21:08Z</time>
      </trkpt>
      <trkpt lat="44.20868" lon="5.04589">
        <ele>379.3774414</ele>
        <time>2016-02-19T13:21:21Z</time>
      </trkpt>
      <trkpt lat="44.20863" lon="5.04582">
        <ele>379.8580322</ele>
        <time>2016-02-19T13:21:26Z</time>
      </trkpt>
      <trkpt lat="44.20849" lon="5.04569">
        <ele>377.454834</ele>
        <time>2016-02-19T13:21:39Z</time>
      </trkpt>
      <trkpt lat="44.20848" lon="5.04567">
        <ele>378.4161377</ele>
        <time>2016-02-19T13:21:41Z</time>
      </trkpt>
      <trkpt lat="44.20834" lon="5.04547">
        <ele>379.8580322</ele>
        <time>2016-02-19T13:21:54Z</time>
      </trkpt>
      <trkpt lat="44.20828" lon="5.04537">
        <ele>384.6647949</ele>
        <time>2016-02-19T13:22:02Z</time>
      </trkpt>
      <trkpt lat="44.20819" lon="5.04529">
        <ele>385.6259766</ele>
        <time>2016-02-19T13:22:14Z</time>
      </trkpt>
      <trkpt lat="44.20815" lon="5.04528">
        <ele>383.7032471</ele>
        <time>2016-02-19T13:22:17Z</time>
      </trkpt>
      <trkpt lat="44.20811" lon="5.04525">
        <ele>384.184082</ele>
        <time>2016-02-19T13:22:21Z</time>
      </trkpt>
      <trkpt lat="44.2079" lon="5.04514">
        <ele>382.7420654</ele>
        <time>2016-02-19T13:22:37Z</time>
      </trkpt>
      <trkpt lat="44.20775" lon="5.04506">
        <ele>379.8580322</ele>
        <time>2016-02-19T13:22:48Z</time>
      </trkpt>
      <trkpt lat="44.20756" lon="5.04496">
        <ele>378.4161377</ele>
        <time>2016-02-19T13:23:03Z</time>
      </trkpt>
      <trkpt lat="44.20755" lon="5.04496">
        <ele>378.4161377</ele>
        <time>2016-02-19T13:23:04Z</time>
      </trkpt>
      <trkpt lat="44.2074" lon="5.04483">
        <ele>374.0900879</ele>
        <time>2016-02-19T13:23:21Z</time>
      </trkpt>
      <trkpt lat="44.2074" lon="5.04483">
        <ele>374.5708008</ele>
        <time>2016-02-19T13:23:41Z</time>
      </trkpt>
      <trkpt lat="44.2074" lon="5.04482">
        <ele>375.5321045</ele>
        <time>2016-02-19T13:24:10Z</time>
      </trkpt>
      <trkpt lat="44.20744" lon="5.04482">
        <ele>378.8968506</ele>
        <time>2016-02-19T13:24:24Z</time>
      </trkpt>
      <trkpt lat="44.2074" lon="5.0446">
        <ele>378.4161377</ele>
        <time>2016-02-19T13:24:39Z</time>
      </trkpt>
      <trkpt lat="44.2074" lon="5.04454">
        <ele>379.3774414</ele>
        <time>2016-02-19T13:24:43Z</time>
      </trkpt>
      <trkpt lat="44.20737" lon="5.04437">
        <ele>377.454834</ele>
        <time>2016-02-19T13:24:55Z</time>
      </trkpt>
      <trkpt lat="44.20737" lon="5.04428">
        <ele>374.0900879</ele>
        <time>2016-02-19T13:25:05Z</time>
      </trkpt>
      <trkpt lat="44.20739" lon="5.04419">
        <ele>373.6094971</ele>
        <time>2016-02-19T13:25:12Z</time>
      </trkpt>
      <trkpt lat="44.20752" lon="5.04407">
        <ele>372.1674805</ele>
        <time>2016-02-19T13:25:25Z</time>
      </trkpt>
      <trkpt lat="44.20758" lon="5.04398">
        <ele>368.8029785</ele>
        <time>2016-02-19T13:25:36Z</time>
      </trkpt>
      <trkpt lat="44.20768" lon="5.04386">
        <ele>366.3995361</ele>
        <time>2016-02-19T13:25:48Z</time>
      </trkpt>
      <trkpt lat="44.20771" lon="5.04382">
        <ele>365.9189453</ele>
        <time>2016-02-19T13:25:51Z</time>
      </trkpt>
      <trkpt lat="44.20782" lon="5.04373">
        <ele>362.0737305</ele>
        <time>2016-02-19T13:26:03Z</time>
      </trkpt>
      <trkpt lat="44.20796" lon="5.04373">
        <ele>363.9963379</ele>
        <time>2016-02-19T13:26:14Z</time>
      </trkpt>
      <trkpt lat="44.20807" lon="5.04376">
        <ele>360.151123</ele>
        <time>2016-02-19T13:26:26Z</time>
      </trkpt>
      <trkpt lat="44.20822" lon="5.04367">
        <ele>356.786377</ele>
        <time>2016-02-19T13:26:46Z</time>
      </trkpt>
      <trkpt lat="44.20836" lon="5.04365">
        <ele>355.3444824</ele>
        <time>2016-02-19T13:27:09Z</time>
      </trkpt>
      <trkpt lat="44.20853" lon="5.04362">
        <ele>353.421875</ele>
        <time>2016-02-19T13:27:22Z</time>
      </trkpt>
      <trkpt lat="44.20859" lon="5.04362">
        <ele>349.0958252</ele>
        <time>2016-02-19T13:27:42Z</time>
      </trkpt>
      <trkpt lat="44.20865" lon="5.04359">
        <ele>346.2120361</ele>
        <time>2016-02-19T13:27:56Z</time>
      </trkpt>
      <trkpt lat="44.20876" lon="5.04357">
        <ele>341.8859863</ele>
        <time>2016-02-19T13:28:16Z</time>
      </trkpt>
      <trkpt lat="44.20892" lon="5.04352">
        <ele>340.4440918</ele>
        <time>2016-02-19T13:28:31Z</time>
      </trkpt>
      <trkpt lat="44.20911" lon="5.04345">
        <ele>337.0794678</ele>
        <time>2016-02-19T13:28:47Z</time>
      </trkpt>
      <trkpt lat="44.20926" lon="5.04341">
        <ele>337.0794678</ele>
        <time>2016-02-19T13:28:56Z</time>
      </trkpt>
      <trkpt lat="44.20937" lon="5.04328">
        <ele>335.6373291</ele>
        <time>2016-02-19T13:29:11Z</time>
      </trkpt>
      <trkpt lat="44.20942" lon="5.04309">
        <ele>331.3115234</ele>
        <time>2016-02-19T13:29:26Z</time>
      </trkpt>
      <trkpt lat="44.20942" lon="5.04304">
        <ele>330.3502197</ele>
        <time>2016-02-19T13:29:30Z</time>
      </trkpt>
      <trkpt lat="44.20941" lon="5.04292">
        <ele>326.9855957</ele>
        <time>2016-02-19T13:29:39Z</time>
      </trkpt>
      <trkpt lat="44.20942" lon="5.04285">
        <ele>326.0241699</ele>
        <time>2016-02-19T13:29:43Z</time>
      </trkpt>
      <trkpt lat="44.20943" lon="5.0428">
        <ele>324.1015625</ele>
        <time>2016-02-19T13:29:47Z</time>
      </trkpt>
      <trkpt lat="44.20944" lon="5.04274">
        <ele>322.659668</ele>
        <time>2016-02-19T13:29:51Z</time>
      </trkpt>
      <trkpt lat="44.20951" lon="5.0426">
        <ele>323.1403809</ele>
        <time>2016-02-19T13:30:01Z</time>
      </trkpt>
      <trkpt lat="44.20965" lon="5.04247">
        <ele>321.6983643</ele>
        <time>2016-02-19T13:30:18Z</time>
      </trkpt>
      <trkpt lat="44.20975" lon="5.04242">
        <ele>314.0078125</ele>
        <time>2016-02-19T13:30:32Z</time>
      </trkpt>
      <trkpt lat="44.20984" lon="5.04251">
        <ele>315.4498291</ele>
        <time>2016-02-19T13:30:50Z</time>
      </trkpt>
      <trkpt lat="44.21003" lon="5.04244">
        <ele>314.9691162</ele>
        <time>2016-02-19T13:31:13Z</time>
      </trkpt>
      <trkpt lat="44.21025" lon="5.04252">
        <ele>312.0852051</ele>
        <time>2016-02-19T13:31:30Z</time>
      </trkpt>
      <trkpt lat="44.21041" lon="5.04258">
        <ele>310.6430664</ele>
        <time>2016-02-19T13:31:44Z</time>
      </trkpt>
      <trkpt lat="44.21056" lon="5.04254">
        <ele>310.1624756</ele>
        <time>2016-02-19T13:31:54Z</time>
      </trkpt>
      <trkpt lat="44.21062" lon="5.04251">
        <ele>311.1237793</ele>
        <time>2016-02-19T13:31:58Z</time>
      </trkpt>
      <trkpt lat="44.21075" lon="5.0424">
        <ele>309.6818848</ele>
        <time>2016-02-19T13:32:09Z</time>
      </trkpt>
      <trkpt lat="44.21091" lon="5.04222">
        <ele>314.9691162</ele>
        <time>2016-02-19T13:32:25Z</time>
      </trkpt>
      <trkpt lat="44.21094" lon="5.04218">
        <ele>315.9304199</ele>
        <time>2016-02-19T13:32:29Z</time>
      </trkpt>
      <trkpt lat="44.21099" lon="5.04199">
        <ele>317.8530273</ele>
        <time>2016-02-19T13:32:46Z</time>
      </trkpt>
      <trkpt lat="44.21104" lon="5.04194">
        <ele>318.3336182</ele>
        <time>2016-02-19T13:32:50Z</time>
      </trkpt>
      <trkpt lat="44.21126" lon="5.04183">
        <ele>320.2563477</ele>
        <time>2016-02-19T13:33:04Z</time>
      </trkpt>
      <trkpt lat="44.21136" lon="5.04179">
        <ele>319.2950439</ele>
        <time>2016-02-19T13:33:15Z</time>
      </trkpt>
      <trkpt lat="44.21144" lon="5.04176">
        <ele>317.3724365</ele>
        <time>2016-02-19T13:33:27Z</time>
      </trkpt>
      <trkpt lat="44.21155" lon="5.04167">
        <ele>318.3336182</ele>
        <time>2016-02-19T13:33:38Z</time>
      </trkpt>
      <trkpt lat="44.21157" lon="5.04165">
        <ele>318.8143311</ele>
        <time>2016-02-19T13:33:40Z</time>
      </trkpt>
      <trkpt lat="44.21162" lon="5.04159">
        <ele>319.2950439</ele>
        <time>2016-02-19T13:33:45Z</time>
      </trkpt>
      <trkpt lat="44.21181" lon="5.04122">
        <ele>316.8917236</ele>
        <time>2016-02-19T13:34:09Z</time>
      </trkpt>
      <trkpt lat="44.21182" lon="5.04119">
        <ele>316.8917236</ele>
        <time>2016-02-19T13:34:11Z</time>
      </trkpt>
      <trkpt lat="44.21185" lon="5.04111">
        <ele>316.4110107</ele>
        <time>2016-02-19T13:34:16Z</time>
      </trkpt>
      <trkpt lat="44.21187" lon="5.04106">
        <ele>315.4498291</ele>
        <time>2016-02-19T13:34:19Z</time>
      </trkpt>
      <trkpt lat="44.21192" lon="5.04094">
        <ele>314.9691162</ele>
        <time>2016-02-19T13:34:26Z</time>
      </trkpt>
      <trkpt lat="44.21195" lon="5.04086">
        <ele>314.4884033</ele>
        <time>2016-02-19T13:34:31Z</time>
      </trkpt>
      <trkpt lat="44.21198" lon="5.04078">
        <ele>313.5272217</ele>
        <time>2016-02-19T13:34:36Z</time>
      </trkpt>
      <trkpt lat="44.21199" lon="5.04074">
        <ele>313.5272217</ele>
        <time>2016-02-19T13:34:38Z</time>
      </trkpt>
      <trkpt lat="44.21201" lon="5.04069">
        <ele>313.0465088</ele>
        <time>2016-02-19T13:34:41Z</time>
      </trkpt>
      <trkpt lat="44.21202" lon="5.04064">
        <ele>313.0465088</ele>
        <time>2016-02-19T13:34:44Z</time>
      </trkpt>
      <trkpt lat="44.21204" lon="5.04061">
        <ele>313.0465088</ele>
        <time>2016-02-19T13:34:46Z</time>
      </trkpt>
      <trkpt lat="44.21209" lon="5.04048">
        <ele>314.4884033</ele>
        <time>2016-02-19T13:34:54Z</time>
      </trkpt>
      <trkpt lat="44.21214" lon="5.04036">
        <ele>314.9691162</ele>
        <time>2016-02-19T13:35:02Z</time>
      </trkpt>
      <trkpt lat="44.21227" lon="5.04017">
        <ele>315.9304199</ele>
        <time>2016-02-19T13:35:16Z</time>
      </trkpt>
      <trkpt lat="44.21235" lon="5.04003">
        <ele>315.9304199</ele>
        <time>2016-02-19T13:35:30Z</time>
      </trkpt>
      <trkpt lat="44.21247" lon="5.03998">
        <ele>316.4110107</ele>
        <time>2016-02-19T13:35:36Z</time>
      </trkpt>
      <trkpt lat="44.21255" lon="5.03996">
        <ele>315.9304199</ele>
        <time>2016-02-19T13:35:51Z</time>
      </trkpt>
      <trkpt lat="44.21259" lon="5.03999">
        <ele>314.0078125</ele>
        <time>2016-02-19T13:36:10Z</time>
      </trkpt>
      <trkpt lat="44.21262" lon="5.04">
        <ele>313.5272217</ele>
        <time>2016-02-19T13:36:12Z</time>
      </trkpt>
      <trkpt lat="44.21266" lon="5.04001">
        <ele>312.5657959</ele>
        <time>2016-02-19T13:36:16Z</time>
      </trkpt>
      <trkpt lat="44.21283" lon="5.04007">
        <ele>310.1624756</ele>
        <time>2016-02-19T13:36:31Z</time>
      </trkpt>
      <trkpt lat="44.21288" lon="5.04011">
        <ele>308.720459</ele>
        <time>2016-02-19T13:36:39Z</time>
      </trkpt>
      <trkpt lat="44.21294" lon="5.04009">
        <ele>307.7592773</ele>
        <time>2016-02-19T13:36:42Z</time>
      </trkpt>
      <trkpt lat="44.21317" lon="5.0401">
        <ele>307.2785645</ele>
        <time>2016-02-19T13:36:59Z</time>
      </trkpt>
      <trkpt lat="44.21341" lon="5.04014">
        <ele>306.7978516</ele>
        <time>2016-02-19T13:37:13Z</time>
      </trkpt>
      <trkpt lat="44.21359" lon="5.04018">
        <ele>310.1624756</ele>
        <time>2016-02-19T13:37:26Z</time>
      </trkpt>
      <trkpt lat="44.21375" lon="5.04023">
        <ele>307.7592773</ele>
        <time>2016-02-19T13:37:39Z</time>
      </trkpt>
      <trkpt lat="44.21387" lon="5.04029">
        <ele>304.8752441</ele>
        <time>2016-02-19T13:37:51Z</time>
      </trkpt>
      <trkpt lat="44.21412" lon="5.04037">
        <ele>301.5106201</ele>
        <time>2016-02-19T13:38:07Z</time>
      </trkpt>
      <trkpt lat="44.21419" lon="5.04046">
        <ele>301.5106201</ele>
        <time>2016-02-19T13:38:15Z</time>
      </trkpt>
      <trkpt lat="44.21433" lon="5.04061">
        <ele>301.0299072</ele>
        <time>2016-02-19T13:38:29Z</time>
      </trkpt>
      <trkpt lat="44.21444" lon="5.04069">
        <ele>301.0299072</ele>
        <time>2016-02-19T13:38:38Z</time>
      </trkpt>
      <trkpt lat="44.21457" lon="5.04073">
        <ele>300.5493164</ele>
        <time>2016-02-19T13:38:47Z</time>
      </trkpt>
      <trkpt lat="44.2148" lon="5.04065">
        <ele>300.0687256</ele>
        <time>2016-02-19T13:39:09Z</time>
      </trkpt>
      <trkpt lat="44.21501" lon="5.04057">
        <ele>302.4719238</ele>
        <time>2016-02-19T13:39:25Z</time>
      </trkpt>
      <trkpt lat="44.21512" lon="5.04049">
        <ele>302.4719238</ele>
        <time>2016-02-19T13:39:38Z</time>
      </trkpt>
      <trkpt lat="44.21524" lon="5.04043">
        <ele>301.991333</ele>
        <time>2016-02-19T13:39:44Z</time>
      </trkpt>
      <trkpt lat="44.21526" lon="5.04042">
        <ele>301.991333</ele>
        <time>2016-02-19T13:39:46Z</time>
      </trkpt>
      <trkpt lat="44.21532" lon="5.04036">
        <ele>302.9525146</ele>
        <time>2016-02-19T13:39:54Z</time>
      </trkpt>
      <trkpt lat="44.21536" lon="5.04035">
        <ele>303.9139404</ele>
        <time>2016-02-19T13:39:56Z</time>
      </trkpt>
      <trkpt lat="44.21538" lon="5.04033">
        <ele>303.9139404</ele>
        <time>2016-02-19T13:39:58Z</time>
      </trkpt>
      <trkpt lat="44.2155" lon="5.04021">
        <ele>308.2398682</ele>
        <time>2016-02-19T13:40:08Z</time>
      </trkpt>
      <trkpt lat="44.21551" lon="5.04017">
        <ele>309.2011719</ele>
        <time>2016-02-19T13:40:10Z</time>
      </trkpt>
      <trkpt lat="44.21557" lon="5.04015">
        <ele>309.2011719</ele>
        <time>2016-02-19T13:40:14Z</time>
      </trkpt>
      <trkpt lat="44.21563" lon="5.04004">
        <ele>308.2398682</ele>
        <time>2016-02-19T13:40:22Z</time>
      </trkpt>
      <trkpt lat="44.21565" lon="5.04001">
        <ele>308.720459</ele>
        <time>2016-02-19T13:40:24Z</time>
      </trkpt>
      <trkpt lat="44.21569" lon="5.03992">
        <ele>307.7592773</ele>
        <time>2016-02-19T13:40:31Z</time>
      </trkpt>
      <trkpt lat="44.21571" lon="5.03988">
        <ele>307.7592773</ele>
        <time>2016-02-19T13:40:35Z</time>
      </trkpt>
      <trkpt lat="44.21574" lon="5.03983">
        <ele>307.7592773</ele>
        <time>2016-02-19T13:40:38Z</time>
      </trkpt>
      <trkpt lat="44.21583" lon="5.03981">
        <ele>305.355957</ele>
        <time>2016-02-19T13:40:47Z</time>
      </trkpt>
      <trkpt lat="44.21594" lon="5.03989">
        <ele>303.9139404</ele>
        <time>2016-02-19T13:40:58Z</time>
      </trkpt>
      <trkpt lat="44.21599" lon="5.04006">
        <ele>304.8752441</ele>
        <time>2016-02-19T13:41:11Z</time>
      </trkpt>
      <trkpt lat="44.21595" lon="5.04017">
        <ele>304.3946533</ele>
        <time>2016-02-19T13:41:19Z</time>
      </trkpt>
      <trkpt lat="44.21596" lon="5.04025">
        <ele>303.4332275</ele>
        <time>2016-02-19T13:41:23Z</time>
      </trkpt>
      <trkpt lat="44.21606" lon="5.04035">
        <ele>301.991333</ele>
        <time>2016-02-19T13:41:36Z</time>
      </trkpt>
      <trkpt lat="44.21623" lon="5.04028">
        <ele>303.9139404</ele>
        <time>2016-02-19T13:41:49Z</time>
      </trkpt>
      <trkpt lat="44.21633" lon="5.04021">
        <ele>304.3946533</ele>
        <time>2016-02-19T13:42:00Z</time>
      </trkpt>
      <trkpt lat="44.21637" lon="5.04017">
        <ele>304.3946533</ele>
        <time>2016-02-19T13:42:05Z</time>
      </trkpt>
      <trkpt lat="44.21655" lon="5.04011">
        <ele>307.2785645</ele>
        <time>2016-02-19T13:42:23Z</time>
      </trkpt>
      <trkpt lat="44.21659" lon="5.04017">
        <ele>307.7592773</ele>
        <time>2016-02-19T13:42:50Z</time>
      </trkpt>
      <trkpt lat="44.21667" lon="5.0401">
        <ele>306.7978516</ele>
        <time>2016-02-19T13:43:06Z</time>
      </trkpt>
      <trkpt lat="44.21668" lon="5.04008">
        <ele>307.2785645</ele>
        <time>2016-02-19T13:43:09Z</time>
      </trkpt>
      <trkpt lat="44.21675" lon="5.04002">
        <ele>308.720459</ele>
        <time>2016-02-19T13:43:23Z</time>
      </trkpt>
      <trkpt lat="44.21684" lon="5.03989">
        <ele>310.6430664</ele>
        <time>2016-02-19T13:43:37Z</time>
      </trkpt>
      <trkpt lat="44.21685" lon="5.03974">
        <ele>315.4498291</ele>
        <time>2016-02-19T13:43:51Z</time>
      </trkpt>
      <trkpt lat="44.21695" lon="5.0396">
        <ele>316.8917236</ele>
        <time>2016-02-19T13:44:08Z</time>
      </trkpt>
      <trkpt lat="44.21699" lon="5.0395">
        <ele>317.3724365</ele>
        <time>2016-02-19T13:44:26Z</time>
      </trkpt>
      <trkpt lat="44.21699" lon="5.03942">
        <ele>317.3724365</ele>
        <time>2016-02-19T13:44:32Z</time>
      </trkpt>
      <trkpt lat="44.21707" lon="5.03924">
        <ele>317.8530273</ele>
        <time>2016-02-19T13:44:48Z</time>
      </trkpt>
      <trkpt lat="44.21717" lon="5.03907">
        <ele>317.3724365</ele>
        <time>2016-02-19T13:45:04Z</time>
      </trkpt>
      <trkpt lat="44.21723" lon="5.03899">
        <ele>319.7756348</ele>
        <time>2016-02-19T13:45:12Z</time>
      </trkpt>
      <trkpt lat="44.21726" lon="5.03897">
        <ele>321.2177734</ele>
        <time>2016-02-19T13:45:15Z</time>
      </trkpt>
      <trkpt lat="44.21735" lon="5.03883">
        <ele>323.1403809</ele>
        <time>2016-02-19T13:45:33Z</time>
      </trkpt>
      <trkpt lat="44.21735" lon="5.03882">
        <ele>321.6983643</ele>
        <time>2016-02-19T13:45:49Z</time>
      </trkpt>
      <trkpt lat="44.21735" lon="5.03883">
        <ele>321.2177734</ele>
        <time>2016-02-19T13:45:58Z</time>
      </trkpt>
      <trkpt lat="44.21732" lon="5.03884">
        <ele>321.2177734</ele>
        <time>2016-02-19T13:46:11Z</time>
      </trkpt>
      <trkpt lat="44.21723" lon="5.03859">
        <ele>323.1403809</ele>
        <time>2016-02-19T13:46:28Z</time>
      </trkpt>
      <trkpt lat="44.21722" lon="5.03833">
        <ele>321.2177734</ele>
        <time>2016-02-19T13:46:43Z</time>
      </trkpt>
      <trkpt lat="44.21722" lon="5.03829">
        <ele>321.6983643</ele>
        <time>2016-02-19T13:46:45Z</time>
      </trkpt>
      <trkpt lat="44.21724" lon="5.03825">
        <ele>324.5822754</ele>
        <time>2016-02-19T13:46:48Z</time>
      </trkpt>
      <trkpt lat="44.21723" lon="5.03799">
        <ele>325.5435791</ele>
        <time>2016-02-19T13:47:03Z</time>
      </trkpt>
      <trkpt lat="44.21721" lon="5.03782">
        <ele>328.9083252</ele>
        <time>2016-02-19T13:47:15Z</time>
      </trkpt>
      <trkpt lat="44.21715" lon="5.03762">
        <ele>334.6761475</ele>
        <time>2016-02-19T13:47:29Z</time>
      </trkpt>
      <trkpt lat="44.21714" lon="5.0376">
        <ele>334.6761475</ele>
        <time>2016-02-19T13:47:31Z</time>
      </trkpt>
      <trkpt lat="44.21703" lon="5.03743">
        <ele>332.2728271</ele>
        <time>2016-02-19T13:47:43Z</time>
      </trkpt>
      <trkpt lat="44.21699" lon="5.03739">
        <ele>331.3115234</ele>
        <time>2016-02-19T13:47:47Z</time>
      </trkpt>
      <trkpt lat="44.21695" lon="5.03736">
        <ele>331.3115234</ele>
        <time>2016-02-19T13:47:50Z</time>
      </trkpt>
      <trkpt lat="44.21678" lon="5.03723">
        <ele>331.3115234</ele>
        <time>2016-02-19T13:48:05Z</time>
      </trkpt>
      <trkpt lat="44.21662" lon="5.03714">
        <ele>328.9083252</ele>
        <time>2016-02-19T13:48:20Z</time>
      </trkpt>
      <trkpt lat="44.2165" lon="5.03709">
        <ele>328.9083252</ele>
        <time>2016-02-19T13:48:29Z</time>
      </trkpt>
      <trkpt lat="44.21643" lon="5.03704">
        <ele>327.4661865</ele>
        <time>2016-02-19T13:48:35Z</time>
      </trkpt>
      <trkpt lat="44.21636" lon="5.03697">
        <ele>326.9855957</ele>
        <time>2016-02-19T13:48:41Z</time>
      </trkpt>
      <trkpt lat="44.21622" lon="5.03683">
        <ele>329.388916</ele>
        <time>2016-02-19T13:48:54Z</time>
      </trkpt>
      <trkpt lat="44.21618" lon="5.03681">
        <ele>327.9467773</ele>
        <time>2016-02-19T13:48:58Z</time>
      </trkpt>
      <trkpt lat="44.21616" lon="5.0368">
        <ele>327.4661865</ele>
        <time>2016-02-19T13:49:00Z</time>
      </trkpt>
      <trkpt lat="44.216" lon="5.03668">
        <ele>326.5048828</ele>
        <time>2016-02-19T13:49:15Z</time>
      </trkpt>
      <trkpt lat="44.21593" lon="5.03661">
        <ele>329.8695068</ele>
        <time>2016-02-19T13:49:35Z</time>
      </trkpt>
      <trkpt lat="44.21594" lon="5.0366">
        <ele>330.3502197</ele>
        <time>2016-02-19T13:49:53Z</time>
      </trkpt>
      <trkpt lat="44.21582" lon="5.03648">
        <ele>332.2728271</ele>
        <time>2016-02-19T13:50:23Z</time>
      </trkpt>
      <trkpt lat="44.21577" lon="5.03645">
        <ele>332.2728271</ele>
        <time>2016-02-19T13:50:31Z</time>
      </trkpt>
      <trkpt lat="44.21556" lon="5.03632">
        <ele>334.1954346</ele>
        <time>2016-02-19T13:50:49Z</time>
      </trkpt>
      <trkpt lat="44.21555" lon="5.03632">
        <ele>334.1954346</ele>
        <time>2016-02-19T13:50:50Z</time>
      </trkpt>
      <trkpt lat="44.21551" lon="5.03632">
        <ele>333.7147217</ele>
        <time>2016-02-19T13:50:54Z</time>
      </trkpt>
      <trkpt lat="44.21529" lon="5.03615">
        <ele>333.2341309</ele>
        <time>2016-02-19T13:51:14Z</time>
      </trkpt>
      <trkpt lat="44.21514" lon="5.03594">
        <ele>337.0794678</ele>
        <time>2016-02-19T13:51:30Z</time>
      </trkpt>
      <trkpt lat="44.21509" lon="5.03589">
        <ele>340.4440918</ele>
        <time>2016-02-19T13:51:38Z</time>
      </trkpt>
      <trkpt lat="44.215" lon="5.0357">
        <ele>340.9246826</ele>
        <time>2016-02-19T13:51:52Z</time>
      </trkpt>
      <trkpt lat="44.21491" lon="5.03537">
        <ele>342.84729</ele>
        <time>2016-02-19T13:52:11Z</time>
      </trkpt>
      <trkpt lat="44.21492" lon="5.03512">
        <ele>344.7700195</ele>
        <time>2016-02-19T13:52:30Z</time>
      </trkpt>
      <trkpt lat="44.21491" lon="5.03489">
        <ele>346.692627</ele>
        <time>2016-02-19T13:52:42Z</time>
      </trkpt>
      <trkpt lat="44.21484" lon="5.03475">
        <ele>348.1346436</ele>
        <time>2016-02-19T13:53:01Z</time>
      </trkpt>
      <trkpt lat="44.21479" lon="5.03462">
        <ele>347.6539307</ele>
        <time>2016-02-19T13:53:13Z</time>
      </trkpt>
      <trkpt lat="44.21466" lon="5.03436">
        <ele>347.6539307</ele>
        <time>2016-02-19T13:53:31Z</time>
      </trkpt>
      <trkpt lat="44.21471" lon="5.03413">
        <ele>346.2120361</ele>
        <time>2016-02-19T13:53:45Z</time>
      </trkpt>
      <trkpt lat="44.21476" lon="5.03396">
        <ele>345.2506104</ele>
        <time>2016-02-19T13:53:55Z</time>
      </trkpt>
      <trkpt lat="44.21493" lon="5.03383">
        <ele>341.4052734</ele>
        <time>2016-02-19T13:54:11Z</time>
      </trkpt>
      <trkpt lat="44.21501" lon="5.03373">
        <ele>343.3278809</ele>
        <time>2016-02-19T13:54:28Z</time>
      </trkpt>
      <trkpt lat="44.21504" lon="5.03372">
        <ele>340.4440918</ele>
        <time>2016-02-19T13:54:44Z</time>
      </trkpt>
      <trkpt lat="44.21512" lon="5.03377">
        <ele>339.0020752</ele>
        <time>2016-02-19T13:54:59Z</time>
      </trkpt>
      <trkpt lat="44.21525" lon="5.03378">
        <ele>336.598877</ele>
        <time>2016-02-19T13:55:19Z</time>
      </trkpt>
      <trkpt lat="44.21539" lon="5.03376">
        <ele>332.75354</ele>
        <time>2016-02-19T13:55:32Z</time>
      </trkpt>
      <trkpt lat="44.21557" lon="5.03364">
        <ele>333.2341309</ele>
        <time>2016-02-19T13:55:50Z</time>
      </trkpt>
      <trkpt lat="44.21565" lon="5.03359">
        <ele>332.75354</ele>
        <time>2016-02-19T13:55:58Z</time>
      </trkpt>
      <trkpt lat="44.21571" lon="5.03349">
        <ele>332.2728271</ele>
        <time>2016-02-19T13:56:06Z</time>
      </trkpt>
      <trkpt lat="44.21561" lon="5.03329">
        <ele>330.3502197</ele>
        <time>2016-02-19T13:56:22Z</time>
      </trkpt>
      <trkpt lat="44.21546" lon="5.03314">
        <ele>327.4661865</ele>
        <time>2016-02-19T13:56:37Z</time>
      </trkpt>
      <trkpt lat="44.21528" lon="5.03289">
        <ele>325.0629883</ele>
        <time>2016-02-19T13:56:55Z</time>
      </trkpt>
      <trkpt lat="44.21516" lon="5.03277">
        <ele>323.1403809</ele>
        <time>2016-02-19T13:57:08Z</time>
      </trkpt>
      <trkpt lat="44.21507" lon="5.03268">
        <ele>320.2563477</ele>
        <time>2016-02-19T13:57:17Z</time>
      </trkpt>
      <trkpt lat="44.21501" lon="5.0326">
        <ele>319.7756348</ele>
        <time>2016-02-19T13:57:32Z</time>
      </trkpt>
      <trkpt lat="44.21485" lon="5.03248">
        <ele>318.8143311</ele>
        <time>2016-02-19T13:57:48Z</time>
      </trkpt>
      <trkpt lat="44.21473" lon="5.03229">
        <ele>316.8917236</ele>
        <time>2016-02-19T13:58:01Z</time>
      </trkpt>
      <trkpt lat="44.21472" lon="5.03226">
        <ele>316.4110107</ele>
        <time>2016-02-19T13:58:03Z</time>
      </trkpt>
      <trkpt lat="44.21472" lon="5.03203">
        <ele>314.9691162</ele>
        <time>2016-02-19T13:58:12Z</time>
      </trkpt>
      <trkpt lat="44.21487" lon="5.03184">
        <ele>315.4498291</ele>
        <time>2016-02-19T13:58:27Z</time>
      </trkpt>
      <trkpt lat="44.21501" lon="5.03162">
        <ele>314.0078125</ele>
        <time>2016-02-19T13:58:43Z</time>
      </trkpt>
      <trkpt lat="44.21492" lon="5.03144">
        <ele>311.1237793</ele>
        <time>2016-02-19T13:58:57Z</time>
      </trkpt>
      <trkpt lat="44.2148" lon="5.03131">
        <ele>310.6430664</ele>
        <time>2016-02-19T13:59:09Z</time>
      </trkpt>
      <trkpt lat="44.21473" lon="5.03123">
        <ele>311.1237793</ele>
        <time>2016-02-19T13:59:16Z</time>
      </trkpt>
      <trkpt lat="44.21463" lon="5.03114">
        <ele>310.6430664</ele>
        <time>2016-02-19T13:59:26Z</time>
      </trkpt>
      <trkpt lat="44.2146" lon="5.03109">
        <ele>310.6430664</ele>
        <time>2016-02-19T13:59:30Z</time>
      </trkpt>
      <trkpt lat="44.21453" lon="5.03104">
        <ele>310.1624756</ele>
        <time>2016-02-19T13:59:37Z</time>
      </trkpt>
      <trkpt lat="44.21446" lon="5.03096">
        <ele>310.6430664</ele>
        <time>2016-02-19T13:59:52Z</time>
      </trkpt>
      <trkpt lat="44.21443" lon="5.03089">
        <ele>310.1624756</ele>
        <time>2016-02-19T14:00:13Z</time>
      </trkpt>
      <trkpt lat="44.21442" lon="5.03084">
        <ele>309.2011719</ele>
        <time>2016-02-19T14:00:41Z</time>
      </trkpt>
      <trkpt lat="44.21447" lon="5.03092">
        <ele>312.0852051</ele>
        <time>2016-02-19T14:00:56Z</time>
      </trkpt>
      <trkpt lat="44.21448" lon="5.03093">
        <ele>318.3336182</ele>
        <time>2016-02-19T14:01:52Z</time>
      </trkpt>
      <trkpt lat="44.21444" lon="5.03081">
        <ele>324.1015625</ele>
        <time>2016-02-19T14:04:41Z</time>
      </trkpt>
      <trkpt lat="44.21442" lon="5.03057">
        <ele>319.7756348</ele>
        <time>2016-02-19T14:04:58Z</time>
      </trkpt>
      <trkpt lat="44.2144" lon="5.03037">
        <ele>317.8530273</ele>
        <time>2016-02-19T14:05:11Z</time>
      </trkpt>
      <trkpt lat="44.21441" lon="5.03025">
        <ele>315.9304199</ele>
        <time>2016-02-19T14:05:25Z</time>
      </trkpt>
      <trkpt lat="44.21443" lon="5.03025">
        <ele>315.9304199</ele>
        <time>2016-02-19T14:05:28Z</time>
      </trkpt>
      <trkpt lat="44.21454" lon="5.03022">
        <ele>312.5657959</ele>
        <time>2016-02-19T14:05:40Z</time>
      </trkpt>
      <trkpt lat="44.21453" lon="5.02992">
        <ele>307.7592773</ele>
        <time>2016-02-19T14:05:57Z</time>
      </trkpt>
      <trkpt lat="44.21454" lon="5.02982">
        <ele>309.2011719</ele>
        <time>2016-02-19T14:06:03Z</time>
      </trkpt>
      <trkpt lat="44.21455" lon="5.02977">
        <ele>309.2011719</ele>
        <time>2016-02-19T14:06:06Z</time>
      </trkpt>
      <trkpt lat="44.21456" lon="5.02958">
        <ele>309.2011719</ele>
        <time>2016-02-19T14:06:16Z</time>
      </trkpt>
      <trkpt lat="44.21458" lon="5.02955">
        <ele>309.2011719</ele>
        <time>2016-02-19T14:06:19Z</time>
      </trkpt>
      <trkpt lat="44.21462" lon="5.02949">
        <ele>310.1624756</ele>
        <time>2016-02-19T14:06:24Z</time>
      </trkpt>
      <trkpt lat="44.21464" lon="5.02938">
        <ele>310.1624756</ele>
        <time>2016-02-19T14:06:33Z</time>
      </trkpt>
      <trkpt lat="44.21473" lon="5.02925">
        <ele>312.0852051</ele>
        <time>2016-02-19T14:06:44Z</time>
      </trkpt>
      <trkpt lat="44.21488" lon="5.02899">
        <ele>315.4498291</ele>
        <time>2016-02-19T14:07:01Z</time>
      </trkpt>
      <trkpt lat="44.21497" lon="5.0289">
        <ele>314.9691162</ele>
        <time>2016-02-19T14:07:12Z</time>
      </trkpt>
      <trkpt lat="44.21516" lon="5.02897">
        <ele>311.6044922</ele>
        <time>2016-02-19T14:07:32Z</time>
      </trkpt>
      <trkpt lat="44.2154" lon="5.02891">
        <ele>311.6044922</ele>
        <time>2016-02-19T14:07:55Z</time>
      </trkpt>
      <trkpt lat="44.21544" lon="5.02878">
        <ele>311.1237793</ele>
        <time>2016-02-19T14:08:04Z</time>
      </trkpt>
      <trkpt lat="44.2155" lon="5.02856">
        <ele>311.6044922</ele>
        <time>2016-02-19T14:08:17Z</time>
      </trkpt>
      <trkpt lat="44.21554" lon="5.02833">
        <ele>311.1237793</ele>
        <time>2016-02-19T14:08:35Z</time>
      </trkpt>
      <trkpt lat="44.21567" lon="5.02805">
        <ele>309.6818848</ele>
        <time>2016-02-19T14:09:00Z</time>
      </trkpt>
      <trkpt lat="44.21588" lon="5.02783">
        <ele>307.7592773</ele>
        <time>2016-02-19T14:09:26Z</time>
      </trkpt>
      <trkpt lat="44.21609" lon="5.0277">
        <ele>306.3172607</ele>
        <time>2016-02-19T14:09:45Z</time>
      </trkpt>
      <trkpt lat="44.21629" lon="5.02755">
        <ele>305.8366699</ele>
        <time>2016-02-19T14:10:05Z</time>
      </trkpt>
      <trkpt lat="44.21653" lon="5.02742">
        <ele>309.2011719</ele>
        <time>2016-02-19T14:10:22Z</time>
      </trkpt>
      <trkpt lat="44.21666" lon="5.02735">
        <ele>310.1624756</ele>
        <time>2016-02-19T14:10:36Z</time>
      </trkpt>
      <trkpt lat="44.21685" lon="5.02721">
        <ele>312.5657959</ele>
        <time>2016-02-19T14:10:53Z</time>
      </trkpt>
      <trkpt lat="44.21697" lon="5.02715">
        <ele>313.0465088</ele>
        <time>2016-02-19T14:11:05Z</time>
      </trkpt>
      <trkpt lat="44.21714" lon="5.02704">
        <ele>313.0465088</ele>
        <time>2016-02-19T14:11:24Z</time>
      </trkpt>
      <trkpt lat="44.21741" lon="5.0269">
        <ele>312.5657959</ele>
        <time>2016-02-19T14:11:47Z</time>
      </trkpt>
      <trkpt lat="44.21762" lon="5.02679">
        <ele>313.5272217</ele>
        <time>2016-02-19T14:12:01Z</time>
      </trkpt>
      <trkpt lat="44.21764" lon="5.02676">
        <ele>313.5272217</ele>
        <time>2016-02-19T14:12:03Z</time>
      </trkpt>
      <trkpt lat="44.21766" lon="5.02675">
        <ele>313.0465088</ele>
        <time>2016-02-19T14:12:05Z</time>
      </trkpt>
      <trkpt lat="44.2177" lon="5.02676">
        <ele>314.4884033</ele>
        <time>2016-02-19T14:12:07Z</time>
      </trkpt>
      <trkpt lat="44.21786" lon="5.02667">
        <ele>317.8530273</ele>
        <time>2016-02-19T14:12:26Z</time>
      </trkpt>
      <trkpt lat="44.21773" lon="5.02665">
        <ele>317.8530273</ele>
        <time>2016-02-19T14:13:07Z</time>
      </trkpt>
      <trkpt lat="44.21761" lon="5.02668">
        <ele>321.2177734</ele>
        <time>2016-02-19T14:13:33Z</time>
      </trkpt>
      <trkpt lat="44.2175" lon="5.02662">
        <ele>325.0629883</ele>
        <time>2016-02-19T14:13:54Z</time>
      </trkpt>
      <trkpt lat="44.21741" lon="5.02663">
        <ele>326.9855957</ele>
        <time>2016-02-19T14:14:11Z</time>
      </trkpt>
      <trkpt lat="44.21735" lon="5.02656">
        <ele>331.3115234</ele>
        <time>2016-02-19T14:14:30Z</time>
      </trkpt>
      <trkpt lat="44.21732" lon="5.02652">
        <ele>331.7921143</ele>
        <time>2016-02-19T14:14:49Z</time>
      </trkpt>
      <trkpt lat="44.21723" lon="5.02645">
        <ele>332.75354</ele>
        <time>2016-02-19T14:15:13Z</time>
      </trkpt>
      <trkpt lat="44.21711" lon="5.02645">
        <ele>334.6761475</ele>
        <time>2016-02-19T14:15:35Z</time>
      </trkpt>
      <trkpt lat="44.21704" lon="5.02641">
        <ele>336.598877</ele>
        <time>2016-02-19T14:15:53Z</time>
      </trkpt>
      <trkpt lat="44.21697" lon="5.02646">
        <ele>340.9246826</ele>
        <time>2016-02-19T14:16:11Z</time>
      </trkpt>
      <trkpt lat="44.21692" lon="5.02642">
        <ele>343.3278809</ele>
        <time>2016-02-19T14:16:29Z</time>
      </trkpt>
      <trkpt lat="44.21682" lon="5.02641">
        <ele>347.1732178</ele>
        <time>2016-02-19T14:16:49Z</time>
      </trkpt>
      <trkpt lat="44.21668" lon="5.02634">
        <ele>350.057251</ele>
        <time>2016-02-19T14:17:11Z</time>
      </trkpt>
      <trkpt lat="44.2166" lon="5.02627">
        <ele>353.421875</ele>
        <time>2016-02-19T14:17:26Z</time>
      </trkpt>
      <trkpt lat="44.21651" lon="5.02626">
        <ele>358.7089844</ele>
        <time>2016-02-19T14:17:49Z</time>
      </trkpt>
      <trkpt lat="44.21636" lon="5.02627">
        <ele>367.8415527</ele>
        <time>2016-02-19T14:18:32Z</time>
      </trkpt>
      <trkpt lat="44.21631" lon="5.02624">
        <ele>377.454834</ele>
        <time>2016-02-19T14:19:03Z</time>
      </trkpt>
      <trkpt lat="44.21626" lon="5.02619">
        <ele>378.4161377</ele>
        <time>2016-02-19T14:19:19Z</time>
      </trkpt>
      <trkpt lat="44.2162" lon="5.02621">
        <ele>378.8968506</ele>
        <time>2016-02-19T14:19:42Z</time>
      </trkpt>
      <trkpt lat="44.2161" lon="5.02624">
        <ele>380.3387451</ele>
        <time>2016-02-19T14:20:00Z</time>
      </trkpt>
      <trkpt lat="44.21607" lon="5.02617">
        <ele>383.7032471</ele>
        <time>2016-02-19T14:20:26Z</time>
      </trkpt>
      <trkpt lat="44.21601" lon="5.02617">
        <ele>388.0292969</ele>
        <time>2016-02-19T14:20:55Z</time>
      </trkpt>
      <trkpt lat="44.21599" lon="5.02614">
        <ele>388.9906006</ele>
        <time>2016-02-19T14:21:58Z</time>
      </trkpt>
      <trkpt lat="44.21594" lon="5.02608">
        <ele>390.913208</ele>
        <time>2016-02-19T14:22:14Z</time>
      </trkpt>
      <trkpt lat="44.21585" lon="5.02605">
        <ele>397.1617432</ele>
        <time>2016-02-19T14:22:47Z</time>
      </trkpt>
      <trkpt lat="44.21581" lon="5.02603">
        <ele>401.487793</ele>
        <time>2016-02-19T14:23:19Z</time>
      </trkpt>
      <trkpt lat="44.21578" lon="5.02602">
        <ele>404.3717041</ele>
        <time>2016-02-19T14:23:40Z</time>
      </trkpt>
      <trkpt lat="44.21573" lon="5.02596">
        <ele>407.2556152</ele>
        <time>2016-02-19T14:24:00Z</time>
      </trkpt>
      <trkpt lat="44.21567" lon="5.02595">
        <ele>408.217041</ele>
        <time>2016-02-19T14:24:16Z</time>
      </trkpt>
      <trkpt lat="44.21555" lon="5.02597">
        <ele>410.6202393</ele>
        <time>2016-02-19T14:24:34Z</time>
      </trkpt>
      <trkpt lat="44.21545" lon="5.0259">
        <ele>415.4268799</ele>
        <time>2016-02-19T14:24:55Z</time>
      </trkpt>
      <trkpt lat="44.21533" lon="5.02591">
        <ele>416.8688965</ele>
        <time>2016-02-19T14:25:19Z</time>
      </trkpt>
      <trkpt lat="44.21531" lon="5.02596">
        <ele>416.8688965</ele>
        <time>2016-02-19T14:25:34Z</time>
      </trkpt>
      <trkpt lat="44.21529" lon="5.02601">
        <ele>416.3881836</ele>
        <time>2016-02-19T14:25:49Z</time>
      </trkpt>
      <trkpt lat="44.21531" lon="5.026">
        <ele>416.8688965</ele>
        <time>2016-02-19T14:26:14Z</time>
      </trkpt>
      <trkpt lat="44.21535" lon="5.02596">
        <ele>417.3496094</ele>
        <time>2016-02-19T14:26:29Z</time>
      </trkpt>
      <trkpt lat="44.21538" lon="5.02595">
        <ele>416.8688965</ele>
        <time>2016-02-19T14:26:57Z</time>
      </trkpt>
      <trkpt lat="44.21531" lon="5.02596">
        <ele>417.3496094</ele>
        <time>2016-02-19T14:27:17Z</time>
      </trkpt>
      <trkpt lat="44.2153" lon="5.0259">
        <ele>417.8302002</ele>
        <time>2016-02-19T14:27:37Z</time>
      </trkpt>
      <trkpt lat="44.21533" lon="5.02591">
        <ele>419.7528076</ele>
        <time>2016-02-19T14:28:04Z</time>
      </trkpt>
      <trkpt lat="44.21532" lon="5.02591">
        <ele>419.7528076</ele>
        <time>2016-02-19T14:29:50Z</time>
      </trkpt>
      <trkpt lat="44.21528" lon="5.02589">
        <ele>420.7141113</ele>
        <time>2016-02-19T14:31:52Z</time>
      </trkpt>
      <trkpt lat="44.2153" lon="5.02588">
        <ele>420.7141113</ele>
        <time>2016-02-19T14:32:08Z</time>
      </trkpt>
      <trkpt lat="44.21538" lon="5.02589">
        <ele>418.7915039</ele>
        <time>2016-02-19T14:32:30Z</time>
      </trkpt>
      <trkpt lat="44.21543" lon="5.02586">
        <ele>417.8302002</ele>
        <time>2016-02-19T14:32:49Z</time>
      </trkpt>
      <trkpt lat="44.21553" lon="5.02595">
        <ele>413.9848633</ele>
        <time>2016-02-19T14:33:08Z</time>
      </trkpt>
      <trkpt lat="44.21559" lon="5.02594">
        <ele>413.0235596</ele>
        <time>2016-02-19T14:33:15Z</time>
      </trkpt>
      <trkpt lat="44.21569" lon="5.02595">
        <ele>409.1783447</ele>
        <time>2016-02-19T14:33:30Z</time>
      </trkpt>
      <trkpt lat="44.21574" lon="5.02599">
        <ele>405.8137207</ele>
        <time>2016-02-19T14:33:43Z</time>
      </trkpt>
      <trkpt lat="44.21573" lon="5.02599">
        <ele>405.8137207</ele>
        <time>2016-02-19T14:33:47Z</time>
      </trkpt>
      <trkpt lat="44.21575" lon="5.02604">
        <ele>405.3330078</ele>
        <time>2016-02-19T14:34:03Z</time>
      </trkpt>
      <trkpt lat="44.2158" lon="5.02603">
        <ele>402.4490967</ele>
        <time>2016-02-19T14:34:17Z</time>
      </trkpt>
      <trkpt lat="44.21582" lon="5.02605">
        <ele>400.0458984</ele>
        <time>2016-02-19T14:34:31Z</time>
      </trkpt>
      <trkpt lat="44.21589" lon="5.02603">
        <ele>396.6811523</ele>
        <time>2016-02-19T14:34:45Z</time>
      </trkpt>
      <trkpt lat="44.21594" lon="5.02608">
        <ele>395.7198486</ele>
        <time>2016-02-19T14:34:58Z</time>
      </trkpt>
      <trkpt lat="44.21596" lon="5.02612">
        <ele>393.7972412</ele>
        <time>2016-02-19T14:35:13Z</time>
      </trkpt>
      <trkpt lat="44.21599" lon="5.02614">
        <ele>391.8745117</ele>
        <time>2016-02-19T14:35:30Z</time>
      </trkpt>
      <trkpt lat="44.21605" lon="5.02618">
        <ele>390.4326172</ele>
        <time>2016-02-19T14:35:40Z</time>
      </trkpt>
      <trkpt lat="44.21607" lon="5.02624">
        <ele>386.1066895</ele>
        <time>2016-02-19T14:35:50Z</time>
      </trkpt>
      <trkpt lat="44.21608" lon="5.02623">
        <ele>385.6259766</ele>
        <time>2016-02-19T14:35:52Z</time>
      </trkpt>
      <trkpt lat="44.21619" lon="5.02621">
        <ele>382.2613525</ele>
        <time>2016-02-19T14:36:04Z</time>
      </trkpt>
      <trkpt lat="44.21626" lon="5.02625">
        <ele>377.454834</ele>
        <time>2016-02-19T14:36:18Z</time>
      </trkpt>
      <trkpt lat="44.2164" lon="5.02627">
        <ele>374.5708008</ele>
        <time>2016-02-19T14:36:43Z</time>
      </trkpt>
      <trkpt lat="44.21645" lon="5.02627">
        <ele>373.1289063</ele>
        <time>2016-02-19T14:37:30Z</time>
      </trkpt>
      <trkpt lat="44.21655" lon="5.02629">
        <ele>369.2836914</ele>
        <time>2016-02-19T14:37:45Z</time>
      </trkpt>
      <trkpt lat="44.21656" lon="5.02629">
        <ele>368.3222656</ele>
        <time>2016-02-19T14:38:42Z</time>
      </trkpt>
      <trkpt lat="44.21664" lon="5.02633">
        <ele>365.4383545</ele>
        <time>2016-02-19T14:38:53Z</time>
      </trkpt>
      <trkpt lat="44.21678" lon="5.02636">
        <ele>357.7478027</ele>
        <time>2016-02-19T14:39:09Z</time>
      </trkpt>
      <trkpt lat="44.21691" lon="5.02638">
        <ele>353.421875</ele>
        <time>2016-02-19T14:39:21Z</time>
      </trkpt>
      <trkpt lat="44.217" lon="5.0264">
        <ele>349.5765381</ele>
        <time>2016-02-19T14:39:36Z</time>
      </trkpt>
      <trkpt lat="44.21706" lon="5.02642">
        <ele>345.2506104</ele>
        <time>2016-02-19T14:39:49Z</time>
      </trkpt>
      <trkpt lat="44.21714" lon="5.02648">
        <ele>343.8085938</ele>
        <time>2016-02-19T14:40:03Z</time>
      </trkpt>
      <trkpt lat="44.21718" lon="5.02648">
        <ele>343.3278809</ele>
        <time>2016-02-19T14:40:07Z</time>
      </trkpt>
      <trkpt lat="44.21728" lon="5.02648">
        <ele>339.482666</ele>
        <time>2016-02-19T14:40:23Z</time>
      </trkpt>
      <trkpt lat="44.21731" lon="5.02655">
        <ele>338.5214844</ele>
        <time>2016-02-19T14:40:38Z</time>
      </trkpt>
      <trkpt lat="44.21735" lon="5.02658">
        <ele>338.0407715</ele>
        <time>2016-02-19T14:40:44Z</time>
      </trkpt>
      <trkpt lat="44.21745" lon="5.02662">
        <ele>333.7147217</ele>
        <time>2016-02-19T14:40:55Z</time>
      </trkpt>
      <trkpt lat="44.21753" lon="5.02666">
        <ele>333.7147217</ele>
        <time>2016-02-19T14:41:05Z</time>
      </trkpt>
      <trkpt lat="44.21764" lon="5.02665">
        <ele>330.8309326</ele>
        <time>2016-02-19T14:41:20Z</time>
      </trkpt>
      <trkpt lat="44.21774" lon="5.02664">
        <ele>328.9083252</ele>
        <time>2016-02-19T14:41:37Z</time>
      </trkpt>
      <trkpt lat="44.21777" lon="5.02664">
        <ele>327.9467773</ele>
        <time>2016-02-19T14:41:41Z</time>
      </trkpt>
      <trkpt lat="44.21782" lon="5.02667">
        <ele>325.5435791</ele>
        <time>2016-02-19T14:41:52Z</time>
      </trkpt>
      <trkpt lat="44.21784" lon="5.02667">
        <ele>325.5435791</ele>
        <time>2016-02-19T14:42:28Z</time>
      </trkpt>
      <trkpt lat="44.21786" lon="5.02666">
        <ele>325.0629883</ele>
        <time>2016-02-19T14:42:50Z</time>
      </trkpt>
      <trkpt lat="44.21784" lon="5.02661">
        <ele>324.1015625</ele>
        <time>2016-02-19T14:43:09Z</time>
      </trkpt>
      <trkpt lat="44.21783" lon="5.02654">
        <ele>324.1015625</ele>
        <time>2016-02-19T14:43:12Z</time>
      </trkpt>
      <trkpt lat="44.21779" lon="5.02635">
        <ele>321.2177734</ele>
        <time>2016-02-19T14:43:26Z</time>
      </trkpt>
      <trkpt lat="44.21773" lon="5.02619">
        <ele>318.3336182</ele>
        <time>2016-02-19T14:43:37Z</time>
      </trkpt>
      <trkpt lat="44.21769" lon="5.02593">
        <ele>311.6044922</ele>
        <time>2016-02-19T14:43:55Z</time>
      </trkpt>
      <trkpt lat="44.21769" lon="5.02566">
        <ele>309.6818848</ele>
        <time>2016-02-19T14:44:11Z</time>
      </trkpt>
      <trkpt lat="44.21771" lon="5.02547">
        <ele>305.8366699</ele>
        <time>2016-02-19T14:44:25Z</time>
      </trkpt>
      <trkpt lat="44.21775" lon="5.02535">
        <ele>305.355957</ele>
        <time>2016-02-19T14:44:36Z</time>
      </trkpt>
      <trkpt lat="44.21788" lon="5.02513">
        <ele>302.4719238</ele>
        <time>2016-02-19T14:44:55Z</time>
      </trkpt>
      <trkpt lat="44.21783" lon="5.02504">
        <ele>302.9525146</ele>
        <time>2016-02-19T14:45:09Z</time>
      </trkpt>
      <trkpt lat="44.2178" lon="5.02501">
        <ele>302.4719238</ele>
        <time>2016-02-19T14:45:36Z</time>
      </trkpt>
      <trkpt lat="44.21782" lon="5.02504">
        <ele>303.4332275</ele>
        <time>2016-02-19T14:45:48Z</time>
      </trkpt>
      <trkpt lat="44.21788" lon="5.025">
        <ele>305.8366699</ele>
        <time>2016-02-19T14:46:55Z</time>
      </trkpt>
      <trkpt lat="44.21779" lon="5.02503">
        <ele>306.3172607</ele>
        <time>2016-02-19T14:47:14Z</time>
      </trkpt>
      <trkpt lat="44.21777" lon="5.025">
        <ele>304.8752441</ele>
        <time>2016-02-19T14:48:06Z</time>
      </trkpt>
      <trkpt lat="44.21776" lon="5.02499">
        <ele>304.3946533</ele>
        <time>2016-02-19T14:48:40Z</time>
      </trkpt>
      <trkpt lat="44.21776" lon="5.02499">
        <ele>303.9139404</ele>
        <time>2016-02-19T14:50:14Z</time>
      </trkpt>
      <trkpt lat="44.21774" lon="5.02496">
        <ele>303.9139404</ele>
        <time>2016-02-19T14:50:16Z</time>
      </trkpt>
      <trkpt lat="44.21767" lon="5.02485">
        <ele>303.4332275</ele>
        <time>2016-02-19T14:50:28Z</time>
      </trkpt>
      <trkpt lat="44.21759" lon="5.02473">
        <ele>300.5493164</ele>
        <time>2016-02-19T14:50:41Z</time>
      </trkpt>
      <trkpt lat="44.21749" lon="5.02457">
        <ele>296.2235107</ele>
        <time>2016-02-19T14:50:56Z</time>
      </trkpt>
      <trkpt lat="44.21745" lon="5.02437">
        <ele>292.8587646</ele>
        <time>2016-02-19T14:51:11Z</time>
      </trkpt>
      <trkpt lat="44.21745" lon="5.02424">
        <ele>291.8974609</ele>
        <time>2016-02-19T14:51:22Z</time>
      </trkpt>
      <trkpt lat="44.21744" lon="5.02409">
        <ele>289.9748535</ele>
        <time>2016-02-19T14:51:33Z</time>
      </trkpt>
      <trkpt lat="44.21741" lon="5.02396">
        <ele>288.0522461</ele>
        <time>2016-02-19T14:51:44Z</time>
      </trkpt>
      <trkpt lat="44.2174" lon="5.02394">
        <ele>287.5714111</ele>
        <time>2016-02-19T14:51:45Z</time>
      </trkpt>
      <trkpt lat="44.21733" lon="5.02377">
        <ele>284.6876221</ele>
        <time>2016-02-19T14:52:00Z</time>
      </trkpt>
      <trkpt lat="44.21729" lon="5.02365">
        <ele>281.8035889</ele>
        <time>2016-02-19T14:52:06Z</time>
      </trkpt>
      <trkpt lat="44.21722" lon="5.02366">
        <ele>278.9196777</ele>
        <time>2016-02-19T14:52:13Z</time>
      </trkpt>
      <trkpt lat="44.2171" lon="5.02365">
        <ele>276.5163574</ele>
        <time>2016-02-19T14:52:24Z</time>
      </trkpt>
      <trkpt lat="44.21706" lon="5.02358">
        <ele>276.0356445</ele>
        <time>2016-02-19T14:52:28Z</time>
      </trkpt>
      <trkpt lat="44.21689" lon="5.02352">
        <ele>273.6324463</ele>
        <time>2016-02-19T14:52:48Z</time>
      </trkpt>
      <trkpt lat="44.21683" lon="5.02348">
        <ele>273.1518555</ele>
        <time>2016-02-19T14:52:54Z</time>
      </trkpt>
      <trkpt lat="44.21676" lon="5.02335">
        <ele>272.6711426</ele>
        <time>2016-02-19T14:53:04Z</time>
      </trkpt>
      <trkpt lat="44.21666" lon="5.02325">
        <ele>272.1904297</ele>
        <time>2016-02-19T14:53:18Z</time>
      </trkpt>
      <trkpt lat="44.21652" lon="5.02311">
        <ele>273.1518555</ele>
        <time>2016-02-19T14:53:33Z</time>
      </trkpt>
      <trkpt lat="44.21644" lon="5.02303">
        <ele>271.7097168</ele>
        <time>2016-02-19T14:53:42Z</time>
      </trkpt>
      <trkpt lat="44.21633" lon="5.02297">
        <ele>272.1904297</ele>
        <time>2016-02-19T14:53:53Z</time>
      </trkpt>
      <trkpt lat="44.21611" lon="5.02269">
        <ele>273.1518555</ele>
        <time>2016-02-19T14:54:18Z</time>
      </trkpt>
      <trkpt lat="44.21603" lon="5.02265">
        <ele>273.6324463</ele>
        <time>2016-02-19T14:54:27Z</time>
      </trkpt>
      <trkpt lat="44.21592" lon="5.02259">
        <ele>270.7484131</ele>
        <time>2016-02-19T14:54:41Z</time>
      </trkpt>
      <trkpt lat="44.21571" lon="5.02266">
        <ele>268.8258057</ele>
        <time>2016-02-19T14:54:57Z</time>
      </trkpt>
      <trkpt lat="44.21551" lon="5.02262">
        <ele>267.864502</ele>
        <time>2016-02-19T14:55:13Z</time>
      </trkpt>
      <trkpt lat="44.21542" lon="5.02258">
        <ele>265.4613037</ele>
        <time>2016-02-19T14:55:32Z</time>
      </trkpt>
      <trkpt lat="44.21523" lon="5.02257">
        <ele>264.9805908</ele>
        <time>2016-02-19T14:56:00Z</time>
      </trkpt>
      <trkpt lat="44.21504" lon="5.02232">
        <ele>264.4998779</ele>
        <time>2016-02-19T14:56:20Z</time>
      </trkpt>
      <trkpt lat="44.21493" lon="5.02215">
        <ele>263.5385742</ele>
        <time>2016-02-19T14:56:32Z</time>
      </trkpt>
      <trkpt lat="44.21485" lon="5.02209">
        <ele>262.5771484</ele>
        <time>2016-02-19T14:56:38Z</time>
      </trkpt>
      <trkpt lat="44.21474" lon="5.02208">
        <ele>262.0965576</ele>
        <time>2016-02-19T14:56:47Z</time>
      </trkpt>
      <trkpt lat="44.21472" lon="5.02208">
        <ele>262.0965576</ele>
        <time>2016-02-19T14:56:49Z</time>
      </trkpt>
      <trkpt lat="44.21471" lon="5.02208">
        <ele>262.0965576</ele>
        <time>2016-02-19T14:56:51Z</time>
      </trkpt>
      <trkpt lat="44.21449" lon="5.02219">
        <ele>262.5771484</ele>
        <time>2016-02-19T14:57:10Z</time>
      </trkpt>
      <trkpt lat="44.21432" lon="5.02238">
        <ele>261.6159668</ele>
        <time>2016-02-19T14:57:29Z</time>
      </trkpt>
      <trkpt lat="44.21427" lon="5.02242">
        <ele>261.1352539</ele>
        <time>2016-02-19T14:57:33Z</time>
      </trkpt>
      <trkpt lat="44.21421" lon="5.02248">
        <ele>259.2126465</ele>
        <time>2016-02-19T14:57:41Z</time>
      </trkpt>
      <trkpt lat="44.21417" lon="5.02251">
        <ele>258.2513428</ele>
        <time>2016-02-19T14:57:45Z</time>
      </trkpt>
      <trkpt lat="44.2141" lon="5.02254">
        <ele>256.3287354</ele>
        <time>2016-02-19T14:57:53Z</time>
      </trkpt>
      <trkpt lat="44.21402" lon="5.02256">
        <ele>254.8865967</ele>
        <time>2016-02-19T14:58:04Z</time>
      </trkpt>
      <trkpt lat="44.21399" lon="5.02256">
        <ele>253.925415</ele>
        <time>2016-02-19T14:58:07Z</time>
      </trkpt>
      <trkpt lat="44.21384" lon="5.02255">
        <ele>246.2348633</ele>
        <time>2016-02-19T14:58:22Z</time>
      </trkpt>
      <trkpt lat="44.21371" lon="5.02249">
        <ele>240.9476318</ele>
        <time>2016-02-19T14:58:37Z</time>
      </trkpt>
      <trkpt lat="44.21369" lon="5.02249">
        <ele>239.9862061</ele>
        <time>2016-02-19T14:58:39Z</time>
      </trkpt>
      <trkpt lat="44.2136" lon="5.02248">
        <ele>237.5828857</ele>
        <time>2016-02-19T14:58:49Z</time>
      </trkpt>
      <trkpt lat="44.21347" lon="5.02227">
        <ele>233.7376709</ele>
        <time>2016-02-19T14:59:07Z</time>
      </trkpt>
      <trkpt lat="44.21333" lon="5.02202">
        <ele>231.3343506</ele>
        <time>2016-02-19T14:59:28Z</time>
      </trkpt>
      <trkpt lat="44.21316" lon="5.02176">
        <ele>229.4117432</ele>
        <time>2016-02-19T14:59:49Z</time>
      </trkpt>
      <trkpt lat="44.21308" lon="5.02159">
        <ele>226.527832</ele>
        <time>2016-02-19T15:00:00Z</time>
      </trkpt>
      <trkpt lat="44.21303" lon="5.02157">
        <ele>226.0471191</ele>
        <time>2016-02-19T15:00:06Z</time>
      </trkpt>
      <trkpt lat="44.21299" lon="5.02156">
        <ele>226.0471191</ele>
        <time>2016-02-19T15:00:12Z</time>
      </trkpt>
      <trkpt lat="44.21294" lon="5.02153">
        <ele>226.0471191</ele>
        <time>2016-02-19T15:00:26Z</time>
      </trkpt>
      <trkpt lat="44.21295" lon="5.02149">
        <ele>227.0085449</ele>
        <time>2016-02-19T15:00:59Z</time>
      </trkpt>
      <trkpt lat="44.21294" lon="5.02151">
        <ele>227.0085449</ele>
        <time>2016-02-19T15:01:30Z</time>
      </trkpt>
      <trkpt lat="44.21284" lon="5.02152">
        <ele>227.4891357</ele>
        <time>2016-02-19T15:01:53Z</time>
      </trkpt>
      <trkpt lat="44.21277" lon="5.02155">
        <ele>227.0085449</ele>
        <time>2016-02-19T15:02:01Z</time>
      </trkpt>
      <trkpt lat="44.21263" lon="5.02149">
        <ele>225.5665283</ele>
        <time>2016-02-19T15:02:14Z</time>
      </trkpt>
      <trkpt lat="44.21248" lon="5.02153">
        <ele>227.4891357</ele>
        <time>2016-02-19T15:02:34Z</time>
      </trkpt>
      <trkpt lat="44.21243" lon="5.02153">
        <ele>227.9697266</ele>
        <time>2016-02-19T15:02:39Z</time>
      </trkpt>
      <trkpt lat="44.21228" lon="5.02155">
        <ele>226.527832</ele>
        <time>2016-02-19T15:02:57Z</time>
      </trkpt>
      <trkpt lat="44.21215" lon="5.02163">
        <ele>225.0859375</ele>
        <time>2016-02-19T15:03:13Z</time>
      </trkpt>
      <trkpt lat="44.21196" lon="5.02169">
        <ele>228.9311523</ele>
        <time>2016-02-19T15:03:30Z</time>
      </trkpt>
      <trkpt lat="44.21181" lon="5.02171">
        <ele>230.3730469</ele>
        <time>2016-02-19T15:03:44Z</time>
      </trkpt>
      <trkpt lat="44.21169" lon="5.02166">
        <ele>231.8149414</ele>
        <time>2016-02-19T15:03:55Z</time>
      </trkpt>
      <trkpt lat="44.21152" lon="5.02165">
        <ele>234.2183838</ele>
        <time>2016-02-19T15:04:10Z</time>
      </trkpt>
      <trkpt lat="44.21136" lon="5.02167">
        <ele>233.2570801</ele>
        <time>2016-02-19T15:04:26Z</time>
      </trkpt>
      <trkpt lat="44.2112" lon="5.02169">
        <ele>234.6990967</ele>
        <time>2016-02-19T15:04:41Z</time>
      </trkpt>
      <trkpt lat="44.2111" lon="5.02171">
        <ele>235.1796875</ele>
        <time>2016-02-19T15:04:54Z</time>
      </trkpt>
      <trkpt lat="44.21107" lon="5.02171">
        <ele>234.6990967</ele>
        <time>2016-02-19T15:04:56Z</time>
      </trkpt>
      <trkpt lat="44.21097" lon="5.02173">
        <ele>233.2570801</ele>
        <time>2016-02-19T15:05:06Z</time>
      </trkpt>
      <trkpt lat="44.21081" lon="5.02172">
        <ele>233.7376709</ele>
        <time>2016-02-19T15:05:19Z</time>
      </trkpt>
      <trkpt lat="44.21066" lon="5.02176">
        <ele>233.7376709</ele>
        <time>2016-02-19T15:05:36Z</time>
      </trkpt>
      <trkpt lat="44.21047" lon="5.02179">
        <ele>231.3343506</ele>
        <time>2016-02-19T15:05:54Z</time>
      </trkpt>
      <trkpt lat="44.21033" lon="5.02176">
        <ele>228.9311523</ele>
        <time>2016-02-19T15:06:07Z</time>
      </trkpt>
      <trkpt lat="44.21032" lon="5.02175">
        <ele>228.9311523</ele>
        <time>2016-02-19T15:06:08Z</time>
      </trkpt>
      <trkpt lat="44.21013" lon="5.02174">
        <ele>229.4117432</ele>
        <time>2016-02-19T15:06:22Z</time>
      </trkpt>
      <trkpt lat="44.20997" lon="5.02168">
        <ele>227.9697266</ele>
        <time>2016-02-19T15:06:35Z</time>
      </trkpt>
      <trkpt lat="44.20983" lon="5.0216">
        <ele>225.5665283</ele>
        <time>2016-02-19T15:06:49Z</time>
      </trkpt>
      <trkpt lat="44.20966" lon="5.02155">
        <ele>223.163208</ele>
        <time>2016-02-19T15:07:08Z</time>
      </trkpt>
      <trkpt lat="44.20962" lon="5.02152">
        <ele>222.6824951</ele>
        <time>2016-02-19T15:07:13Z</time>
      </trkpt>
      <trkpt lat="44.20957" lon="5.02148">
        <ele>223.6437988</ele>
        <time>2016-02-19T15:07:17Z</time>
      </trkpt>
      <trkpt lat="44.20943" lon="5.02144">
        <ele>226.527832</ele>
        <time>2016-02-19T15:07:31Z</time>
      </trkpt>
      <trkpt lat="44.20929" lon="5.02141">
        <ele>227.9697266</ele>
        <time>2016-02-19T15:07:44Z</time>
      </trkpt>
      <trkpt lat="44.20918" lon="5.02143">
        <ele>225.5665283</ele>
        <time>2016-02-19T15:08:05Z</time>
      </trkpt>
      <trkpt lat="44.20905" lon="5.02147">
        <ele>226.0471191</ele>
        <time>2016-02-19T15:08:15Z</time>
      </trkpt>
      <trkpt lat="44.209" lon="5.02148">
        <ele>227.0085449</ele>
        <time>2016-02-19T15:08:18Z</time>
      </trkpt>
      <trkpt lat="44.20888" lon="5.02149">
        <ele>226.527832</ele>
        <time>2016-02-19T15:08:27Z</time>
      </trkpt>
      <trkpt lat="44.20886" lon="5.0215">
        <ele>226.527832</ele>
        <time>2016-02-19T15:08:29Z</time>
      </trkpt>
      <trkpt lat="44.20868" lon="5.02155">
        <ele>219.798584</ele>
        <time>2016-02-19T15:08:47Z</time>
      </trkpt>
      <trkpt lat="44.20854" lon="5.02159">
        <ele>217.8759766</ele>
        <time>2016-02-19T15:09:07Z</time>
      </trkpt>
      <trkpt lat="44.2085" lon="5.02162">
        <ele>216.43396</ele>
        <time>2016-02-19T15:09:18Z</time>
      </trkpt>
      <trkpt lat="44.20822" lon="5.02179">
        <ele>216.43396</ele>
        <time>2016-02-19T15:09:41Z</time>
      </trkpt>
      <trkpt lat="44.20821" lon="5.0218">
        <ele>216.43396</ele>
        <time>2016-02-19T15:09:42Z</time>
      </trkpt>
      <trkpt lat="44.20813" lon="5.02185">
        <ele>216.43396</ele>
        <time>2016-02-19T15:09:51Z</time>
      </trkpt>
      <trkpt lat="44.20798" lon="5.02206">
        <ele>216.43396</ele>
        <time>2016-02-19T15:10:11Z</time>
      </trkpt>
      <trkpt lat="44.20785" lon="5.02207">
        <ele>216.43396</ele>
        <time>2016-02-19T15:10:32Z</time>
      </trkpt>
      <trkpt lat="44.20782" lon="5.02211">
        <ele>216.9146729</ele>
        <time>2016-02-19T15:10:47Z</time>
      </trkpt>
      <trkpt lat="44.20781" lon="5.02225">
        <ele>216.43396</ele>
        <time>2016-02-19T15:11:00Z</time>
      </trkpt>
      <trkpt lat="44.20778" lon="5.02244">
        <ele>216.43396</ele>
        <time>2016-02-19T15:11:17Z</time>
      </trkpt>
      <trkpt lat="44.20778" lon="5.0228">
        <ele>219.798584</ele>
        <time>2016-02-19T15:11:40Z</time>
      </trkpt>
      <trkpt lat="44.20776" lon="5.02295">
        <ele>218.3565674</ele>
        <time>2016-02-19T15:11:56Z</time>
      </trkpt>
      <trkpt lat="44.20767" lon="5.02304">
        <ele>218.3565674</ele>
        <time>2016-02-19T15:12:11Z</time>
      </trkpt>
      <trkpt lat="44.20759" lon="5.0232">
        <ele>217.3953857</ele>
        <time>2016-02-19T15:12:24Z</time>
      </trkpt>
      <trkpt lat="44.20758" lon="5.02339">
        <ele>217.3953857</ele>
        <time>2016-02-19T15:12:41Z</time>
      </trkpt>
      <trkpt lat="44.20749" lon="5.02343">
        <ele>218.3565674</ele>
        <time>2016-02-19T15:12:52Z</time>
      </trkpt>
      <trkpt lat="44.20737" lon="5.02325">
        <ele>221.2406006</ele>
        <time>2016-02-19T15:13:09Z</time>
      </trkpt>
      <trkpt lat="44.20734" lon="5.02314">
        <ele>219.3179932</ele>
        <time>2016-02-19T15:13:16Z</time>
      </trkpt>
      <trkpt lat="44.20731" lon="5.02294">
        <ele>218.3565674</ele>
        <time>2016-02-19T15:13:35Z</time>
      </trkpt>
      <trkpt lat="44.20727" lon="5.02293">
        <ele>218.8372803</ele>
        <time>2016-02-19T15:14:55Z</time>
      </trkpt>
      <trkpt lat="44.20728" lon="5.02298">
        <ele>223.163208</ele>
        <time>2016-02-19T15:15:33Z</time>
      </trkpt>
      <trkpt lat="44.20728" lon="5.02298">
        <ele>223.163208</ele>
        <time>2016-02-19T15:15:44Z</time>
      </trkpt>
    </trkseg>
  </trk>
</gpx>